Provisional Data: Ninemile Run near Walton, PA


Please select a monitoring station.
Please select start date.
Please select start date.
Historical Station - Data Range: 05/25/2011 - 12/07/2022

Toggle Unit: C/F Toggle Unit: C/F
Sample Time Temperature (C) Temperature (F) Specific Conductivity (mS/cm) pH   Turbidity (NTU+) DO (mg/L)
11/7/2022 12:00:00 AM 13.09 55.562 0.105 7.11 1.33 9.83
11/7/2022 12:15:00 AM 13.03 55.454 0.105 7.1 1.47 9.83
11/7/2022 12:30:00 AM 12.96 55.328 0.105 7.09 1.31 9.83
11/7/2022 12:45:00 AM 12.9 55.22 0.105 7.09 1.33 9.85
11/7/2022 1:00:00 AM 12.84 55.112 0.105 7.1 1.47 9.88
11/7/2022 1:15:00 AM 12.77 54.986 0.105 7.09 1.31 9.9
11/7/2022 1:30:00 AM 12.7 54.86 0.105 7.1 1.41 9.92
11/7/2022 1:45:00 AM 12.65 54.77 0.105 7.09 1.21 9.94
11/7/2022 2:00:00 AM 12.61 54.698 0.105 7.09 1.32 9.94
11/7/2022 2:15:00 AM 12.57 54.626 0.105 7.09 1.34 9.98
11/7/2022 2:30:00 AM 12.54 54.572 0.105 7.09 1.23 9.98
11/7/2022 2:45:00 AM 12.51 54.518 0.105 7.09 1.29 10.01
11/7/2022 3:00:00 AM 12.48 54.464 0.105 7.09 1.27 10.02
11/7/2022 3:15:00 AM 12.44 54.392 0.105 7.09 1.44 10.03
11/7/2022 3:30:00 AM 12.39 54.302 0.105 7.09 1.28 10.03
11/7/2022 3:45:00 AM 12.33 54.194 0.105 7.08 1.56 10.04
11/7/2022 4:00:00 AM 12.26 54.068 0.105 7.08 1.36 10.04
11/7/2022 4:15:00 AM 12.17 53.906 0.105 7.09 1.38 10.06
11/7/2022 4:30:00 AM 12.09 53.762 0.105 7.08 1.24 10.1
11/7/2022 4:45:00 AM 12.01 53.618 0.105 7.09 1.28 10.09
11/7/2022 5:00:00 AM 11.92 53.456 0.105 7.09 1.29 10.12
11/7/2022 5:15:00 AM 11.82 53.276 0.105 7.07 1.46 10.1
11/7/2022 5:30:00 AM 11.73 53.114 0.105 7.08 1.24 10.12
11/7/2022 5:45:00 AM 11.63 52.934 0.105 7.08 1.39 10.16
11/7/2022 6:00:00 AM 11.52 52.736 0.105 7.08 1.35 10.2
11/7/2022 6:15:00 AM 11.41 52.538 0.104 7.09 1.31 10.22
11/7/2022 6:30:00 AM 11.29 52.322 0.105 7.1 1.28 10.25
11/7/2022 6:45:00 AM 11.2 52.16 0.105 7.09 1.45 10.27
11/7/2022 7:00:00 AM 11.08 51.944 0.104 7.09 1.28 10.31
11/7/2022 7:15:00 AM 10.96 51.728 0.104 7.09 1.28 10.34
11/7/2022 7:30:00 AM 10.84 51.512 0.104 7.09 1.57 10.38
11/7/2022 7:45:00 AM 10.75 51.35 0.105 7.07 12.16 10.16
11/7/2022 8:00:00 AM 10.65 51.17 0.105 7.09 1.87 10.4
11/7/2022 8:15:00 AM 10.55 50.99 0.105 7.1 1.39 10.48
11/7/2022 8:30:00 AM 10.4 50.72 0.105 7.11 1.29 10.59
11/7/2022 8:45:00 AM 10.31 50.558 0.105 7.11 1.28 10.66
11/7/2022 9:00:00 AM 10.26 50.468 0.104 7.12 1.28 10.71
11/7/2022 9:15:00 AM 10.2 50.36 0.104 7.13 1.23 10.77
11/7/2022 9:30:00 AM 10.15 50.27 0.104 7.14 1.29 10.88
11/7/2022 9:45:00 AM 10.14 50.252 0.104 7.15 1.2 10.95
11/7/2022 10:00:00 AM 10.16 50.288 0.104 7.16 1.2 11.01
11/7/2022 10:15:00 AM 10.2 50.36 0.104 7.18 1.21 11.04
11/7/2022 10:30:00 AM 10.27 50.486 0.104 7.17 1.28 11.07
11/7/2022 10:45:00 AM 10.32 50.576 0.104 7.17 1.28 11.15
11/7/2022 11:00:00 AM 10.41 50.738 0.104 7.18 1.3 11.26
11/7/2022 11:15:00 AM 10.47 50.846 0.103 7.21 1.23 11.33
11/7/2022 11:30:00 AM 10.59 51.062 0.103 7.24 1.22 11.38
11/7/2022 11:45:00 AM 10.69 51.242 0.103 7.24 1.26 11.43
11/7/2022 12:00:00 PM 10.82 51.476 0.103 7.26 1.23 11.49
11/7/2022 12:15:00 PM 10.88 51.584 0.103 7.28 1.32 11.51
11/7/2022 12:30:00 PM 10.97 51.746 0.102 7.27 1.24 11.52
11/7/2022 12:45:00 PM 11.08 51.944 0.102 7.3 1.17 11.51
11/7/2022 1:00:00 PM 11.2 52.16 0.102 7.3 1.22 11.49
11/7/2022 1:15:00 PM 11.26 52.268 0.102 7.32 1.22 11.47
11/7/2022 1:30:00 PM 11.41 52.538 0.102 7.29 1.23 11.45
11/7/2022 1:45:00 PM 11.46 52.628 0.102 7.33 1.24 11.42
11/7/2022 2:00:00 PM 11.52 52.736 0.102 7.34 1.25 11.38
11/7/2022 2:15:00 PM 11.61 52.898 0.102 7.33 1.28 11.36
11/7/2022 2:30:00 PM 11.74 53.132 0.101 7.33 1.19 11.32
11/7/2022 2:45:00 PM 11.79 53.222 0.101 7.34 1.27 11.26
11/7/2022 3:00:00 PM 11.88 53.384 0.101 7.34 1.25 11.23
11/7/2022 3:15:00 PM 11.93 53.474 0.101 7.36 1.19 11.2
11/7/2022 3:30:00 PM 11.95 53.51 0.101 7.36 1.14 11.18
11/7/2022 3:45:00 PM 11.97 53.546 0.101 7.36 1.16 11.17
11/7/2022 4:00:00 PM 11.95 53.51 0.101 7.36 1.22 11.13
11/7/2022 4:15:00 PM 11.92 53.456 0.101 7.33 1.61 10.97
11/7/2022 4:30:00 PM 11.86 53.348 0.101 7.35 1.29 11.06
11/7/2022 4:45:00 PM 11.81 53.258 0.101 7.34 1.27 11.03
11/7/2022 5:00:00 PM 11.74 53.132 0.101 7.34 1.29 11
11/7/2022 5:15:00 PM 11.66 52.988 0.101 7.32 1.77 10.97
11/7/2022 5:30:00 PM 11.58 52.844 0.101 7.32 1.27 10.93
11/7/2022 5:45:00 PM 11.48 52.664 0.101 7.32 1.28 10.92
11/7/2022 6:00:00 PM 11.38 52.484 0.101 7.3 1.19 10.89
11/7/2022 6:15:00 PM 11.25 52.25 0.101 7.29 1.31 10.84
11/7/2022 6:30:00 PM 11.12 52.016 0.101 7.26 1.21 10.8
11/7/2022 6:45:00 PM 10.95 51.71 0.102 7.24 1.6 10.76
11/7/2022 7:00:00 PM 10.8 51.44 0.102 7.22 1.27 10.73
11/7/2022 7:15:00 PM 10.62 51.116 0.102 7.21 1.42 10.71
11/7/2022 7:30:00 PM 10.46 50.828 0.102 7.18 1.53 10.7
11/7/2022 7:45:00 PM 10.27 50.486 0.103 7.18 1.34 10.74
11/7/2022 8:00:00 PM 10.1 50.18 0.103 7.19 1.31 10.77
11/7/2022 8:15:00 PM 9.95 49.91 0.103 7.18 1.27 10.79
11/7/2022 8:30:00 PM 9.82 49.676 0.103 7.17 1.33 10.82
11/7/2022 8:45:00 PM 9.67 49.406 0.103 7.17 1.48 10.84
11/7/2022 9:00:00 PM 9.52 49.136 0.103 7.17 1.33 10.88
11/7/2022 9:15:00 PM 9.39 48.902 0.103 7.16 1.36 10.93
11/7/2022 9:30:00 PM 9.25 48.65 0.104 7.16 1.32 10.97
11/7/2022 9:45:00 PM 9.14 48.452 0.104 7.17 1.38 11.01
11/7/2022 10:00:00 PM 9 48.2 0.104 7.16 1.35 11.04
11/7/2022 10:15:00 PM 8.83 47.894 0.104 7.17 1.4 11.15
11/7/2022 10:30:00 PM 8.71 47.678 0.104 7.17 1.41 11.17
11/7/2022 10:45:00 PM 8.59 47.462 0.104 7.16 1.69 11.23
11/7/2022 11:00:00 PM 8.49 47.282 0.104 7.17 1.49 11.26
11/7/2022 11:15:00 PM 8.4 47.12 0.104 7.17 1.37 11.29
11/7/2022 11:30:00 PM 8.31 46.958 0.104 7.16 1.42 11.34
11/7/2022 11:45:00 PM 8.24 46.832 0.104 7.17 1.38 11.37
11/8/2022 12:00:00 AM 8.17 46.706 0.104 7.17 1.32 11.38
11/8/2022 12:15:00 AM 8.09 46.562 0.104 7.17 1.4 11.41
11/8/2022 12:30:00 AM 8 46.4 0.104 7.17 1.32 11.45
11/8/2022 12:45:00 AM 7.9 46.22 0.104 7.17 1.46 11.48
11/8/2022 1:00:00 AM 7.8 46.04 0.104 7.17 1.25 11.53
11/8/2022 1:15:00 AM 7.72 45.896 0.104 7.17 1.29 11.56
11/8/2022 1:30:00 AM 7.64 45.752 0.104 7.17 1.28 11.57
11/8/2022 1:45:00 AM 7.53 45.554 0.104 7.17 1.48 11.6
11/8/2022 2:00:00 AM 7.45 45.41 0.104 7.17 1.3 11.63
11/8/2022 2:15:00 AM 7.35 45.23 0.104 7.17 1.33 11.67
11/8/2022 2:30:00 AM 7.25 45.05 0.104 7.17 1.37 11.69
11/8/2022 2:45:00 AM 7.15 44.87 0.104 7.17 1.31 11.72
11/8/2022 3:00:00 AM 7.07 44.726 0.104 7.17 1.38 11.75
11/8/2022 3:15:00 AM 6.99 44.582 0.104 7.16 1.3 11.77
11/8/2022 3:30:00 AM 6.9 44.42 0.104 7.17 1.36 11.79
11/8/2022 3:45:00 AM 6.83 44.294 0.104 7.17 1.26 11.81
11/8/2022 4:00:00 AM 6.75 44.15 0.104 7.16 1.24 11.85
11/8/2022 4:15:00 AM 6.65 43.97 0.104 7.17 1.25 11.89
11/8/2022 4:30:00 AM 6.56 43.808 0.104 7.17 1.32 11.92
11/8/2022 4:45:00 AM 6.5 43.7 0.104 7.17 1.19 11.95
11/8/2022 5:00:00 AM 6.41 43.538 0.104 7.16 1.22 11.98
11/8/2022 5:15:00 AM 6.32 43.376 0.104 7.16 1.29 12.02
11/8/2022 5:30:00 AM 6.23 43.214 0.104 7.17 1.18 12.05
11/8/2022 5:45:00 AM 6.16 43.088 0.104 7.16 1.26 12.07
11/8/2022 6:00:00 AM 6.09 42.962 0.104 7.17 1.17 12.11
11/8/2022 6:15:00 AM 6.01 42.818 0.104 7.16 1.16 12.12
11/8/2022 6:30:00 AM 5.95 42.71 0.104 7.16 1.15 12.16
11/8/2022 6:45:00 AM 5.89 42.602 0.104 7.16 1.17 12.19
11/8/2022 7:00:00 AM 5.87 42.566 0.104 7.16 1.25 12.2
11/8/2022 7:15:00 AM 5.85 42.53 0.104 7.16 1.26 12.26
11/8/2022 7:30:00 AM 5.85 42.53 0.104 7.16 1.2 12.27
11/8/2022 7:45:00 AM 5.85 42.53 0.104 7.15 1.21 12.3
11/8/2022 8:00:00 AM 5.84 42.512 0.104 7.16 1.14 12.32
11/8/2022 8:15:00 AM 5.84 42.512 0.104 7.12 1.16 12.34
11/8/2022 8:30:00 AM 5.83 42.494 0.104 7.11 1.17 12.36
11/8/2022 8:45:00 AM 5.81 42.458 0.104 7.13 1.13 12.41
11/8/2022 9:00:00 AM 5.81 42.458 0.104 7.15 1.15 12.49
11/8/2022 9:15:00 AM 5.82 42.476 0.104 7.17 1.06 12.59
11/8/2022 9:30:00 AM 5.84 42.512 0.104 7.18 1.08 12.66
11/8/2022 9:45:00 AM 5.86 42.548 0.104 7.21 1.15 12.74
11/8/2022 10:00:00 AM 5.89 42.602 0.104 7.22 1.15 12.8
11/8/2022 10:15:00 AM 5.96 42.728 0.104 7.24 1.11 12.83
11/8/2022 10:30:00 AM 6.07 42.926 0.104 7.25 1.11 12.89
11/8/2022 10:45:00 AM 6.15 43.07 0.103 7.26 1.11 12.91
11/8/2022 11:00:00 AM 6.22 43.196 0.103 7.27 1.09 12.95
11/8/2022 11:15:00 AM 6.32 43.376 0.103 7.29 1.11 12.95
11/8/2022 11:30:00 AM 6.44 43.592 0.103 7.3 1.16 12.98
11/8/2022 11:45:00 AM 6.58 43.844 0.103 7.3 1.1 12.99
11/8/2022 12:00:00 PM 6.69 44.042 0.103 7.32 7.06 12.98
11/8/2022 12:15:00 PM 6.79 44.222 0.103 7.32 1.24 12.96
11/8/2022 12:30:00 PM 6.92 44.456 0.102 7.32 1.1 12.94
11/8/2022 12:45:00 PM 7.03 44.654 0.102 7.33 1.81 12.91
11/8/2022 1:00:00 PM 7.16 44.888 0.102 7.33 1.15 12.89
11/8/2022 1:15:00 PM 7.27 45.086 0.102 7.33 1.18 12.82
11/8/2022 1:30:00 PM 7.39 45.302 0.102 7.33 1.29 12.79
11/8/2022 1:45:00 PM 7.52 45.536 0.102 7.34 1.13 12.76
11/8/2022 2:00:00 PM 7.66 45.788 0.102 7.35 1.12 12.71
11/8/2022 2:15:00 PM 7.77 45.986 0.102 7.36 1.13 12.63
11/8/2022 2:30:00 PM 7.92 46.256 0.101 7.36 2.32 12.6
11/8/2022 2:45:00 PM 8.04 46.472 0.101 7.36 1.12 12.55
11/8/2022 3:00:00 PM 8.13 46.634 0.101 7.35 1.13 12.52
11/8/2022 3:15:00 PM 8.23 46.814 0.101 7.36 1.16 12.44
11/8/2022 3:30:00 PM 8.31 46.958 0.101 7.37 1.27 12.41
11/8/2022 3:45:00 PM 8.35 47.03 0.101 7.37 1.17 12.38
11/8/2022 4:00:00 PM 8.4 47.12 0.101 7.37 1.11 12.34
11/8/2022 4:15:00 PM 8.44 47.192 0.101 7.37 1.14 12.29
11/8/2022 4:30:00 PM 8.46 47.228 0.101 7.36 1.11 12.24
11/8/2022 4:45:00 PM 8.47 47.246 0.101 7.34 1.13 12.18
11/8/2022 5:00:00 PM 8.45 47.21 0.101 7.31 1.14 12.14
11/8/2022 5:15:00 PM 8.41 47.138 0.101 7.33 1.31 12.07
11/8/2022 5:30:00 PM 8.36 47.048 0.101 7.31 1.12 12.05
11/8/2022 5:45:00 PM 8.29 46.922 0.101 7.32 1.19 11.98
11/8/2022 6:00:00 PM 8.2 46.76 0.101 7.31 1.17 11.98
11/8/2022 6:15:00 PM 8.1 46.58 0.101 7.28 1.37 11.9
11/8/2022 6:30:00 PM 7.96 46.328 0.102 7.27 1.21 11.91
11/8/2022 6:45:00 PM 7.83 46.094 0.102 7.27 1.18 11.92
11/8/2022 7:00:00 PM 7.69 45.842 0.102 7.26 1.2 11.93
11/8/2022 7:15:00 PM 7.52 45.536 0.102 7.25 1.13 11.93
11/8/2022 7:30:00 PM 7.38 45.284 0.102 7.24 1.17 11.96
11/8/2022 7:45:00 PM 7.22 44.996 0.102 7.23 1.16 11.96
11/8/2022 8:00:00 PM 7.06 44.708 0.102 7.22 1.18 11.99
11/8/2022 8:15:00 PM 6.91 44.438 0.102 7.22 1.18 12.03
11/8/2022 8:30:00 PM 6.76 44.168 0.103 7.22 1.15 12.06
11/8/2022 8:45:00 PM 6.61 43.898 0.103 7.21 1.21 12.11
11/8/2022 9:00:00 PM 6.46 43.628 0.103 7.21 1.18 12.16
11/8/2022 9:15:00 PM 6.34 43.412 0.103 7.2 1.21 12.17
11/8/2022 9:30:00 PM 6.2 43.16 0.103 7.2 1.17 12.21
11/8/2022 9:45:00 PM 6.1 42.98 0.103 7.2 1.23 12.25
11/8/2022 10:00:00 PM 5.99 42.782 0.103 7.19 1.12 12.28
11/8/2022 10:15:00 PM 5.88 42.584 0.103 7.19 1.12 12.31
11/8/2022 10:30:00 PM 5.78 42.404 0.103 7.19 1.13 12.34
11/8/2022 10:45:00 PM 5.66 42.188 0.104 7.19 1.3 12.37
11/8/2022 11:00:00 PM 5.57 42.026 0.104 7.19 1.14 12.4
11/8/2022 11:15:00 PM 5.48 41.864 0.104 7.18 1.27 12.42
11/8/2022 11:30:00 PM 5.38 41.684 0.104 7.18 1.11 12.49
11/8/2022 11:45:00 PM 5.31 41.558 0.104 7.17 1.16 12.49
11/9/2022 12:00:00 AM 5.22 41.396 0.104 7.13 1.12 12.5
11/9/2022 12:15:00 AM 5.12 41.216 0.104 7.14 1.11 12.56
11/9/2022 12:30:00 AM 5.04 41.072 0.104 7.15 1.2 12.62
11/9/2022 12:45:00 AM 4.96 40.928 0.104 7.15 1.22 12.62
11/9/2022 1:00:00 AM 4.88 40.784 0.104 7.15 1.11 12.66
11/9/2022 1:15:00 AM 4.8 40.64 0.104 7.15 1.11 12.69
11/9/2022 1:30:00 AM 4.74 40.532 0.104 7.15 1.13 12.7
11/9/2022 1:45:00 AM 4.68 40.424 0.104 7.15 1.09 12.73
11/9/2022 2:00:00 AM 4.6 40.28 0.104 7.15 1.09 12.78
11/9/2022 2:15:00 AM 4.56 40.208 0.104 7.14 1.1 12.79
11/9/2022 2:30:00 AM 4.48 40.064 0.104 7.15 1.13 12.83
11/9/2022 2:45:00 AM 4.42 39.956 0.104 7.15 1.12 12.84
11/9/2022 3:00:00 AM 4.35 39.83 0.104 7.14 1.26 12.86
11/9/2022 3:15:00 AM 4.28 39.704 0.104 7.14 1.13 12.88
11/9/2022 3:30:00 AM 4.22 39.596 0.104 7.14 1.08 12.92
11/9/2022 3:45:00 AM 4.15 39.47 0.104 7.14 1.07 12.94
11/9/2022 4:00:00 AM 4.09 39.362 0.104 7.14 1.11 12.96
11/9/2022 4:15:00 AM 4.03 39.254 0.104 7.15 1.09 12.98
11/9/2022 4:30:00 AM 3.96 39.128 0.104 7.15 1.29 13.01
11/9/2022 4:45:00 AM 3.9 39.02 0.104 7.14 1.08 13.02
11/9/2022 5:00:00 AM 3.83 38.894 0.104 7.14 1.02 13.04
11/9/2022 5:15:00 AM 3.76 38.768 0.104 7.14 1.03 13.07
11/9/2022 5:30:00 AM 3.7 38.66 0.104 7.14 1.13 13.09
11/9/2022 5:45:00 AM 3.62 38.516 0.104 7.14 1.09 13.12
11/9/2022 6:00:00 AM 3.54 38.372 0.104 7.14 1.06 13.18
11/9/2022 6:15:00 AM 3.48 38.264 0.104 7.14 1.1 13.19
11/9/2022 6:30:00 AM 3.41 38.138 0.104 7.15 1.12 13.21
11/9/2022 6:45:00 AM 3.35 38.03 0.104 7.14 1.07 13.24
11/9/2022 7:00:00 AM 3.29 37.922 0.104 7.14 1.07 13.24
11/9/2022 7:15:00 AM 3.22 37.796 0.104 7.14 1.09 13.28
11/9/2022 7:30:00 AM 3.15 37.67 0.104 7.14 1.22 13.32
11/9/2022 7:45:00 AM 3.08 37.544 0.104 7.14 1.37 13.34
11/9/2022 8:00:00 AM 3.03 37.454 0.104 7.14 1.21 13.35
11/9/2022 8:15:00 AM 2.99 37.382 0.104 7.14 1.14 13.36
11/9/2022 8:30:00 AM 2.92 37.256 0.105 7.15 1.19 13.42
11/9/2022 8:45:00 AM 2.87 37.166 0.105 7.15 1.12 13.46
11/9/2022 9:00:00 AM 2.83 37.094 0.105 7.15 1.18 13.53
11/9/2022 9:15:00 AM 2.81 37.058 0.104 7.17 1.2 13.6
11/9/2022 9:30:00 AM 2.81 37.058 0.104 7.18 1.5 13.67
11/9/2022 9:45:00 AM 2.83 37.094 0.104 7.19 1.04 13.76
11/9/2022 10:00:00 AM 2.87 37.166 0.104 7.21 1.03 13.8
11/9/2022 10:15:00 AM 3 37.4 0.104 7.22 1.12 13.82
11/9/2022 10:30:00 AM 3.1 37.58 0.104 7.24 1.1 13.88
11/9/2022 10:45:00 AM 3.2 37.76 0.104 7.26 1.06 13.92
11/9/2022 11:00:00 AM 3.35 38.03 0.104 7.27 1.07 13.91
11/9/2022 11:15:00 AM 3.45 38.21 0.104 7.28 1.04 13.95
11/9/2022 11:30:00 AM 3.62 38.516 0.103 7.28 1.02 13.95
11/9/2022 11:45:00 AM 3.83 38.894 0.103 7.28 1.26 13.96
11/9/2022 12:00:00 PM 4.09 39.362 0.103 7.3 1.02 13.9
11/9/2022 12:15:00 PM 4.21 39.578 0.103 7.31 1.02 13.89
11/9/2022 12:30:00 PM 4.39 39.902 0.103 7.32 1.03 13.85
11/9/2022 12:45:00 PM 4.59 40.262 0.103 7.33 1.02 13.83
11/9/2022 1:00:00 PM 4.78 40.604 0.102 7.33 1.17 13.77
11/9/2022 1:15:00 PM 4.96 40.928 0.102 7.34 1.04 13.69
11/9/2022 1:30:00 PM 5.14 41.252 0.102 7.34 1.06 13.66
11/9/2022 1:45:00 PM 5.29 41.522 0.102 7.35 1.01 13.62
11/9/2022 2:00:00 PM 5.48 41.864 0.102 7.35 1.24 13.53
11/9/2022 2:15:00 PM 5.64 42.152 0.102 7.35 1.03 13.45
11/9/2022 2:30:00 PM 5.81 42.458 0.102 7.35 1.01 13.36
11/9/2022 2:45:00 PM 5.98 42.764 0.102 7.36 1.03 13.29
11/9/2022 3:00:00 PM 6.09 42.962 0.102 7.35 1.4 13.22
11/9/2022 3:15:00 PM 6.21 43.178 0.101 7.36 1.13 13.18
11/9/2022 3:30:00 PM 6.3 43.34 0.101 7.35 1.11 13.1
11/9/2022 3:45:00 PM 6.39 43.502 0.101 7.36 1.07 13.05
11/9/2022 4:00:00 PM 6.45 43.61 0.101 7.36 1.06 13.03
11/9/2022 4:15:00 PM 6.49 43.682 0.101 7.37 1.09 12.93
11/9/2022 4:30:00 PM 6.51 43.718 0.101 7.36 1.16 12.9
11/9/2022 4:45:00 PM 6.51 43.718 0.101 7.35 1.06 12.88
11/9/2022 5:00:00 PM 6.51 43.718 0.101 7.36 2.66 12.86
11/9/2022 5:15:00 PM 6.48 43.664 0.101 7.34 1.06 12.76
11/9/2022 5:30:00 PM 6.43 43.574 0.101 7.33 1.07 12.71
11/9/2022 5:45:00 PM 6.36 43.448 0.101 7.33 1.07 12.71
11/9/2022 6:00:00 PM 6.29 43.322 0.101 7.32 1.39 12.67
11/9/2022 6:15:00 PM 6.2 43.16 0.102 7.3 1.16 12.65
11/9/2022 6:30:00 PM 6.1 42.98 0.102 7.29 1.09 12.63
11/9/2022 6:45:00 PM 5.99 42.782 0.102 7.28 1.16 12.58
11/9/2022 7:00:00 PM 5.88 42.584 0.102 7.27 1.11 12.56
11/9/2022 7:15:00 PM 5.76 42.368 0.102 7.26 1.26 12.54
11/9/2022 7:30:00 PM 5.65 42.17 0.102 7.25 1.1 12.55
11/9/2022 7:45:00 PM 5.55 41.99 0.102 7.24 1.16 12.55
11/9/2022 8:00:00 PM 5.43 41.774 0.102 7.24 1.12 12.56
11/9/2022 8:15:00 PM 5.31 41.558 0.102 7.23 1.12 12.6
11/9/2022 8:30:00 PM 5.22 41.396 0.103 7.23 1.12 12.59
11/9/2022 8:45:00 PM 5.13 41.234 0.103 7.22 1.16 12.6
11/9/2022 9:00:00 PM 5.04 41.072 0.103 7.23 1.08 12.63
11/9/2022 9:15:00 PM 4.95 40.91 0.103 7.22 1.17 12.65
11/9/2022 9:30:00 PM 4.87 40.766 0.103 7.22 1.1 12.68
11/9/2022 9:45:00 PM 4.8 40.64 0.103 7.21 1.18 12.69
11/9/2022 10:00:00 PM 4.72 40.496 0.103 7.21 1.44 12.71
11/9/2022 10:15:00 PM 4.65 40.37 0.103 7.21 1.26 12.73
11/9/2022 10:30:00 PM 4.59 40.262 0.103 7.2 1.34 12.75
11/9/2022 10:45:00 PM 4.51 40.118 0.104 7.2 1.19 12.79
11/9/2022 11:00:00 PM 4.46 40.028 0.104 7.2 1.16 12.8
11/9/2022 11:15:00 PM 4.4 39.92 0.104 7.2 1.28 12.81
11/9/2022 11:30:00 PM 4.36 39.848 0.104 7.2 1.11 12.83
11/9/2022 11:45:00 PM 4.3 39.74 0.104 7.2 1.27 12.83
11/10/2022 12:00:00 AM 4.23 39.614 0.104 7.2 1.08 12.86
11/10/2022 12:15:00 AM 4.18 39.524 0.104 7.2 1.13 12.88
11/10/2022 12:30:00 AM 4.13 39.434 0.104 7.19 1.1 12.9
11/10/2022 12:45:00 AM 4.07 39.326 0.104 7.2 1.09 12.92
11/10/2022 1:00:00 AM 4.02 39.236 0.104 7.19 1.11 12.94
11/10/2022 1:15:00 AM 3.97 39.146 0.104 7.19 1.09 12.95
11/10/2022 1:30:00 AM 3.93 39.074 0.104 7.19 1.21 12.98
11/10/2022 1:45:00 AM 3.88 38.984 0.104 7.19 1.06 13
11/10/2022 2:00:00 AM 3.83 38.894 0.104 7.19 1.05 13.02
11/10/2022 2:15:00 AM 3.78 38.804 0.104 7.19 1.08 13.05
11/10/2022 2:30:00 AM 3.75 38.75 0.104 7.19 1.15 13.04
11/10/2022 2:45:00 AM 3.7 38.66 0.104 7.19 1.2 13.06
11/10/2022 3:00:00 AM 3.66 38.588 0.104 7.19 1.33 13.09
11/10/2022 3:15:00 AM 3.63 38.534 0.104 7.19 1.16 13.09
11/10/2022 3:30:00 AM 3.58 38.444 0.104 7.19 1.13 13.11
11/10/2022 3:45:00 AM 3.54 38.372 0.104 7.18 1.08 13.12
11/10/2022 4:00:00 AM 3.5 38.3 0.104 7.18 1.07 13.14
11/10/2022 4:15:00 AM 3.48 38.264 0.104 7.18 1.08 13.15
11/10/2022 4:30:00 AM 3.45 38.21 0.104 7.18 1.06 13.15
11/10/2022 4:45:00 AM 3.4 38.12 0.104 7.18 1.08 13.17
11/10/2022 5:00:00 AM 3.36 38.048 0.104 7.18 1.05 13.18
11/10/2022 5:15:00 AM 3.32 37.976 0.104 7.18 1.02 13.2
11/10/2022 5:30:00 AM 3.28 37.904 0.104 7.18 1.05 13.23
11/10/2022 5:45:00 AM 3.24 37.832 0.104 7.18 1.04 13.25
11/10/2022 6:00:00 AM 3.2 37.76 0.104 7.18 1.06 13.26
11/10/2022 6:15:00 AM 3.17 37.706 0.104 7.18 1.11 13.27
11/10/2022 6:30:00 AM 3.14 37.652 0.104 7.18 1.07 13.29
11/10/2022 6:45:00 AM 3.09 37.562 0.104 7.18 1.07 13.3
11/10/2022 7:00:00 AM 3.05 37.49 0.104 7.18 1.05 13.32
11/10/2022 7:15:00 AM 3.02 37.436 0.104 7.18 1.03 13.33
11/10/2022 7:30:00 AM 2.98 37.364 0.104 7.18 1.43 13.36
11/10/2022 7:45:00 AM 2.95 37.31 0.104 7.17 1.2 13.33
11/10/2022 8:00:00 AM 2.9 37.22 0.104 7.17 1.02 13.37
11/10/2022 8:15:00 AM 2.87 37.166 0.104 7.17 2.55 13.41
11/10/2022 8:30:00 AM 2.84 37.112 0.104 7.17 1.07 13.41
11/10/2022 8:45:00 AM 2.82 37.076 0.104 7.17 1.01 13.45
11/10/2022 9:00:00 AM 2.79 37.022 0.104 7.18 1.02 13.5
11/10/2022 9:15:00 AM 2.79 37.022 0.104 7.18 1.02 13.57
11/10/2022 9:30:00 AM 2.8 37.04 0.104 7.19 1.02 13.61
11/10/2022 9:45:00 AM 2.82 37.076 0.104 7.2 1.01 13.67
11/10/2022 10:00:00 AM 2.86 37.148 0.104 7.19 1.02 13.7
11/10/2022 10:15:00 AM 2.95 37.31 0.104 7.21 1 13.77
11/10/2022 10:30:00 AM 3.09 37.562 0.104 7.23 0.98 13.79
11/10/2022 10:45:00 AM 3.24 37.832 0.104 7.24 1.01 13.82
11/10/2022 11:00:00 AM 3.38 38.084 0.104 7.25 1.01 13.86
11/10/2022 11:15:00 AM 3.5 38.3 0.104 7.26 0.99 13.84
11/10/2022 11:30:00 AM 3.72 38.696 0.103 7.26 1.83 13.83
11/10/2022 11:45:00 AM 3.93 39.074 0.103 7.27 1.02 13.84
11/10/2022 12:00:00 PM 4.23 39.614 0.103 7.29 0.98 13.79
11/10/2022 12:15:00 PM 4.37 39.866 0.103 7.29 1 13.8
11/10/2022 12:30:00 PM 4.61 40.298 0.103 7.3 1.03 13.72
11/10/2022 12:45:00 PM 4.8 40.64 0.103 7.31 1.09 13.71
11/10/2022 1:00:00 PM 5.05 41.09 0.102 7.31 1.07 13.61
11/10/2022 1:15:00 PM 5.24 41.432 0.102 7.31 1.18 13.55
11/10/2022 1:30:00 PM 5.49 41.882 0.102 7.32 1 13.52
11/10/2022 1:45:00 PM 5.72 42.296 0.102 7.32 2.11 13.45
11/10/2022 2:00:00 PM 5.91 42.638 0.102 7.33 1.02 13.35
11/10/2022 2:15:00 PM 6.12 43.016 0.101 7.34 1.03 13.25
11/10/2022 2:30:00 PM 6.32 43.376 0.101 7.34 1.01 13.16
11/10/2022 2:45:00 PM 6.5 43.7 0.101 7.34 1.05 13.09
11/10/2022 3:00:00 PM 6.71 44.078 0.101 7.35 1.04 13.01
11/10/2022 3:15:00 PM 6.9 44.42 0.101 7.35 1.01 12.91
11/10/2022 3:30:00 PM 7.04 44.672 0.101 7.35 1.06 12.84
11/10/2022 3:45:00 PM 7.18 44.924 0.101 7.36 2.97 12.75
11/10/2022 4:00:00 PM 7.29 45.122 0.101 7.36 1.02 12.68
11/10/2022 4:15:00 PM 7.38 45.284 0.101 7.36 1.02 12.62
11/10/2022 4:30:00 PM 7.48 45.464 0.101 7.36 1.04 12.56
11/10/2022 4:45:00 PM 7.53 45.554 0.101 7.35 1.22 12.51
11/10/2022 5:00:00 PM 7.55 45.59 0.101 7.35 1.01 12.45
11/10/2022 5:15:00 PM 7.55 45.59 0.101 7.35 1.06 12.4
11/10/2022 5:30:00 PM 7.53 45.554 0.101 7.34 1.06 12.36
11/10/2022 5:45:00 PM 7.5 45.5 0.101 7.33 1.08 12.31
11/10/2022 6:00:00 PM 7.45 45.41 0.101 7.32 1.06 12.26
11/10/2022 6:15:00 PM 7.39 45.302 0.101 7.32 1.08 12.21
11/10/2022 6:30:00 PM 7.3 45.14 0.101 7.3 1.09 12.18
11/10/2022 6:45:00 PM 7.21 44.978 0.101 7.29 1.08 12.13
11/10/2022 7:00:00 PM 7.1 44.78 0.101 7.27 1.13 12.11
11/10/2022 7:15:00 PM 6.99 44.582 0.101 7.26 1.27 12.09
11/10/2022 7:30:00 PM 6.88 44.384 0.102 7.25 1.11 12.08
11/10/2022 7:45:00 PM 6.77 44.186 0.102 7.25 1.1 12.09
11/10/2022 8:00:00 PM 6.66 43.988 0.102 7.24 1.18 12.1
11/10/2022 8:15:00 PM 6.56 43.808 0.102 7.23 1.17 12.07
11/10/2022 8:30:00 PM 6.44 43.592 0.102 7.23 1.1 12.12
11/10/2022 8:45:00 PM 6.34 43.412 0.102 7.22 1.12 12.12
11/10/2022 9:00:00 PM 6.25 43.25 0.103 7.22 1.11 12.12
11/10/2022 9:15:00 PM 6.17 43.106 0.103 7.21 1.16 12.13
11/10/2022 9:30:00 PM 6.1 42.98 0.103 7.2 1.21 12.17
11/10/2022 9:45:00 PM 6.03 42.854 0.103 7.2 1.17 12.16
11/10/2022 10:00:00 PM 5.97 42.746 0.103 7.2 1.12 12.17
11/10/2022 10:15:00 PM 5.92 42.656 0.103 7.2 1.14 12.17
11/10/2022 10:30:00 PM 5.88 42.584 0.103 7.2 1.11 12.2
11/10/2022 10:45:00 PM 5.84 42.512 0.103 7.2 1.1 12.22
11/10/2022 11:00:00 PM 5.81 42.458 0.103 7.2 1.09 12.24
11/10/2022 11:15:00 PM 5.77 42.386 0.103 7.2 1.11 12.24
11/10/2022 11:30:00 PM 5.74 42.332 0.103 7.19 1.11 12.26
11/10/2022 11:45:00 PM 5.72 42.296 0.103 7.19 1.19 12.25
11/11/2022 12:00:00 AM 5.7 42.26 0.103 7.19 1.09 12.26
11/11/2022 12:15:00 AM 5.68 42.224 0.103 7.19 1.08 12.27
11/11/2022 12:30:00 AM 5.66 42.188 0.104 7.19 1.1 12.29
11/11/2022 12:45:00 AM 5.64 42.152 0.104 7.18 1.12 12.3
11/11/2022 1:00:00 AM 5.64 42.152 0.104 7.18 1.08 12.28
11/11/2022 1:15:00 AM 5.62 42.116 0.104 7.18 1.11 12.28
11/11/2022 1:30:00 AM 5.61 42.098 0.104 7.18 1.13 12.29
11/11/2022 1:45:00 AM 5.6 42.08 0.104 7.18 1.05 12.3
11/11/2022 2:00:00 AM 5.6 42.08 0.104 7.18 1.09 12.3
11/11/2022 2:15:00 AM 5.61 42.098 0.104 7.18 1.09 12.29
11/11/2022 2:30:00 AM 5.65 42.17 0.104 7.18 1.09 12.29
11/11/2022 2:45:00 AM 5.69 42.242 0.104 7.18 1.05 12.29
11/11/2022 3:00:00 AM 5.74 42.332 0.104 7.18 1.1 12.29
11/11/2022 3:15:00 AM 5.79 42.422 0.104 7.18 1.12 12.28
11/11/2022 3:30:00 AM 5.84 42.512 0.104 7.18 1.17 12.26
11/11/2022 3:45:00 AM 5.9 42.62 0.104 7.18 1.12 12.25
11/11/2022 4:00:00 AM 5.96 42.728 0.104 7.18 1.09 12.24
11/11/2022 4:15:00 AM 6.02 42.836 0.104 7.18 1.06 12.22
11/11/2022 4:30:00 AM 6.06 42.908 0.104 7.18 1.07 12.2
11/11/2022 4:45:00 AM 6.12 43.016 0.104 7.18 1.1 12.19
11/11/2022 5:00:00 AM 6.17 43.106 0.104 7.18 1.26 12.15
11/11/2022 5:15:00 AM 6.22 43.196 0.104 7.18 1.1 12.15
11/11/2022 5:30:00 AM 6.27 43.286 0.104 7.18 1.05 12.14
11/11/2022 5:45:00 AM 6.32 43.376 0.104 7.18 1.11 12.11
11/11/2022 6:00:00 AM 6.37 43.466 0.104 7.18 1.05 12.11
11/11/2022 6:15:00 AM 6.42 43.556 0.104 7.18 2.93 12.08
11/11/2022 6:30:00 AM 6.48 43.664 0.104 7.18 1.1 12.07
11/11/2022 6:45:00 AM 6.54 43.772 0.104 7.18 1.07 12.04
11/11/2022 7:00:00 AM 6.59 43.862 0.104 7.18 1.1 12.03
11/11/2022 7:15:00 AM 6.65 43.97 0.104 7.18 1.08 12
11/11/2022 7:30:00 AM 6.7 44.06 0.104 7.18 1.12 11.97
11/11/2022 7:45:00 AM 6.75 44.15 0.104 7.19 1.14 11.95
11/11/2022 8:00:00 AM 6.8 44.24 0.104 7.18 1.13 11.92
11/11/2022 8:15:00 AM 6.84 44.312 0.104 7.17 1.28 11.91
11/11/2022 8:30:00 AM 6.88 44.384 0.104 7.18 1.15 11.92
11/11/2022 8:45:00 AM 6.92 44.456 0.104 7.18 1.14 11.9
11/11/2022 9:00:00 AM 6.96 44.528 0.104 7.18 1.08 11.91
11/11/2022 9:15:00 AM 7 44.6 0.104 7.17 1.12 11.89
11/11/2022 9:30:00 AM 7.04 44.672 0.104 7.17 1.12 11.9
11/11/2022 9:45:00 AM 7.09 44.762 0.103 7.17 1.15 11.84
11/11/2022 10:00:00 AM 7.15 44.87 0.103 7.17 1.16 11.91
11/11/2022 10:15:00 AM 7.21 44.978 0.103 7.17 1.94 11.95
11/11/2022 10:30:00 AM 7.26 45.068 0.103 7.17 1.3 11.98
11/11/2022 10:45:00 AM 7.32 45.176 0.103 7.17 1.23 12.01
11/11/2022 11:00:00 AM 7.39 45.302 0.103 7.18 1.24 12.07
11/11/2022 11:15:00 AM 7.45 45.41 0.103 7.19 1.17 12.1
11/11/2022 11:30:00 AM 7.51 45.518 0.103 7.2 1.23 12.12
11/11/2022 11:45:00 AM 7.59 45.662 0.102 7.21 1.11 12.17
11/11/2022 12:00:00 PM 7.66 45.788 0.102 7.22 2.3 12.12
11/11/2022 12:15:00 PM 7.77 45.986 0.102 7.24 1.19 12.17
11/11/2022 12:30:00 PM 7.87 46.166 0.102 7.26 1.31 12.22
11/11/2022 12:45:00 PM 7.98 46.364 0.101 7.27 1.14 12.25
11/11/2022 1:00:00 PM 8.08 46.544 0.101 7.28 1.17 12.29
11/11/2022 1:15:00 PM 8.17 46.706 0.1 7.29 1.27 12.2
11/11/2022 1:30:00 PM 8.29 46.922 0.1 7.29 1.29 12.14
11/11/2022 1:45:00 PM 8.39 47.102 0.099 7.28 1.24 12.08
11/11/2022 2:00:00 PM 8.5 47.3 0.099 7.28 1.29 12.03
11/11/2022 2:15:00 PM 8.6 47.48 0.098 7.27 1.42 11.93
11/11/2022 2:30:00 PM 8.71 47.678 0.098 7.26 1.53 11.87
11/11/2022 2:45:00 PM 8.82 47.876 0.098 7.26 1.79 11.81
11/11/2022 3:00:00 PM 8.91 48.038 0.098 7.26 1.66 11.8
11/11/2022 3:15:00 PM 9.01 48.218 0.097 7.26 1.51 11.78
11/11/2022 3:30:00 PM 9.06 48.308 0.097 7.25 1.6 11.73
11/11/2022 3:45:00 PM 9.09 48.362 0.097 7.24 1.71 11.62
11/11/2022 4:00:00 PM 9.13 48.434 0.097 7.23 1.7 11.59
11/11/2022 4:15:00 PM 9.17 48.506 0.097 7.22 1.84 11.55
11/11/2022 4:30:00 PM 9.22 48.596 0.097 7.21 2.43 11.44
11/11/2022 4:45:00 PM 9.25 48.65 0.097 7.2 1.99 11.39
11/11/2022 5:00:00 PM 9.27 48.686 0.097 7.2 1.73 11.4
11/11/2022 5:15:00 PM 9.3 48.74 0.097 7.17 2.98 11.28
11/11/2022 5:30:00 PM 9.35 48.83 0.097 7.15 3.25 11.19
11/11/2022 5:45:00 PM 9.39 48.902 0.097 7.14 2.74 11.15
11/11/2022 6:00:00 PM 9.4 48.92 0.097 7.11 3.85 11.09
11/11/2022 6:15:00 PM 9.41 48.938 0.098 7.09 4.78 11.07
11/11/2022 6:30:00 PM 9.43 48.974 0.098 7.07 4.12 11.02
11/11/2022 6:45:00 PM 9.45 49.01 0.098 7.07 4.49 10.98
11/11/2022 7:00:00 PM 9.48 49.064 0.099 7.06 4.51 10.94
11/11/2022 7:15:00 PM 9.49 49.082 0.1 7.06 4.96 10.91
11/11/2022 7:30:00 PM 9.52 49.136 0.101 7.06 4.66 10.92
11/11/2022 7:45:00 PM 9.54 49.172 0.102 7.05 5.3 10.91
11/11/2022 8:00:00 PM 9.57 49.226 0.103 7.06 4.56 10.92
11/11/2022 8:15:00 PM 9.61 49.298 0.104 7.06 5.57 10.92
11/11/2022 8:30:00 PM 9.63 49.334 0.106 7.05 5.83 10.9
11/11/2022 8:45:00 PM 9.64 49.352 0.108 7.04 6.82 10.9
11/11/2022 9:00:00 PM 9.65 49.37 0.11 7.04 7.58 10.92
11/11/2022 9:15:00 PM 9.7 49.46 0.11 7.04 10.32 10.92
11/11/2022 9:30:00 PM 9.74 49.532 0.11 7.04 9.71 10.92
11/11/2022 9:45:00 PM 9.79 49.622 0.109 7.03 9.19 10.92
11/11/2022 10:00:00 PM 9.91 49.838 0.107 7.03 11.87 10.95
11/11/2022 10:15:00 PM 9.97 49.946 0.106 7.01 12.69 10.91
11/11/2022 10:30:00 PM 10.01 50.018 0.105 6.99 16.05 10.89
11/11/2022 10:45:00 PM 10.06 50.108 0.105 6.97 18.54 10.86
11/11/2022 11:00:00 PM 10.12 50.216 0.105 6.95 20.33 10.82
11/11/2022 11:15:00 PM 10.25 50.45 0.104 6.94 24.52 10.8
11/11/2022 11:30:00 PM 10.31 50.558 0.105 6.93 24.5 10.76
11/11/2022 11:45:00 PM 10.48 50.864 0.105 6.92 32.72 10.73
11/12/2022 12:00:00 AM 10.57 51.026 0.106 6.91 36.68 10.67
11/12/2022 12:15:00 AM 10.64 51.152 0.108 6.89 48.26 10.62
11/12/2022 12:30:00 AM 10.71 51.278 0.107 6.85 55.25 10.58
11/12/2022 12:45:00 AM 10.79 51.422 0.106 6.84 58.61 10.54
11/12/2022 1:00:00 AM 10.87 51.566 0.105 6.82 54.47 10.49
11/12/2022 1:15:00 AM 10.94 51.692 0.105 6.82 61.02 10.44
11/12/2022 1:30:00 AM 10.99 51.782 0.104 6.79 71.38 10.41
11/12/2022 1:45:00 AM 11.03 51.854 0.102 6.78 72.68 10.39
11/12/2022 2:00:00 AM 11.04 51.872 0.101 6.75 83.46 10.38
11/12/2022 2:15:00 AM 11.06 51.908 0.1 6.75 102.22 10.38
11/12/2022 2:30:00 AM 11.08 51.944 0.099 6.75 121.72 10.39
11/12/2022 2:45:00 AM 11.11 51.998 0.098 6.78 113.95 10.4
11/12/2022 3:00:00 AM 11.12 52.016 0.097 6.77 100.09 10.43
11/12/2022 3:15:00 AM 11.12 52.016 0.098 6.78 79.64 10.47
11/12/2022 3:30:00 AM 11.11 51.998 0.099 6.79 63.34 10.52
11/12/2022 3:45:00 AM 11.08 51.944 0.101 6.8 51.1 10.55
11/12/2022 4:00:00 AM 11.05 51.89 0.103 6.82 44.34 10.58
11/12/2022 4:15:00 AM 11.02 51.836 0.104 6.82 40.03 10.6
11/12/2022 4:30:00 AM 10.99 51.782 0.105 6.84 33.61 10.62
11/12/2022 4:45:00 AM 10.97 51.746 0.105 6.84 32.96 10.64
11/12/2022 5:00:00 AM 10.95 51.71 0.105 6.85 29.33 10.65
11/12/2022 5:15:00 AM 10.93 51.674 0.105 6.86 27.22 10.67
11/12/2022 5:30:00 AM 10.91 51.638 0.105 6.87 25.52 10.68
11/12/2022 5:45:00 AM 10.89 51.602 0.104 6.87 29.5 10.7
11/12/2022 6:00:00 AM 10.86 51.548 0.104 6.88 22.5 10.71
11/12/2022 6:15:00 AM 10.84 51.512 0.104 6.88 21.42 10.72
11/12/2022 6:30:00 AM 10.81 51.458 0.103 6.89 19.25 10.73
11/12/2022 6:45:00 AM 10.78 51.404 0.103 6.89 19.35 10.75
11/12/2022 7:00:00 AM 10.75 51.35 0.103 6.9 17.75 10.76
11/12/2022 7:15:00 AM 10.72 51.296 0.103 6.9 17.13 10.78
11/12/2022 7:30:00 AM 10.69 51.242 0.104 6.91 15.82 10.79
11/12/2022 7:45:00 AM 10.66 51.188 0.104 6.92 14.81 10.8
11/12/2022 8:00:00 AM 10.63 51.134 0.104 6.92 14.01 10.82
11/12/2022 8:15:00 AM 10.6 51.08 0.104 6.93 13.83 10.84
11/12/2022 8:30:00 AM 10.56 51.008 0.105 6.93 12.76 10.85
11/12/2022 8:45:00 AM 10.53 50.954 0.105 6.94 12.54 10.87
11/12/2022 9:00:00 AM 10.5 50.9 0.105 6.94 12.57 10.91
11/12/2022 9:15:00 AM 10.48 50.864 0.105 6.95 11.78 10.94
11/12/2022 9:30:00 AM 10.45 50.81 0.105 6.96 11.03 10.97
11/12/2022 9:45:00 AM 10.44 50.792 0.105 6.96 10.39 10.99
11/12/2022 10:00:00 AM 10.43 50.774 0.105 6.97 10.59 11.02
11/12/2022 10:15:00 AM 10.4 50.72 0.105 6.98 9.67 11.04
11/12/2022 10:30:00 AM 10.38 50.684 0.105 6.98 9.57 11.05
11/12/2022 10:45:00 AM 10.36 50.648 0.105 6.99 9.34 11.07
11/12/2022 11:00:00 AM 10.39 50.702 0.105 6.99 8.98 11.1
11/12/2022 11:15:00 AM 10.42 50.756 0.105 7 8.81 11.12
11/12/2022 11:30:00 AM 10.44 50.792 0.105 7.01 8.67 11.14
11/12/2022 11:45:00 AM 10.48 50.864 0.104 7.01 8.44 11.16
11/12/2022 12:00:00 PM 10.5 50.9 0.104 7.02 8.14 11.17
11/12/2022 12:15:00 PM 10.57 51.026 0.104 7.02 7.75 11.18
11/12/2022 12:30:00 PM 10.59 51.062 0.104 7.03 7.81 11.18
11/12/2022 12:45:00 PM 10.57 51.026 0.103 7.03 7.8 11.18
11/12/2022 1:00:00 PM 10.53 50.954 0.103 7.03 7.34 11.18
11/12/2022 1:15:00 PM 10.51 50.918 0.103 7.04 6.98 11.18
11/12/2022 1:30:00 PM 10.52 50.936 0.103 7.04 7.14 11.19
11/12/2022 1:45:00 PM 10.59 51.062 0.102 7.04 7.21 11.19
11/12/2022 2:00:00 PM 10.62 51.116 0.102 7.04 7.13 11.16
11/12/2022 2:15:00 PM 10.65 51.17 0.102 7.04 6.91 11.15
11/12/2022 2:30:00 PM 10.65 51.17 0.102 7.05 6.66 11.15
11/12/2022 2:45:00 PM 10.65 51.17 0.101 7.05 6.59 11.16
11/12/2022 3:00:00 PM 10.61 51.098 0.101 7.05 6.73 11.15
11/12/2022 3:15:00 PM 10.57 51.026 0.101 7.05 6.46 11.13
11/12/2022 3:30:00 PM 10.55 50.99 0.101 7.04 6.25 11.12
11/12/2022 3:45:00 PM 10.51 50.918 0.1 7.05 6.24 11.09
11/12/2022 4:00:00 PM 10.48 50.864 0.1 7.04 6.27 11.08
11/12/2022 4:15:00 PM 10.44 50.792 0.1 7.04 6.33 11.08
11/12/2022 4:30:00 PM 10.41 50.738 0.1 7.05 6.02 11.1
11/12/2022 4:45:00 PM 10.38 50.684 0.099 7.04 6.16 11.11
11/12/2022 5:00:00 PM 10.33 50.594 0.099 7.05 5.79 11.09
11/12/2022 5:15:00 PM 10.29 50.522 0.099 7.04 5.78 11.09
11/12/2022 5:30:00 PM 10.24 50.432 0.099 7.03 5.98 11.09
11/12/2022 5:45:00 PM 10.19 50.342 0.098 7.03 5.79 11.09
11/12/2022 6:00:00 PM 10.15 50.27 0.098 7.03 5.58 11.08
11/12/2022 6:15:00 PM 10.1 50.18 0.098 7.03 5.69 11.09
11/12/2022 6:30:00 PM 10.06 50.108 0.097 7.02 5.75 11.09
11/12/2022 6:45:00 PM 10.01 50.018 0.097 7.02 5.73 11.1
11/12/2022 7:00:00 PM 9.97 49.946 0.097 7.02 5.96 11.11
11/12/2022 7:15:00 PM 9.92 49.856 0.097 7.02 5.77 11.13
11/12/2022 7:30:00 PM 9.87 49.766 0.096 7.02 5.86 11.14
11/12/2022 7:45:00 PM 9.81 49.658 0.096 7.02 5.56 11.16
11/12/2022 8:00:00 PM 9.76 49.568 0.096 7.02 5.37 11.18
11/12/2022 8:15:00 PM 9.7 49.46 0.096 7.03 5.65 11.2
11/12/2022 8:30:00 PM 9.64 49.352 0.096 7.02 5.38 11.22
11/12/2022 8:45:00 PM 9.59 49.262 0.095 7.03 5.3 11.23
11/12/2022 9:00:00 PM 9.53 49.154 0.095 7.03 5.38 11.25
11/12/2022 9:15:00 PM 9.48 49.064 0.095 7.03 5.09 11.27
11/12/2022 9:30:00 PM 9.42 48.956 0.095 7.03 5.16 11.28
11/12/2022 9:45:00 PM 9.36 48.848 0.095 7.03 5.05 11.31
11/12/2022 10:00:00 PM 9.29 48.722 0.095 7.03 4.91 11.32
11/12/2022 10:15:00 PM 9.23 48.614 0.094 7.03 4.97 11.33
11/12/2022 10:30:00 PM 9.16 48.488 0.094 7.03 5 11.36
11/12/2022 10:45:00 PM 9.1 48.38 0.094 7.03 4.73 11.37
11/12/2022 11:00:00 PM 9.04 48.272 0.094 7.03 4.95 11.39
11/12/2022 11:15:00 PM 8.98 48.164 0.094 7.03 4.84 11.41
11/12/2022 11:30:00 PM 8.92 48.056 0.094 7.03 4.84 11.43
11/12/2022 11:45:00 PM 8.83 47.894 0.094 7.03 4.77 11.46
11/13/2022 12:00:00 AM 8.76 47.768 0.094 7.04 4.58 11.48
11/13/2022 12:15:00 AM 8.7 47.66 0.094 7.03 4.78 11.51
11/13/2022 12:30:00 AM 8.64 47.552 0.094 7.04 4.69 11.53
11/13/2022 12:45:00 AM 8.59 47.462 0.094 7.04 4.6 11.54
11/13/2022 1:00:00 AM 8.54 47.372 0.093 7.04 4.5 11.55
11/13/2022 1:15:00 AM 8.48 47.264 0.094 7.04 4.35 11.58
11/13/2022 1:30:00 AM 8.43 47.174 0.093 7.04 4.36 11.59
11/13/2022 1:45:00 AM 8.37 47.066 0.094 7.04 4.41 11.62
11/13/2022 2:00:00 AM 8.32 46.976 0.093 7.04 4.47 11.63
11/13/2022 2:15:00 AM 8.27 46.886 0.093 7.04 4.24 11.65
11/13/2022 2:30:00 AM 8.22 46.796 0.093 7.04 4.49 11.67
11/13/2022 2:45:00 AM 8.18 46.724 0.093 7.04 4.13 11.68
11/13/2022 3:00:00 AM 8.14 46.652 0.093 7.05 4.06 11.69
11/13/2022 3:15:00 AM 8.09 46.562 0.093 7.04 4.24 11.71
11/13/2022 3:30:00 AM 8.05 46.49 0.093 7.04 4.19 11.72
11/13/2022 3:45:00 AM 8.01 46.418 0.093 7.05 4.11 11.74
11/13/2022 4:00:00 AM 7.97 46.346 0.092 7.04 3.93 11.75
11/13/2022 4:15:00 AM 7.92 46.256 0.092 7.05 3.88 11.76
11/13/2022 4:30:00 AM 7.88 46.184 0.092 7.04 4.05 11.79
11/13/2022 4:45:00 AM 7.85 46.13 0.092 7.05 4.17 11.79
11/13/2022 5:00:00 AM 7.81 46.058 0.092 7.05 3.89 11.8
11/13/2022 5:15:00 AM 7.78 46.004 0.092 7.05 3.99 11.81
11/13/2022 5:30:00 AM 7.75 45.95 0.092 7.04 3.84 11.83
11/13/2022 5:45:00 AM 7.72 45.896 0.092 7.05 3.86 11.84
11/13/2022 6:00:00 AM 7.68 45.824 0.091 7.05 3.83 11.85
11/13/2022 6:15:00 AM 7.65 45.77 0.091 7.04 3.76 11.86
11/13/2022 6:30:00 AM 7.62 45.716 0.091 7.04 3.6 11.87
11/13/2022 6:45:00 AM 7.59 45.662 0.091 7.05 3.73 11.88
11/13/2022 7:00:00 AM 7.56 45.608 0.091 7.05 3.59 11.89
11/13/2022 7:15:00 AM 7.53 45.554 0.091 7.05 3.97 11.91
11/13/2022 7:30:00 AM 7.51 45.518 0.091 7.05 3.51 11.92
11/13/2022 7:45:00 AM 7.48 45.464 0.091 7.05 3.47 11.93
11/13/2022 8:00:00 AM 7.45 45.41 0.091 7.05 3.66 11.94
11/13/2022 8:15:00 AM 7.43 45.374 0.091 7.05 3.39 11.96
11/13/2022 8:30:00 AM 7.41 45.338 0.091 7.06 3.37 11.97
11/13/2022 8:45:00 AM 7.39 45.302 0.09 7.06 3.49 12
11/13/2022 9:00:00 AM 7.37 45.266 0.09 7.06 3.4 12.02
11/13/2022 9:15:00 AM 7.37 45.266 0.09 7.07 3.27 12.05
11/13/2022 9:30:00 AM 7.36 45.248 0.09 7.07 3.23 12.08
11/13/2022 9:45:00 AM 7.38 45.284 0.09 7.08 3.3 12.13
11/13/2022 10:00:00 AM 7.39 45.302 0.09 7.09 3.1 12.16
11/13/2022 10:15:00 AM 7.37 45.266 0.09 7.09 3.01 12.15
11/13/2022 10:30:00 AM 7.26 45.068 0.09 7.1 3.09 12.14
11/13/2022 10:45:00 AM 7.22 44.996 0.09 7.09 3.05 12.17
11/13/2022 11:00:00 AM 7.17 44.906 0.089 7.1 3.06 12.19
11/13/2022 11:15:00 AM 7.19 44.942 0.089 7.11 2.81 12.24
11/13/2022 11:30:00 AM 7.18 44.924 0.089 7.1 2.89 12.25
11/13/2022 11:45:00 AM 7.18 44.924 0.089 7.11 2.97 12.27
11/13/2022 12:00:00 PM 7.19 44.942 0.089 7.12 2.88 12.29
11/13/2022 12:15:00 PM 7.2 44.96 0.089 7.11 2.99 12.31
11/13/2022 12:30:00 PM 7.18 44.924 0.089 7.12 2.9 12.31
11/13/2022 12:45:00 PM 7.22 44.996 0.088 7.12 2.79 12.32
11/13/2022 1:00:00 PM 7.25 45.05 0.089 7.12 2.82 12.33
11/13/2022 1:15:00 PM 7.33 45.194 0.089 7.13 2.92 12.34
11/13/2022 1:30:00 PM 7.39 45.302 0.088 7.13 2.94 12.33
11/13/2022 1:45:00 PM 7.43 45.374 0.088 7.13 2.78 12.32
11/13/2022 2:00:00 PM 7.46 45.428 0.088 7.13 2.74 12.32
11/13/2022 2:15:00 PM 7.42 45.356 0.088 7.14 2.91 12.29
11/13/2022 2:30:00 PM 7.31 45.158 0.088 7.12 2.86 12.27
11/13/2022 2:45:00 PM 7.27 45.086 0.088 7.12 2.82 12.27
11/13/2022 3:00:00 PM 7.25 45.05 0.088 7.13 2.75 12.29
11/13/2022 3:15:00 PM 7.24 45.032 0.088 7.12 2.83 12.29
11/13/2022 3:30:00 PM 7.23 45.014 0.088 7.12 2.81 12.27
11/13/2022 3:45:00 PM 7.23 45.014 0.088 7.12 2.76 12.28
11/13/2022 4:00:00 PM 7.21 44.978 0.088 7.12 2.76 12.28
11/13/2022 4:15:00 PM 7.2 44.96 0.088 7.12 2.78 12.27
11/13/2022 4:30:00 PM 7.14 44.852 0.088 7.12 2.77 12.27
11/13/2022 4:45:00 PM 7.1 44.78 0.088 7.12 2.83 12.27
11/13/2022 5:00:00 PM 7.07 44.726 0.088 7.11 2.74 12.28
11/13/2022 5:15:00 PM 7.02 44.636 0.088 7.11 2.86 12.26
11/13/2022 5:30:00 PM 6.98 44.564 0.088 7.1 2.84 12.26
11/13/2022 5:45:00 PM 6.92 44.456 0.088 7.1 2.81 12.25
11/13/2022 6:00:00 PM 6.88 44.384 0.088 7.09 2.69 12.23
11/13/2022 6:15:00 PM 6.82 44.276 0.088 7.09 2.7 12.22
11/13/2022 6:30:00 PM 6.77 44.186 0.088 7.08 2.75 12.24
11/13/2022 6:45:00 PM 6.73 44.114 0.088 7.08 2.74 12.24
11/13/2022 7:00:00 PM 6.69 44.042 0.088 7.08 2.88 12.24
11/13/2022 7:15:00 PM 6.67 44.006 0.088 7.07 3.01 12.26
11/13/2022 7:30:00 PM 6.62 43.916 0.088 7.06 2.87 12.26
11/13/2022 7:45:00 PM 6.57 43.826 0.088 7.06 2.91 12.28
11/13/2022 8:00:00 PM 6.51 43.718 0.088 7.07 3.33 12.29
11/13/2022 8:15:00 PM 6.48 43.664 0.087 7.06 2.84 12.32
11/13/2022 8:30:00 PM 6.46 43.628 0.088 7.07 2.92 12.32
11/13/2022 8:45:00 PM 6.43 43.574 0.088 7.06 3 12.35
11/13/2022 9:00:00 PM 6.4 43.52 0.088 7.06 2.91 12.36
11/13/2022 9:15:00 PM 6.37 43.466 0.087 7.06 2.84 12.37
11/13/2022 9:30:00 PM 6.33 43.394 0.087 7.06 2.8 12.38
11/13/2022 9:45:00 PM 6.3 43.34 0.087 7.07 2.65 12.39
11/13/2022 10:00:00 PM 6.27 43.286 0.087 7.06 2.84 12.4
11/13/2022 10:15:00 PM 6.24 43.232 0.087 7.07 2.65 12.41
11/13/2022 10:30:00 PM 6.22 43.196 0.086 7.06 2.72 12.42
11/13/2022 10:45:00 PM 6.2 43.16 0.087 7.06 2.68 12.43
11/13/2022 11:00:00 PM 6.17 43.106 0.087 7.06 2.89 12.44
11/13/2022 11:15:00 PM 6.14 43.052 0.088 7.06 2.76 12.46
11/13/2022 11:30:00 PM 6.1 42.98 0.087 7.06 2.82 12.47
11/13/2022 11:45:00 PM 6.08 42.944 0.088 7.06 3.02 12.47
11/14/2022 12:00:00 AM 6.06 42.908 0.088 7.06 2.8 12.49
11/14/2022 12:15:00 AM 6.04 42.872 0.088 7.07 2.57 12.49
11/14/2022 12:30:00 AM 6.01 42.818 0.088 7.06 2.77 12.5
11/14/2022 12:45:00 AM 5.99 42.782 0.087 7.06 2.58 12.51
11/14/2022 1:00:00 AM 5.98 42.764 0.088 7.06 2.71 12.52
11/14/2022 1:15:00 AM 5.96 42.728 0.088 7.07 2.52 12.52
11/14/2022 1:30:00 AM 5.93 42.674 0.087 7.07 2.43 12.54
11/14/2022 1:45:00 AM 5.89 42.602 0.088 7.06 2.49 12.56
11/14/2022 2:00:00 AM 5.86 42.548 0.088 7.07 2.45 12.56
11/14/2022 2:15:00 AM 5.82 42.476 0.087 7.06 2.47 12.58
11/14/2022 2:30:00 AM 5.78 42.404 0.088 7.06 2.46 12.59
11/14/2022 2:45:00 AM 5.75 42.35 0.088 7.06 2.39 12.6
11/14/2022 3:00:00 AM 5.72 42.296 0.088 7.06 2.48 12.62
11/14/2022 3:15:00 AM 5.69 42.242 0.088 7.06 2.42 12.63
11/14/2022 3:30:00 AM 5.67 42.206 0.087 7.06 2.7 12.64
11/14/2022 3:45:00 AM 5.65 42.17 0.087 7.07 2.23 12.65
11/14/2022 4:00:00 AM 5.63 42.134 0.087 7.06 2.33 12.66
11/14/2022 4:15:00 AM 5.6 42.08 0.088 7.07 2.27 12.67
11/14/2022 4:30:00 AM 5.59 42.062 0.087 7.06 2.27 12.68
11/14/2022 4:45:00 AM 5.57 42.026 0.087 7.06 2.19 12.69
11/14/2022 5:00:00 AM 5.55 41.99 0.088 7.06 2.23 12.7
11/14/2022 5:15:00 AM 5.54 41.972 0.087 7.06 2.43 12.7
11/14/2022 5:30:00 AM 5.51 41.918 0.087 7.07 2.36 12.72
11/14/2022 5:45:00 AM 5.49 41.882 0.087 7.06 2.32 12.73
11/14/2022 6:00:00 AM 5.47 41.846 0.087 7.06 2.25 12.73
11/14/2022 6:15:00 AM 5.45 41.81 0.087 7.06 2.42 12.74
11/14/2022 6:30:00 AM 5.44 41.792 0.087 7.06 2.33 12.76
11/14/2022 6:45:00 AM 5.42 41.756 0.087 7.06 2.27 12.75
11/14/2022 7:00:00 AM 5.41 41.738 0.087 7.06 2.18 12.77
11/14/2022 7:15:00 AM 5.39 41.702 0.087 7.06 2.15 12.78
11/14/2022 7:30:00 AM 5.38 41.684 0.088 7.07 2.21 12.78
11/14/2022 7:45:00 AM 5.37 41.666 0.087 7.07 2.33 12.8
11/14/2022 8:00:00 AM 5.36 41.648 0.087 7.07 2.13 12.8
11/14/2022 8:15:00 AM 5.35 41.63 0.087 7.07 2.26 12.81
11/14/2022 8:30:00 AM 5.35 41.63 0.087 7.07 2.23 12.83
11/14/2022 8:45:00 AM 5.34 41.612 0.087 7.07 2.16 12.86
11/14/2022 9:00:00 AM 5.35 41.63 0.086 7.08 2.11 12.9
11/14/2022 9:15:00 AM 5.36 41.648 0.087 7.08 2.07 12.92
11/14/2022 9:30:00 AM 5.38 41.684 0.086 7.09 2.11 12.96
11/14/2022 9:45:00 AM 5.4 41.72 0.087 7.1 2.01 12.99
11/14/2022 10:00:00 AM 5.42 41.756 0.086 7.11 2.11 13.01
11/14/2022 10:15:00 AM 5.46 41.828 0.086 7.11 2.04 13.02
11/14/2022 10:30:00 AM 5.5 41.9 0.087 7.12 2.12 13.04
11/14/2022 10:45:00 AM 5.54 41.972 0.086 7.12 2.02 13.04
11/14/2022 11:00:00 AM 5.58 42.044 0.086 7.13 2.08 13.05
11/14/2022 11:15:00 AM 5.66 42.188 0.086 7.13 2.06 13.05
11/14/2022 11:30:00 AM 5.71 42.278 0.086 7.13 2.07 13.04
11/14/2022 11:45:00 AM 5.78 42.404 0.086 7.14 1.99 13.03
11/14/2022 12:00:00 PM 5.83 42.494 0.085 7.14 2 13.02
11/14/2022 12:15:00 PM 5.88 42.584 0.085 7.15 1.94 13.01
11/14/2022 12:30:00 PM 5.93 42.674 0.086 7.15 1.97 12.99
11/14/2022 12:45:00 PM 5.96 42.728 0.085 7.15 2.04 12.98
11/14/2022 1:00:00 PM 5.99 42.782 0.085 7.15 2.02 12.97
11/14/2022 1:15:00 PM 6.04 42.872 0.085 7.15 2.1 12.97
11/14/2022 1:30:00 PM 6.08 42.944 0.085 7.15 2.06 12.95
11/14/2022 1:45:00 PM 6.1 42.98 0.085 7.16 2.06 12.94
11/14/2022 2:00:00 PM 6.12 43.016 0.085 7.16 2.01 12.92
11/14/2022 2:15:00 PM 6.12 43.016 0.085 7.15 1.98 12.91
11/14/2022 2:30:00 PM 6.13 43.034 0.086 7.16 2.02 12.9
11/14/2022 2:45:00 PM 6.13 43.034 0.086 7.16 2.06 12.89
11/14/2022 3:00:00 PM 6.14 43.052 0.085 7.16 2.05 12.88
11/14/2022 3:15:00 PM 6.14 43.052 0.086 7.15 2.05 12.86
11/14/2022 3:30:00 PM 6.13 43.034 0.086 7.15 1.98 12.85
11/14/2022 3:45:00 PM 6.13 43.034 0.085 7.15 2 12.85
11/14/2022 4:00:00 PM 6.12 43.016 0.085 7.15 2 12.84
11/14/2022 4:15:00 PM 6.1 42.98 0.086 7.15 1.94 12.83
11/14/2022 4:30:00 PM 6.07 42.926 0.086 7.14 1.96 12.82
11/14/2022 4:45:00 PM 6.05 42.89 0.086 7.14 2.05 12.8
11/14/2022 5:00:00 PM 6.02 42.836 0.085 7.14 1.95 12.79
11/14/2022 5:15:00 PM 5.99 42.782 0.086 7.13 2.07 12.77
11/14/2022 5:30:00 PM 5.96 42.728 0.085 7.13 2.02 12.75
11/14/2022 5:45:00 PM 5.92 42.656 0.086 7.12 2.01 12.73
11/14/2022 6:00:00 PM 5.89 42.602 0.086 7.11 1.96 12.72
11/14/2022 6:15:00 PM 5.85 42.53 0.086 7.11 2.02 12.71
11/14/2022 6:30:00 PM 5.82 42.476 0.086 7.1 2.16 12.71
11/14/2022 6:45:00 PM 5.79 42.422 0.086 7.1 2.03 12.71
11/14/2022 7:00:00 PM 5.76 42.368 0.086 7.1 2.1 12.72
11/14/2022 7:15:00 PM 5.74 42.332 0.085 7.09 2.12 12.72
11/14/2022 7:30:00 PM 5.72 42.296 0.086 7.09 2.2 12.72
11/14/2022 7:45:00 PM 5.69 42.242 0.086 7.09 2.07 12.73
11/14/2022 8:00:00 PM 5.67 42.206 0.086 7.09 2.05 12.74
11/14/2022 8:15:00 PM 5.65 42.17 0.086 7.09 2.26 12.74
11/14/2022 8:30:00 PM 5.62 42.116 0.086 7.08 2.42 12.75
11/14/2022 8:45:00 PM 5.6 42.08 0.086 7.09 2.76 12.76
11/14/2022 9:00:00 PM 5.58 42.044 0.086 7.08 2.13 12.76
11/14/2022 9:15:00 PM 5.56 42.008 0.085 7.08 2.3 12.77
11/14/2022 9:30:00 PM 5.54 41.972 0.086 7.08 6.61 12.78
11/14/2022 9:45:00 PM 5.52 41.936 0.085 7.08 2.22 12.78
11/14/2022 10:00:00 PM 5.5 41.9 0.086 7.08 2.14 12.8
11/14/2022 10:15:00 PM 5.49 41.882 0.085 7.08 2.09 12.8
11/14/2022 10:30:00 PM 5.47 41.846 0.086 7.08 2.2 12.81
11/14/2022 10:45:00 PM 5.45 41.81 0.086 7.08 2.02 12.82
11/14/2022 11:00:00 PM 5.44 41.792 0.086 7.08 2.02 12.82
11/14/2022 11:15:00 PM 5.42 41.756 0.085 7.08 2.1 12.83
11/14/2022 11:30:00 PM 5.4 41.72 0.086 7.08 2.01 12.84
11/14/2022 11:45:00 PM 5.38 41.684 0.086 7.08 2 12.84
11/15/2022 12:00:00 AM 5.36 41.648 0.085 7.08 2.06 12.85
11/15/2022 12:15:00 AM 5.33 41.594 0.085 7.08 2.2 12.85
11/15/2022 12:30:00 AM 5.29 41.522 0.086 7.08 2.39 12.85
11/15/2022 12:45:00 AM 5.26 41.468 0.086 7.08 2.21 12.87
11/15/2022 1:00:00 AM 5.24 41.432 0.085 7.08 2.37 12.87
11/15/2022 1:15:00 AM 5.22 41.396 0.085 7.08 2.23 12.89
11/15/2022 1:30:00 AM 5.2 41.36 0.085 7.07 2.3 12.9
11/15/2022 1:45:00 AM 5.18 41.324 0.085 7.07 2.24 12.91
11/15/2022 2:00:00 AM 5.15 41.27 0.085 7.07 2.05 12.92
11/15/2022 2:15:00 AM 5.13 41.234 0.085 7.08 2.04 12.92
11/15/2022 2:30:00 AM 5.11 41.198 0.085 7.08 2.22 12.93
11/15/2022 2:45:00 AM 5.09 41.162 0.085 7.08 2.16 12.93
11/15/2022 3:00:00 AM 5.07 41.126 0.086 7.08 2.22 12.94
11/15/2022 3:15:00 AM 5.05 41.09 0.085 7.07 2.3 12.95
11/15/2022 3:30:00 AM 5.04 41.072 0.085 7.07 2.23 12.96
11/15/2022 3:45:00 AM 5.02 41.036 0.085 7.07 2.07 12.97
11/15/2022 4:00:00 AM 5.01 41.018 0.085 7.08 2.05 12.97
11/15/2022 4:15:00 AM 4.99 40.982 0.085 7.07 2.09 12.98
11/15/2022 4:30:00 AM 4.97 40.946 0.085 7.07 2.06 12.98
11/15/2022 4:45:00 AM 4.95 40.91 0.085 7.07 2.08 12.99
11/15/2022 5:00:00 AM 4.93 40.874 0.085 7.08 2.17 12.99
11/15/2022 5:15:00 AM 4.91 40.838 0.085 7.07 2.12 13
11/15/2022 5:30:00 AM 4.89 40.802 0.085 7.07 2.13 13.01
11/15/2022 5:45:00 AM 4.88 40.784 0.085 7.07 2.1 13.02
11/15/2022 6:00:00 AM 4.86 40.748 0.085 7.07 1.97 13.02
11/15/2022 6:15:00 AM 4.84 40.712 0.085 7.08 1.98 13.03
11/15/2022 6:30:00 AM 4.82 40.676 0.085 7.08 1.86 13.05
11/15/2022 6:45:00 AM 4.8 40.64 0.085 7.08 1.94 13.05
11/15/2022 7:00:00 AM 4.78 40.604 0.085 7.08 1.88 13.06
11/15/2022 7:15:00 AM 4.76 40.568 0.085 7.08 1.89 13.06
11/15/2022 7:30:00 AM 4.74 40.532 0.085 7.08 1.89 13.07
11/15/2022 7:45:00 AM 4.72 40.496 0.085 7.08 1.82 13.08
11/15/2022 8:00:00 AM 4.71 40.478 0.085 7.08 1.84 13.09
11/15/2022 8:15:00 AM 4.69 40.442 0.085 7.08 1.87 13.1
11/15/2022 8:30:00 AM 4.68 40.424 0.085 7.08 1.81 13.12
11/15/2022 8:45:00 AM 4.67 40.406 0.085 7.08 1.9 13.15
11/15/2022 9:00:00 AM 4.66 40.388 0.086 7.09 1.88 13.18
11/15/2022 9:15:00 AM 4.65 40.37 0.086 7.09 1.79 13.2
11/15/2022 9:30:00 AM 4.65 40.37 0.085 7.1 1.77 13.23
11/15/2022 9:45:00 AM 4.65 40.37 0.085 7.1 1.7 13.25
11/15/2022 10:00:00 AM 4.64 40.352 0.085 7.11 1.74 13.28
11/15/2022 10:15:00 AM 4.66 40.388 0.084 7.12 1.7 13.31
11/15/2022 10:30:00 AM 4.7 40.46 0.085 7.12 2.07 13.33
11/15/2022 10:45:00 AM 4.73 40.514 0.085 7.13 1.82 13.35
11/15/2022 11:00:00 AM 4.75 40.55 0.085 7.13 1.71 13.35
11/15/2022 11:15:00 AM 4.75 40.55 0.084 7.13 1.73 13.33
11/15/2022 11:30:00 AM 4.76 40.568 0.084 7.14 1.72 13.33
11/15/2022 11:45:00 AM 4.76 40.568 0.084 7.14 1.68 13.32
11/15/2022 12:00:00 PM 4.76 40.568 0.084 7.14 1.69 13.33
11/15/2022 12:15:00 PM 4.76 40.568 0.084 7.14 1.64 13.32
11/15/2022 12:30:00 PM 4.78 40.604 0.084 7.14 1.75 13.32
11/15/2022 12:45:00 PM 4.81 40.658 0.084 7.14 1.71 13.33
11/15/2022 1:00:00 PM 4.85 40.73 0.084 7.15 1.74 13.33
11/15/2022 1:15:00 PM 4.86 40.748 0.084 7.15 1.68 13.31
11/15/2022 1:30:00 PM 4.88 40.784 0.084 7.15 1.71 13.3
11/15/2022 1:45:00 PM 4.91 40.838 0.084 7.15 1.67 13.29
11/15/2022 2:00:00 PM 4.93 40.874 0.084 7.15 1.71 13.28
11/15/2022 2:15:00 PM 4.95 40.91 0.084 7.15 1.66 13.28
11/15/2022 2:30:00 PM 4.97 40.946 0.084 7.16 1.65 13.27
11/15/2022 2:45:00 PM 4.98 40.964 0.084 7.16 1.64 13.26
11/15/2022 3:00:00 PM 5 41 0.084 7.16 1.66 13.25
11/15/2022 3:15:00 PM 5.02 41.036 0.084 7.16 1.69 13.24
11/15/2022 3:30:00 PM 4.99 40.982 0.084 7.15 1.72 13.2
11/15/2022 3:45:00 PM 4.96 40.928 0.084 7.15 1.71 13.17
11/15/2022 4:00:00 PM 4.87 40.766 0.084 7.14 2.02 13.16
11/15/2022 4:15:00 PM 4.73 40.514 0.083 7.14 1.95 13.14
11/15/2022 4:30:00 PM 4.62 40.316 0.083 7.13 1.91 13.12
11/15/2022 4:45:00 PM 4.44 39.992 0.083 7.12 1.77 13.13
11/15/2022 5:00:00 PM 4.28 39.704 0.083 7.12 1.88 13.16
11/15/2022 5:15:00 PM 4.12 39.416 0.083 7.11 1.85 13.17
11/15/2022 5:30:00 PM 3.99 39.182 0.083 7.11 1.78 13.19
11/15/2022 5:45:00 PM 3.93 39.074 0.083 7.1 1.75 13.23
11/15/2022 6:00:00 PM 3.88 38.984 0.083 7.1 1.8 13.24
11/15/2022 6:15:00 PM 3.78 38.804 0.083 7.09 1.78 13.26
11/15/2022 6:30:00 PM 3.69 38.642 0.083 7.09 1.88 13.28
11/15/2022 6:45:00 PM 3.64 38.552 0.083 7.05 1.81 13.29
11/15/2022 7:00:00 PM 3.57 38.426 0.083 7.02 1.82 13.31
11/15/2022 7:15:00 PM 3.5 38.3 0.082 7.03 1.82 13.34
11/15/2022 7:30:00 PM 3.41 38.138 0.082 7.04 1.82 13.37
11/15/2022 7:45:00 PM 3.28 37.904 0.082 7.03 1.93 13.41
11/15/2022 8:00:00 PM 3.21 37.778 0.082 7.04 1.95 13.43
11/15/2022 8:15:00 PM 3.17 37.706 0.083 7.04 1.93 13.45
11/15/2022 8:30:00 PM 3.08 37.544 0.082 7.04 1.9 13.48
11/15/2022 8:45:00 PM 3.12 37.616 0.082 7.04 1.8 13.5
11/15/2022 9:00:00 PM 3.17 37.706 0.082 7.05 1.95 13.51
11/15/2022 9:15:00 PM 3.2 37.76 0.082 7.05 1.77 13.5
11/15/2022 9:30:00 PM 3.26 37.868 0.082 7.06 1.81 13.5
11/15/2022 9:45:00 PM 3.32 37.976 0.082 7.06 1.74 13.5
11/15/2022 10:00:00 PM 3.37 38.066 0.082 7.06 1.81 13.49
11/15/2022 10:15:00 PM 3.41 38.138 0.082 7.07 1.79 13.47
11/15/2022 10:30:00 PM 3.45 38.21 0.082 7.07 1.69 13.46
11/15/2022 10:45:00 PM 3.49 38.282 0.082 7.07 1.74 13.45
11/15/2022 11:00:00 PM 3.52 38.336 0.082 7.06 1.72 13.43
11/15/2022 11:15:00 PM 3.56 38.408 0.083 7.07 1.7 13.42
11/15/2022 11:30:00 PM 3.59 38.462 0.082 7.07 1.71 13.41
11/15/2022 11:45:00 PM 3.63 38.534 0.082 7.07 1.67 13.39
11/16/2022 12:00:00 AM 3.63 38.534 0.082 7.06 1.73 13.38
11/16/2022 12:15:00 AM 3.66 38.588 0.082 7.07 1.71 13.36
11/16/2022 12:30:00 AM 3.7 38.66 0.082 7.07 1.75 13.35
11/16/2022 12:45:00 AM 3.71 38.678 0.082 7.07 1.76 13.34
11/16/2022 1:00:00 AM 3.73 38.714 0.082 7.07 1.71 13.32
11/16/2022 1:15:00 AM 3.76 38.768 0.082 7.07 1.78 13.31
11/16/2022 1:30:00 AM 3.79 38.822 0.082 7.07 1.72 13.3
11/16/2022 1:45:00 AM 3.8 38.84 0.082 7.07 1.68 13.29
11/16/2022 2:00:00 AM 3.84 38.912 0.083 7.07 1.74 13.28
11/16/2022 2:15:00 AM 3.87 38.966 0.083 7.07 2.14 13.26
11/16/2022 2:30:00 AM 3.9 39.02 0.083 7.07 1.76 13.26
11/16/2022 2:45:00 AM 3.92 39.056 0.082 7.07 1.82 13.25
11/16/2022 3:00:00 AM 3.95 39.11 0.082 7.07 1.75 13.23
11/16/2022 3:15:00 AM 3.97 39.146 0.082 7.07 1.74 13.21
11/16/2022 3:30:00 AM 4 39.2 0.082 7.07 1.76 13.21
11/16/2022 3:45:00 AM 4.02 39.236 0.082 7.07 1.71 13.2
11/16/2022 4:00:00 AM 4.04 39.272 0.082 7.07 1.69 13.18
11/16/2022 4:15:00 AM 4.07 39.326 0.082 7.07 1.68 13.18
11/16/2022 4:30:00 AM 4.09 39.362 0.082 7.07 1.62 13.15
11/16/2022 4:45:00 AM 4.12 39.416 0.082 7.07 1.69 13.15
11/16/2022 5:00:00 AM 4.14 39.452 0.082 7.07 1.73 13.14
11/16/2022 5:15:00 AM 4.16 39.488 0.082 7.07 1.66 13.13
11/16/2022 5:30:00 AM 4.18 39.524 0.082 7.07 1.71 13.12
11/16/2022 5:45:00 AM 4.2 39.56 0.082 7.07 1.65 13.12
11/16/2022 6:00:00 AM 4.22 39.596 0.082 7.07 1.7 13.1
11/16/2022 6:15:00 AM 4.24 39.632 0.082 7.07 1.68 13.09
11/16/2022 6:30:00 AM 4.26 39.668 0.082 7.07 1.64 13.08
11/16/2022 6:45:00 AM 4.28 39.704 0.083 7.07 1.66 13.07
11/16/2022 7:00:00 AM 4.29 39.722 0.083 7.06 1.72 13.06
11/16/2022 7:15:00 AM 4.31 39.758 0.085 7.06 1.75 13.06
11/16/2022 7:30:00 AM 4.33 39.794 0.087 7.06 1.72 13.06
11/16/2022 7:45:00 AM 4.34 39.812 0.089 7.06 1.71 13.05
11/16/2022 8:00:00 AM 4.36 39.848 0.091 7.06 1.7 13.04
11/16/2022 8:15:00 AM 4.37 39.866 0.093 7.07 1.7 13.05
11/16/2022 8:30:00 AM 4.39 39.902 0.094 7.07 1.59 13.05
11/16/2022 8:45:00 AM 4.4 39.92 0.095 7.07 1.62 13.05
11/16/2022 9:00:00 AM 4.42 39.956 0.095 7.07 1.68 13.06
11/16/2022 9:15:00 AM 4.44 39.992 0.094 7.08 1.73 13.1
11/16/2022 9:30:00 AM 4.48 40.064 0.094 7.09 1.65 13.14
11/16/2022 9:45:00 AM 4.51 40.118 0.093 7.1 1.62 13.17
11/16/2022 10:00:00 AM 4.56 40.208 0.092 7.11 1.62 13.19
11/16/2022 10:15:00 AM 4.6 40.28 0.092 7.11 1.63 13.19
11/16/2022 10:30:00 AM 4.62 40.316 0.091 7.11 1.88 13.16
11/16/2022 10:45:00 AM 4.63 40.334 0.091 7.11 1.65 13.15
11/16/2022 11:00:00 AM 4.66 40.388 0.09 7.12 1.74 13.16
11/16/2022 11:15:00 AM 4.67 40.406 0.09 7.12 1.69 13.16
11/16/2022 11:30:00 AM 4.71 40.478 0.089 7.12 1.57 13.17
11/16/2022 11:45:00 AM 4.74 40.532 0.089 7.12 1.67 13.17
11/16/2022 12:00:00 PM 4.76 40.568 0.089 7.13 1.59 13.14
11/16/2022 12:15:00 PM 4.77 40.586 0.089 7.12 1.63 13.14
11/16/2022 12:30:00 PM 4.79 40.622 0.089 7.13 1.64 13.13
11/16/2022 12:45:00 PM 4.8 40.64 0.088 7.13 1.63 13.13
11/16/2022 1:00:00 PM 4.82 40.676 0.088 7.13 1.67 13.12
11/16/2022 1:15:00 PM 4.83 40.694 0.088 7.13 1.67 13.11
11/16/2022 1:30:00 PM 4.85 40.73 0.088 7.13 1.6 13.11
11/16/2022 1:45:00 PM 4.87 40.766 0.088 7.13 1.57 13.13
11/16/2022 2:00:00 PM 4.88 40.784 0.088 7.13 1.71 13.12
11/16/2022 2:15:00 PM 4.89 40.802 0.087 7.13 1.68 13.11
11/16/2022 2:30:00 PM 4.91 40.838 0.087 7.14 1.62 13.11
11/16/2022 2:45:00 PM 4.91 40.838 0.087 7.14 1.67 13.08
11/16/2022 3:00:00 PM 4.89 40.802 0.087 7.13 1.65 13.06
11/16/2022 3:15:00 PM 4.9 40.82 0.087 7.13 1.69 13.08
11/16/2022 3:30:00 PM 4.92 40.856 0.087 7.14 1.65 13.09
11/16/2022 3:45:00 PM 4.93 40.874 0.086 7.14 1.63 13.09
11/16/2022 4:00:00 PM 4.94 40.892 0.086 7.14 1.66 13.07
11/16/2022 4:15:00 PM 4.94 40.892 0.086 7.14 1.66 13.05
11/16/2022 4:30:00 PM 4.92 40.856 0.086 7.13 1.77 13.01
11/16/2022 4:45:00 PM 4.9 40.82 0.086 7.12 1.68 12.99
11/16/2022 5:00:00 PM 4.88 40.784 0.086 7.12 1.66 12.97
11/16/2022 5:15:00 PM 4.86 40.748 0.086 7.11 1.67 12.96
11/16/2022 5:30:00 PM 4.84 40.712 0.086 7.11 1.73 12.93
11/16/2022 5:45:00 PM 4.82 40.676 0.086 7.1 1.79 12.92
11/16/2022 6:00:00 PM 4.8 40.64 0.086 7.1 1.77 12.92
11/16/2022 6:15:00 PM 4.79 40.622 0.085 7.09 1.77 12.9
11/16/2022 6:30:00 PM 4.78 40.604 0.086 7.09 1.77 12.9
11/16/2022 6:45:00 PM 4.76 40.568 0.086 7.09 1.87 12.9
11/16/2022 7:00:00 PM 4.74 40.532 0.086 7.09 1.84 12.9
11/16/2022 7:15:00 PM 4.72 40.496 0.085 7.08 1.93 12.9
11/16/2022 7:30:00 PM 4.7 40.46 0.085 7.08 1.74 12.91
11/16/2022 7:45:00 PM 4.68 40.424 0.086 7.08 1.87 12.91
11/16/2022 8:00:00 PM 4.67 40.406 0.086 7.08 1.89 12.92
11/16/2022 8:15:00 PM 4.66 40.388 0.086 7.08 1.87 12.92
11/16/2022 8:30:00 PM 4.64 40.352 0.086 7.08 1.84 12.92
11/16/2022 8:45:00 PM 4.62 40.316 0.085 7.08 1.82 12.93
11/16/2022 9:00:00 PM 4.62 40.316 0.085 7.08 1.97 12.93
11/16/2022 9:15:00 PM 4.6 40.28 0.085 7.08 1.82 12.94
11/16/2022 9:30:00 PM 4.59 40.262 0.085 7.08 1.94 12.94
11/16/2022 9:45:00 PM 4.58 40.244 0.085 7.08 1.89 12.94
11/16/2022 10:00:00 PM 4.57 40.226 0.085 7.08 1.92 12.95
11/16/2022 10:15:00 PM 4.56 40.208 0.085 7.08 1.9 12.95
11/16/2022 10:30:00 PM 4.55 40.19 0.085 7.08 2.21 12.95
11/16/2022 10:45:00 PM 4.54 40.172 0.085 7.07 2.08 12.96
11/16/2022 11:00:00 PM 4.53 40.154 0.085 7.07 1.95 12.96
11/16/2022 11:15:00 PM 4.52 40.136 0.085 7.08 1.93 12.97
11/16/2022 11:30:00 PM 4.5 40.1 0.085 7.08 2.3 12.97
11/16/2022 11:45:00 PM 4.48 40.064 0.085 7.08 1.92 12.98
11/17/2022 12:00:00 AM 4.45 40.01 0.085 7.08 1.91 12.98
11/17/2022 12:15:00 AM 4.42 39.956 0.085 7.08 1.88 12.99
11/17/2022 12:30:00 AM 4.41 39.938 0.085 7.08 1.87 12.99
11/17/2022 12:45:00 AM 4.39 39.902 0.085 7.08 1.84 13
11/17/2022 1:00:00 AM 4.38 39.884 0.085 7.08 1.87 13
11/17/2022 1:15:00 AM 4.36 39.848 0.085 7.08 1.86 13.01
11/17/2022 1:30:00 AM 4.34 39.812 0.085 7.08 1.78 13.01
11/17/2022 1:45:00 AM 4.32 39.776 0.085 7.08 1.77 13.02
11/17/2022 2:00:00 AM 4.3 39.74 0.085 7.08 1.76 13.03
11/17/2022 2:15:00 AM 4.29 39.722 0.085 7.08 1.81 13.03
11/17/2022 2:30:00 AM 4.28 39.704 0.085 7.08 1.78 13.04
11/17/2022 2:45:00 AM 4.27 39.686 0.085 7.08 1.69 13.04
11/17/2022 3:00:00 AM 4.25 39.65 0.085 7.08 1.8 13.04
11/17/2022 3:15:00 AM 4.25 39.65 0.085 7.08 1.7 13.05
11/17/2022 3:30:00 AM 4.23 39.614 0.086 7.08 1.71 13.05
11/17/2022 3:45:00 AM 4.22 39.596 0.086 7.08 1.84 13.05
11/17/2022 4:00:00 AM 4.2 39.56 0.086 7.08 1.72 13.06
11/17/2022 4:15:00 AM 4.18 39.524 0.085 7.08 1.73 13.07
11/17/2022 4:30:00 AM 4.16 39.488 0.085 7.08 1.68 13.07
11/17/2022 4:45:00 AM 4.14 39.452 0.085 7.08 1.63 13.07
11/17/2022 5:00:00 AM 4.12 39.416 0.086 7.08 1.7 13.07
11/17/2022 5:15:00 AM 4.1 39.38 0.086 7.08 1.68 13.09
11/17/2022 5:30:00 AM 4.07 39.326 0.086 7.08 1.72 13.09
11/17/2022 5:45:00 AM 4.04 39.272 0.086 7.08 1.62 13.1
11/17/2022 6:00:00 AM 4 39.2 0.086 7.08 1.73 13.12
11/17/2022 6:15:00 AM 3.97 39.146 0.086 7.08 1.7 13.13
11/17/2022 6:30:00 AM 3.93 39.074 0.086 7.08 1.72 13.13
11/17/2022 6:45:00 AM 3.88 38.984 0.086 7.08 1.67 13.15
11/17/2022 7:00:00 AM 3.86 38.948 0.086 7.08 1.65 13.17
11/17/2022 7:15:00 AM 3.85 38.93 0.086 7.08 1.78 13.18
11/17/2022 7:30:00 AM 3.84 38.912 0.086 7.08 1.72 13.18
11/17/2022 7:45:00 AM 3.82 38.876 0.086 7.07 1.65 13.19
11/17/2022 8:00:00 AM 3.81 38.858 0.086 7.08 1.64 13.2
11/17/2022 8:15:00 AM 3.81 38.858 0.086 7.08 1.65 13.21
11/17/2022 8:30:00 AM 3.8 38.84 0.086 7.08 1.63 13.24
11/17/2022 8:45:00 AM 3.79 38.822 0.087 7.08 1.6 13.26
11/17/2022 9:00:00 AM 3.78 38.804 0.087 7.09 1.61 13.29
11/17/2022 9:15:00 AM 3.78 38.804 0.086 7.09 1.55 13.33
11/17/2022 9:30:00 AM 3.77 38.786 0.086 7.1 1.58 13.36
11/17/2022 9:45:00 AM 3.77 38.786 0.086 7.1 1.6 13.38
11/17/2022 10:00:00 AM 3.78 38.804 0.086 7.11 1.61 13.41
11/17/2022 10:15:00 AM 3.81 38.858 0.085 7.12 1.56 13.44
11/17/2022 10:30:00 AM 3.84 38.912 0.086 7.12 1.6 13.48
11/17/2022 10:45:00 AM 3.85 38.93 0.086 7.13 1.57 13.49
11/17/2022 11:00:00 AM 3.86 38.948 0.086 7.13 1.55 13.49
11/17/2022 11:15:00 AM 3.89 39.002 0.087 7.14 1.58 13.49
11/17/2022 11:30:00 AM 3.92 39.056 0.086 7.14 1.51 13.51
11/17/2022 11:45:00 AM 3.95 39.11 0.086 7.14 1.57 13.51
11/17/2022 12:00:00 PM 3.99 39.182 0.086 7.15 1.64 13.51
11/17/2022 12:15:00 PM 4.06 39.308 0.086 7.15 1.49 13.52
11/17/2022 12:30:00 PM 4.12 39.416 0.086 7.16 1.66 13.5
11/17/2022 12:45:00 PM 4.15 39.47 0.086 7.16 1.57 13.48
11/17/2022 1:00:00 PM 4.15 39.47 0.085 7.16 1.59 13.46
11/17/2022 1:15:00 PM 4.14 39.452 0.086 7.16 1.55 13.44
11/17/2022 1:30:00 PM 4.18 39.524 0.086 7.16 1.53 13.46
11/17/2022 1:45:00 PM 4.23 39.614 0.086 7.16 1.52 13.46
11/17/2022 2:00:00 PM 4.29 39.722 0.086 7.16 1.7 13.45
11/17/2022 2:15:00 PM 4.32 39.776 0.086 7.16 1.65 13.43
11/17/2022 2:30:00 PM 4.36 39.848 0.085 7.17 1.58 13.42
11/17/2022 2:45:00 PM 4.44 39.992 0.086 7.17 1.57 13.42
11/17/2022 3:00:00 PM 4.44 39.992 0.086 7.17 1.57 13.4
11/17/2022 3:15:00 PM 4.45 40.01 0.085 7.17 1.55 13.39
11/17/2022 3:30:00 PM 4.47 40.046 0.086 7.17 1.59 13.38
11/17/2022 3:45:00 PM 4.47 40.046 0.086 7.17 1.7 13.37
11/17/2022 4:00:00 PM 4.46 40.028 0.086 7.17 1.55 13.36
11/17/2022 4:15:00 PM 4.45 40.01 0.086 7.17 1.56 13.35
11/17/2022 4:30:00 PM 4.45 40.01 0.085 7.17 1.54 13.35
11/17/2022 4:45:00 PM 4.44 39.992 0.086 7.17 1.62 13.34
11/17/2022 5:00:00 PM 4.4 39.92 0.086 7.16 1.57 13.31
11/17/2022 5:15:00 PM 4.36 39.848 0.086 7.16 1.6 13.28
11/17/2022 5:30:00 PM 4.33 39.794 0.086 7.15 1.64 13.25
11/17/2022 5:45:00 PM 4.28 39.704 0.087 7.14 1.66 13.23
11/17/2022 6:00:00 PM 4.25 39.65 0.087 7.13 1.56 13.19
11/17/2022 6:15:00 PM 4.21 39.578 0.086 7.12 1.63 13.18
11/17/2022 6:30:00 PM 4.16 39.488 0.085 7.12 1.6 13.16
11/17/2022 6:45:00 PM 4.12 39.416 0.086 7.11 1.65 13.17
11/17/2022 7:00:00 PM 4.08 39.344 0.086 7.11 1.65 13.16
11/17/2022 7:15:00 PM 4.02 39.236 0.087 7.1 1.62 13.18
11/17/2022 7:30:00 PM 3.97 39.146 0.087 7.1 1.66 13.2
11/17/2022 7:45:00 PM 3.95 39.11 0.087 7.1 1.72 13.21
11/17/2022 8:00:00 PM 3.93 39.074 0.087 7.09 1.76 13.21
11/17/2022 8:15:00 PM 3.91 39.038 0.087 7.09 1.72 13.23
11/17/2022 8:30:00 PM 3.88 38.984 0.087 7.09 1.65 13.24
11/17/2022 8:45:00 PM 3.86 38.948 0.086 7.09 1.65 13.24
11/17/2022 9:00:00 PM 3.86 38.948 0.087 7.08 1.68 13.26
11/17/2022 9:15:00 PM 3.84 38.912 0.088 7.08 1.71 13.26
11/17/2022 9:30:00 PM 3.83 38.894 0.087 7.08 1.6 13.26
11/17/2022 9:45:00 PM 3.82 38.876 0.088 7.08 1.68 13.27
11/17/2022 10:00:00 PM 3.82 38.876 0.087 7.08 1.67 13.27
11/17/2022 10:15:00 PM 3.8 38.84 0.087 7.08 1.76 13.27
11/17/2022 10:30:00 PM 3.78 38.804 0.088 7.08 1.74 13.28
11/17/2022 10:45:00 PM 3.77 38.786 0.087 7.08 1.68 13.28
11/17/2022 11:00:00 PM 3.75 38.75 0.088 7.08 1.62 13.29
11/17/2022 11:15:00 PM 3.73 38.714 0.087 7.08 1.64 13.3
11/17/2022 11:30:00 PM 3.7 38.66 0.087 7.08 1.72 13.3
11/17/2022 11:45:00 PM 3.68 38.624 0.088 7.08 1.95 13.31
11/18/2022 12:00:00 AM 3.66 38.588 0.087 7.08 1.66 13.31
11/18/2022 12:15:00 AM 3.65 38.57 0.087 7.08 1.65 13.32
11/18/2022 12:30:00 AM 3.63 38.534 0.087 7.09 1.74 13.32
11/18/2022 12:45:00 AM 3.61 38.498 0.087 7.08 1.64 13.33
11/18/2022 1:00:00 AM 3.58 38.444 0.087 7.08 1.7 13.34
11/18/2022 1:15:00 AM 3.5 38.3 0.087 7.08 1.61 13.34
11/18/2022 1:30:00 AM 3.47 38.246 0.087 7.08 1.7 13.36
11/18/2022 1:45:00 AM 3.42 38.156 0.087 7.08 1.69 13.38
11/18/2022 2:00:00 AM 3.36 38.048 0.087 7.08 1.68 13.4
11/18/2022 2:15:00 AM 3.31 37.958 0.087 7.08 1.64 13.42
11/18/2022 2:30:00 AM 3.27 37.886 0.087 7.08 1.56 13.43
11/18/2022 2:45:00 AM 3.24 37.832 0.087 7.08 1.63 13.45
11/18/2022 3:00:00 AM 3.2 37.76 0.087 7.08 1.64 13.46
11/18/2022 3:15:00 AM 3.15 37.67 0.087 7.08 1.66 13.48
11/18/2022 3:30:00 AM 3.12 37.616 0.087 7.08 1.68 13.5
11/18/2022 3:45:00 AM 3.08 37.544 0.087 7.08 1.54 13.51
11/18/2022 4:00:00 AM 3.04 37.472 0.087 7.08 1.56 13.53
11/18/2022 4:15:00 AM 3 37.4 0.087 7.08 1.51 13.54
11/18/2022 4:30:00 AM 2.96 37.328 0.088 7.08 1.56 13.56
11/18/2022 4:45:00 AM 2.91 37.238 0.087 7.09 1.54 13.57
11/18/2022 5:00:00 AM 2.88 37.184 0.088 7.08 1.66 13.59
11/18/2022 5:15:00 AM 2.84 37.112 0.088 7.08 1.54 13.6
11/18/2022 5:30:00 AM 2.83 37.094 0.088 7.08 1.54 13.61
11/18/2022 5:45:00 AM 2.82 37.076 0.087 7.08 1.54 13.62
11/18/2022 6:00:00 AM 2.78 37.004 0.088 7.08 1.57 13.63
11/18/2022 6:15:00 AM 2.76 36.968 0.087 7.08 1.55 13.63
11/18/2022 6:30:00 AM 2.74 36.932 0.088 7.08 1.53 13.65
11/18/2022 6:45:00 AM 2.72 36.896 0.087 7.08 1.53 13.65
11/18/2022 7:00:00 AM 2.69 36.842 0.087 7.08 1.52 13.67
11/18/2022 7:15:00 AM 2.67 36.806 0.088 7.08 1.66 13.69
11/18/2022 7:30:00 AM 2.65 36.77 0.087 7.08 1.69 13.69
11/18/2022 7:45:00 AM 2.64 36.752 0.087 7.08 1.49 13.7
11/18/2022 8:00:00 AM 2.63 36.734 0.087 7.08 1.52 13.7
11/18/2022 8:15:00 AM 2.63 36.734 0.087 7.08 1.5 13.72
11/18/2022 8:30:00 AM 2.63 36.734 0.087 7.08 1.55 13.73
11/18/2022 8:45:00 AM 2.63 36.734 0.088 7.08 1.44 13.75
11/18/2022 9:00:00 AM 2.63 36.734 0.087 7.09 1.47 13.79
11/18/2022 9:15:00 AM 2.65 36.77 0.087 7.09 1.42 13.81
11/18/2022 9:30:00 AM 2.66 36.788 0.087 7.1 1.49 13.85
11/18/2022 9:45:00 AM 2.69 36.842 0.087 7.11 1.47 13.9
11/18/2022 10:00:00 AM 2.72 36.896 0.087 7.12 1.42 13.93
11/18/2022 10:15:00 AM 2.76 36.968 0.087 7.13 1.43 13.95
11/18/2022 10:30:00 AM 2.83 37.094 0.086 7.13 1.44 13.95
11/18/2022 10:45:00 AM 2.87 37.166 0.087 7.13 1.44 13.94
11/18/2022 11:00:00 AM 2.92 37.256 0.085 7.14 1.43 13.94
11/18/2022 11:15:00 AM 2.98 37.364 0.086 7.14 1.45 13.93
11/18/2022 11:30:00 AM 3.02 37.436 0.086 7.14 1.45 13.92
11/18/2022 11:45:00 AM 3.09 37.562 0.086 7.15 1.45 13.91
11/18/2022 12:00:00 PM 3.16 37.688 0.086 7.15 1.42 13.89
11/18/2022 12:15:00 PM 3.31 37.958 0.086 7.15 1.42 13.87
11/18/2022 12:30:00 PM 3.43 38.174 0.086 7.16 1.4 13.84
11/18/2022 12:45:00 PM 3.47 38.246 0.085 7.16 1.45 13.8
11/18/2022 1:00:00 PM 3.54 38.372 0.086 7.16 1.42 13.77
11/18/2022 1:15:00 PM 3.67 38.606 0.086 7.17 1.42 13.75
11/18/2022 1:30:00 PM 3.8 38.84 0.085 7.17 1.4 13.72
11/18/2022 1:45:00 PM 3.83 38.894 0.085 7.17 1.48 13.7
11/18/2022 2:00:00 PM 3.89 39.002 0.085 7.17 1.45 13.68
11/18/2022 2:15:00 PM 3.92 39.056 0.086 7.17 1.45 13.64
11/18/2022 2:30:00 PM 3.87 38.966 0.086 7.17 1.41 13.62
11/18/2022 2:45:00 PM 3.81 38.858 0.086 7.17 1.44 13.62
11/18/2022 3:00:00 PM 3.8 38.84 0.086 7.17 1.54 13.61
11/18/2022 3:15:00 PM 3.82 38.876 0.086 7.17 1.44 13.62
11/18/2022 3:30:00 PM 3.84 38.912 0.086 7.17 1.45 13.61
11/18/2022 3:45:00 PM 3.84 38.912 0.086 7.17 1.45 13.58
11/18/2022 4:00:00 PM 3.85 38.93 0.085 7.17 1.51 13.57
11/18/2022 4:15:00 PM 3.84 38.912 0.085 7.17 1.45 13.53
11/18/2022 4:30:00 PM 3.6 38.48 0.086 7.16 1.47 13.46
11/18/2022 4:45:00 PM 3.59 38.462 0.086 7.15 1.45 13.49
11/18/2022 5:00:00 PM 3.59 38.462 0.086 7.15 1.47 13.52
11/18/2022 5:15:00 PM 3.55 38.39 0.086 7.15 1.48 13.52
11/18/2022 5:30:00 PM 3.47 38.246 0.085 7.14 1.53 13.51
11/18/2022 5:45:00 PM 3.42 38.156 0.085 7.14 1.52 13.49
11/18/2022 6:00:00 PM 3.37 38.066 0.087 7.13 1.5 13.49
11/18/2022 6:15:00 PM 3.31 37.958 0.087 7.13 1.48 13.48
11/18/2022 6:30:00 PM 3.24 37.832 0.087 7.12 1.5 13.48
11/18/2022 6:45:00 PM 3.19 37.742 0.087 7.11 1.57 13.49
11/18/2022 7:00:00 PM 3.14 37.652 0.086 7.11 1.53 13.5
11/18/2022 7:15:00 PM 3.08 37.544 0.087 7.11 1.53 13.52
11/18/2022 7:30:00 PM 3.02 37.436 0.086 7.1 1.65 13.54
11/18/2022 7:45:00 PM 2.95 37.31 0.087 7.1 1.59 13.57
11/18/2022 8:00:00 PM 2.87 37.166 0.086 7.1 1.7 13.6
11/18/2022 8:15:00 PM 2.8 37.04 0.087 7.1 1.67 13.62
11/18/2022 8:30:00 PM 2.72 36.896 0.087 7.09 1.72 13.64
11/18/2022 8:45:00 PM 2.67 36.806 0.087 7.09 1.7 13.68
11/18/2022 9:00:00 PM 2.61 36.698 0.087 7.09 1.6 13.69
11/18/2022 9:15:00 PM 2.57 36.626 0.087 7.09 1.64 13.72
11/18/2022 9:30:00 PM 2.53 36.554 0.087 7.09 1.67 13.75
11/18/2022 9:45:00 PM 2.48 36.464 0.087 7.09 1.64 13.76
11/18/2022 10:00:00 PM 2.44 36.392 0.087 7.09 1.76 13.79
11/18/2022 10:15:00 PM 2.41 36.338 0.087 7.09 1.76 13.8
11/18/2022 10:30:00 PM 2.39 36.302 0.086 7.09 1.78 13.81
11/18/2022 10:45:00 PM 2.35 36.23 0.086 7.08 2.18 13.83
11/18/2022 11:00:00 PM 2.29 36.122 0.087 7.08 2.55 13.85
11/18/2022 11:15:00 PM 2.24 36.032 0.087 7.08 2.23 13.87
11/18/2022 11:30:00 PM 2.19 35.942 0.087 7.08 1.8 13.88
11/18/2022 11:45:00 PM 2.13 35.834 0.086 7.07 1.58 13.91
11/19/2022 12:00:00 AM 2.08 35.744 0.088 7.08 1.54 13.93
11/19/2022 12:15:00 AM 2.03 35.654 0.087 7.08 1.56 13.95
11/19/2022 12:30:00 AM 1.98 35.564 0.087 7.07 1.56 13.97
11/19/2022 12:45:00 AM 1.95 35.51 0.087 7.06 1.57 13.98
11/19/2022 1:00:00 AM 1.93 35.474 0.087 7.06 1.55 14
11/19/2022 1:15:00 AM 1.9 35.42 0.087 7.05 1.59 14.02
11/19/2022 1:30:00 AM 1.88 35.384 0.087 7.06 1.46 14.02
11/19/2022 1:45:00 AM 1.87 35.366 0.087 7.06 1.52 14.03
11/19/2022 2:00:00 AM 1.85 35.33 0.087 7.06 1.55 14.04
11/19/2022 2:15:00 AM 1.83 35.294 0.087 7.06 1.54 14.05
11/19/2022 2:30:00 AM 1.81 35.258 0.087 7.06 1.66 14.06
11/19/2022 2:45:00 AM 1.78 35.204 0.087 7.06 1.55 14.07
11/19/2022 3:00:00 AM 1.76 35.168 0.087 7.07 1.46 14.09
11/19/2022 3:15:00 AM 1.75 35.15 0.087 7.06 1.44 14.1
11/19/2022 3:30:00 AM 1.74 35.132 0.087 7.07 1.46 14.1
11/19/2022 3:45:00 AM 1.73 35.114 0.087 7.07 1.47 14.11
11/19/2022 4:00:00 AM 1.71 35.078 0.087 7.07 1.45 14.12
11/19/2022 4:15:00 AM 1.7 35.06 0.087 7.07 1.45 14.12
11/19/2022 4:30:00 AM 1.71 35.078 0.087 7.07 1.47 14.13
11/19/2022 4:45:00 AM 1.71 35.078 0.087 7.07 1.44 14.12
11/19/2022 5:00:00 AM 1.71 35.078 0.087 7.07 1.47 14.13
11/19/2022 5:15:00 AM 1.7 35.06 0.087 7.08 1.46 14.13
11/19/2022 5:30:00 AM 1.68 35.024 0.087 7.08 1.41 14.14
11/19/2022 5:45:00 AM 1.65 34.97 0.087 7.08 1.4 14.14
11/19/2022 6:00:00 AM 1.61 34.898 0.088 7.07 1.42 14.15
11/19/2022 6:15:00 AM 1.57 34.826 0.087 7.08 1.44 14.16
11/19/2022 6:30:00 AM 1.52 34.736 0.087 7.07 1.46 14.18
11/19/2022 6:45:00 AM 1.47 34.646 0.086 7.07 1.47 14.19
11/19/2022 7:00:00 AM 1.42 34.556 0.087 7.07 1.45 14.21
11/19/2022 7:15:00 AM 1.38 34.484 0.087 7.07 1.41 14.23
11/19/2022 7:30:00 AM 1.37 34.466 0.087 7.06 1.42 14.24
11/19/2022 7:45:00 AM 1.33 34.394 0.088 7.06 1.43 14.24
11/19/2022 8:00:00 AM 1.29 34.322 0.087 7.06 1.44 14.27
11/19/2022 8:15:00 AM 1.29 34.322 0.087 7.07 1.39 14.28
11/19/2022 8:30:00 AM 1.3 34.34 0.087 7.07 1.4 14.3
11/19/2022 8:45:00 AM 1.29 34.322 0.087 7.08 1.4 14.34
11/19/2022 9:00:00 AM 1.3 34.34 0.087 7.08 1.48 14.37
11/19/2022 9:15:00 AM 1.32 34.376 0.086 7.09 1.43 14.4
11/19/2022 9:30:00 AM 1.34 34.412 0.086 7.1 1.38 14.44
11/19/2022 9:45:00 AM 1.36 34.448 0.087 7.11 1.43 14.47
11/19/2022 10:00:00 AM 1.39 34.502 0.087 7.11 1.38 14.5
11/19/2022 10:15:00 AM 1.44 34.592 0.087 7.12 1.35 14.52
11/19/2022 10:30:00 AM 1.51 34.718 0.087 7.13 1.35 14.55
11/19/2022 10:45:00 AM 1.6 34.88 0.086 7.13 1.43 14.53
11/19/2022 11:00:00 AM 1.65 34.97 0.086 7.14 1.35 14.52
11/19/2022 11:15:00 AM 1.71 35.078 0.087 7.14 1.37 14.51
11/19/2022 11:30:00 AM 1.78 35.204 0.087 7.15 1.44 14.49
11/19/2022 11:45:00 AM 1.8 35.24 0.087 7.15 1.42 14.47
11/19/2022 12:00:00 PM 1.85 35.33 0.087 7.15 1.4 14.46
11/19/2022 12:15:00 PM 1.93 35.474 0.087 7.15 1.42 14.44
11/19/2022 12:30:00 PM 1.93 35.474 0.087 7.15 1.43 14.42
11/19/2022 12:45:00 PM 1.95 35.51 0.087 7.15 1.4 14.42
11/19/2022 1:00:00 PM 2.05 35.69 0.086 7.15 1.42 14.4
11/19/2022 1:15:00 PM 2.14 35.852 0.086 7.16 1.45 14.38
11/19/2022 1:30:00 PM 2.24 36.032 0.086 7.16 1.43 14.35
11/19/2022 1:45:00 PM 2.33 36.194 0.086 7.16 1.42 14.31
11/19/2022 2:00:00 PM 2.3 36.14 0.086 7.16 1.4 14.28
11/19/2022 2:15:00 PM 2.28 36.104 0.086 7.17 1.43 14.25
11/19/2022 2:30:00 PM 2.26 36.068 0.086 7.17 1.38 14.24
11/19/2022 2:45:00 PM 2.27 36.086 0.085 7.16 1.63 14.24
11/19/2022 3:00:00 PM 2.26 36.068 0.086 7.16 1.9 14.22
11/19/2022 3:15:00 PM 2.28 36.104 0.086 7.16 1.5 14.22
11/19/2022 3:30:00 PM 2.3 36.14 0.086 7.16 1.39 14.2
11/19/2022 3:45:00 PM 2.35 36.23 0.086 7.16 1.38 14.18
11/19/2022 4:00:00 PM 2.34 36.212 0.086 7.16 1.43 14.15
11/19/2022 4:15:00 PM 2.3 36.14 0.086 7.16 1.43 14.12
11/19/2022 4:30:00 PM 2.25 36.05 0.085 7.16 1.4 14.11
11/19/2022 4:45:00 PM 2.22 35.996 0.085 7.15 1.44 14.12
11/19/2022 5:00:00 PM 2.16 35.888 0.086 7.15 1.48 14.12
11/19/2022 5:15:00 PM 2.09 35.762 0.086 7.15 1.45 14.1
11/19/2022 5:30:00 PM 2.02 35.636 0.086 7.14 1.42 14.1
11/19/2022 5:45:00 PM 1.96 35.528 0.086 7.13 1.67 14.08
11/19/2022 6:00:00 PM 1.91 35.438 0.086 7.13 1.5 14.06
11/19/2022 6:15:00 PM 1.88 35.384 0.086 7.12 1.45 14.05
11/19/2022 6:30:00 PM 1.86 35.348 0.086 7.12 1.48 14.04
11/19/2022 6:45:00 PM 1.86 35.348 0.087 7.11 1.48 14.03
11/19/2022 7:00:00 PM 1.85 35.33 0.087 7.11 1.58 14.03
11/19/2022 7:15:00 PM 1.85 35.33 0.086 7.1 1.49 14.02
11/19/2022 7:30:00 PM 1.84 35.312 0.086 7.1 1.44 14.02
11/19/2022 7:45:00 PM 1.82 35.276 0.086 7.1 1.47 14.02
11/19/2022 8:00:00 PM 1.81 35.258 0.087 7.1 1.45 14.03
11/19/2022 8:15:00 PM 1.79 35.222 0.087 7.1 1.45 14.04
11/19/2022 8:30:00 PM 1.77 35.186 0.087 7.09 1.48 14.05
11/19/2022 8:45:00 PM 1.75 35.15 0.086 7.09 1.46 14.05
11/19/2022 9:00:00 PM 1.74 35.132 0.087 7.09 1.45 14.06
11/19/2022 9:15:00 PM 1.72 35.096 0.087 7.09 1.44 14.06
11/19/2022 9:30:00 PM 1.7 35.06 0.087 7.09 1.49 14.08
11/19/2022 9:45:00 PM 1.68 35.024 0.087 7.09 1.47 14.08
11/19/2022 10:00:00 PM 1.67 35.006 0.087 7.09 1.43 14.08
11/19/2022 10:15:00 PM 1.65 34.97 0.087 7.09 1.44 14.08
11/19/2022 10:30:00 PM 1.63 34.934 0.086 7.09 1.42 14.1
11/19/2022 10:45:00 PM 1.6 34.88 0.088 7.03 1.44 14.09
11/19/2022 11:00:00 PM 1.58 34.844 0.088 7.09 1.49 14.1
11/19/2022 11:15:00 PM 1.57 34.826 0.087 7.09 1.46 14.1
11/19/2022 11:30:00 PM 1.55 34.79 0.087 7.09 1.43 14.1
11/19/2022 11:45:00 PM 1.53 34.754 0.087 7.1 1.43 14.11
11/20/2022 12:00:00 AM 1.51 34.718 0.087 7.09 1.4 14.12
11/20/2022 12:15:00 AM 1.48 34.664 0.086 7.09 1.41 14.13
11/20/2022 12:30:00 AM 1.47 34.646 0.087 7.09 1.5 14.13
11/20/2022 12:45:00 AM 1.45 34.61 0.087 7.09 1.39 14.14
11/20/2022 1:00:00 AM 1.45 34.61 0.086 7.09 1.83 14.14
11/20/2022 1:15:00 AM 1.42 34.556 0.087 7.09 1.66 14.14
11/20/2022 1:30:00 AM 1.37 34.466 0.087 7.09 1.48 14.15
11/20/2022 1:45:00 AM 1.34 34.412 0.087 7.09 1.45 14.17
11/20/2022 2:00:00 AM 1.3 34.34 0.087 7.09 1.41 14.18
11/20/2022 2:15:00 AM 1.28 34.304 0.086 7.09 1.45 14.19
11/20/2022 2:30:00 AM 1.22 34.196 0.087 7.09 1.53 14.2
11/20/2022 2:45:00 AM 1.17 34.106 0.087 7.09 1.46 14.22
11/20/2022 3:00:00 AM 1.12 34.016 0.087 7.09 1.43 14.24
11/20/2022 3:15:00 AM 1.09 33.962 0.086 7.09 1.4 14.25
11/20/2022 3:30:00 AM 1.04 33.872 0.086 7.09 1.43 14.27
11/20/2022 3:45:00 AM 0.99 33.782 0.086 7.09 1.45 14.3
11/20/2022 4:00:00 AM 0.94 33.692 0.087 7.09 1.41 14.31
11/20/2022 4:15:00 AM 0.89 33.602 0.087 7.09 1.42 14.33
11/20/2022 4:30:00 AM 0.86 33.548 0.087 7.09 1.39 14.35
11/20/2022 4:45:00 AM 0.82 33.476 0.087 7.09 1.42 14.37
11/20/2022 5:00:00 AM 0.79 33.422 0.087 7.09 1.44 14.4
11/20/2022 5:15:00 AM 0.75 33.35 0.087 7.09 1.4 14.42
11/20/2022 5:30:00 AM 0.72 33.296 0.087 7.09 1.41 14.43
11/20/2022 5:45:00 AM 0.69 33.242 0.087 7.09 1.38 14.45
11/20/2022 6:00:00 AM 0.66 33.188 0.087 7.09 1.38 14.47
11/20/2022 6:15:00 AM 0.63 33.134 0.087 7.09 1.4 14.49
11/20/2022 6:30:00 AM 0.61 33.098 0.087 7.09 1.44 14.5
11/20/2022 6:45:00 AM 0.58 33.044 0.087 7.09 1.46 14.51
11/20/2022 7:00:00 AM 0.57 33.026 0.087 7.09 1.45 14.53
11/20/2022 7:15:00 AM 0.53 32.954 0.087 7.09 1.42 14.54
11/20/2022 7:30:00 AM 0.5 32.9 0.087 7.09 1.41 14.55
11/20/2022 7:45:00 AM 0.47 32.846 0.087 7.09 1.4 14.58
11/20/2022 8:00:00 AM 0.44 32.792 0.087 7.09 1.41 14.6
11/20/2022 8:15:00 AM 0.41 32.738 0.087 7.09 1.37 14.62
11/20/2022 8:30:00 AM 0.38 32.684 0.087 7.09 1.39 14.66
11/20/2022 8:45:00 AM 0.38 32.684 0.087 7.08 1.38 14.69
11/20/2022 9:00:00 AM 0.38 32.684 0.087 7.07 1.33 14.73
11/20/2022 9:15:00 AM 0.38 32.684 0.087 7.09 1.34 14.77
11/20/2022 9:30:00 AM 0.37 32.666 0.087 7.1 1.34 14.82
11/20/2022 9:45:00 AM 0.38 32.684 0.086 7.11 1.35 14.86
11/20/2022 10:00:00 AM 0.41 32.738 0.086 7.11 1.31 14.88
11/20/2022 10:15:00 AM 0.42 32.756 0.086 7.12 1.41 14.9
11/20/2022 10:30:00 AM 0.47 32.846 0.087 7.13 1.32 14.92
11/20/2022 10:45:00 AM 0.51 32.918 0.086 7.13 1.36 14.92
11/20/2022 11:00:00 AM 0.58 33.044 0.086 7.13 1.33 14.93
11/20/2022 11:15:00 AM 0.66 33.188 0.086 7.14 1.62 14.93
11/20/2022 11:30:00 AM 0.78 33.404 0.086 7.14 1.34 14.9
11/20/2022 11:45:00 AM 0.9 33.62 0.086 7.15 1.3 14.89
11/20/2022 12:00:00 PM 0.98 33.764 0.086 7.15 1.3 14.86
11/20/2022 12:15:00 PM 1.02 33.836 0.086 7.15 1.32 14.83
11/20/2022 12:30:00 PM 1.08 33.944 0.085 7.16 1.31 14.8
11/20/2022 12:45:00 PM 1.13 34.034 0.086 7.16 1.32 14.78
11/20/2022 1:00:00 PM 1.13 34.034 0.086 7.16 1.34 14.78
11/20/2022 1:15:00 PM 1.13 34.034 0.086 7.16 1.33 14.78
11/20/2022 1:30:00 PM 1.16 34.088 0.085 7.16 1.32 14.78
11/20/2022 1:45:00 PM 1.25 34.25 0.086 7.17 2.15 14.76
11/20/2022 2:00:00 PM 1.31 34.358 0.086 7.17 1.31 14.73
11/20/2022 2:15:00 PM 1.34 34.412 0.086 7.17 1.42 14.7
11/20/2022 2:30:00 PM 1.39 34.502 0.086 7.17 1.46 14.66
11/20/2022 2:45:00 PM 1.38 34.484 0.086 7.17 1.66 14.65
11/20/2022 3:00:00 PM 1.37 34.466 0.086 7.17 1.59 14.65
11/20/2022 3:15:00 PM 1.35 34.43 0.085 7.17 1.54 14.64
11/20/2022 3:30:00 PM 1.33 34.394 0.085 7.17 1.36 14.66
11/20/2022 3:45:00 PM 1.33 34.394 0.085 7.17 1.63 14.66
11/20/2022 4:00:00 PM 1.34 34.412 0.085 7.17 1.51 14.66
11/20/2022 4:15:00 PM 1.31 34.358 0.085 7.17 1.62 14.63
11/20/2022 4:30:00 PM 1.3 34.34 0.086 7.16 1.46 14.61
11/20/2022 4:45:00 PM 1.27 34.286 0.085 7.16 1.64 14.6
11/20/2022 5:00:00 PM 1.23 34.214 0.085 7.16 1.5 14.6
11/20/2022 5:15:00 PM 1.19 34.142 0.086 7.16 1.56 14.59
11/20/2022 5:30:00 PM 1.13 34.034 0.086 7.15 1.69 14.58
11/20/2022 5:45:00 PM 1.08 33.944 0.086 7.14 1.42 14.56
11/20/2022 6:00:00 PM 1.02 33.836 0.086 7.14 1.67 14.55
11/20/2022 6:15:00 PM 0.95 33.71 0.086 7.13 1.36 14.54
11/20/2022 6:30:00 PM 0.89 33.602 0.086 7.13 1.39 14.55
11/20/2022 6:45:00 PM 0.83 33.494 0.086 7.12 1.4 14.55
11/20/2022 7:00:00 PM 0.79 33.422 0.086 7.12 1.43 14.57
11/20/2022 7:15:00 PM 0.76 33.368 0.086 7.12 1.42 14.58
11/20/2022 7:30:00 PM 0.75 33.35 0.086 7.11 1.39 14.59
11/20/2022 7:45:00 PM 0.74 33.332 0.086 7.11 1.42 14.6
11/20/2022 8:00:00 PM 0.73 33.314 0.086 7.11 1.44 14.61
11/20/2022 8:15:00 PM 0.72 33.296 0.086 7.11 1.43 14.61
11/20/2022 8:30:00 PM 0.69 33.242 0.086 7.1 1.43 14.63
11/20/2022 8:45:00 PM 0.66 33.188 0.086 7.1 1.41 14.64
11/20/2022 9:00:00 PM 0.65 33.17 0.086 7.1 1.42 14.65
11/20/2022 9:15:00 PM 0.63 33.134 0.086 7.1 1.4 14.66
11/20/2022 9:30:00 PM 0.61 33.098 0.087 7.1 1.41 14.66
11/20/2022 9:45:00 PM 0.59 33.062 0.086 7.1 1.4 14.67
11/20/2022 10:00:00 PM 0.58 33.044 0.086 7.1 1.32 14.68
11/20/2022 10:15:00 PM 0.58 33.044 0.086 7.1 1.37 14.69
11/20/2022 10:30:00 PM 0.58 33.044 0.086 7.1 1.37 14.69
11/20/2022 10:45:00 PM 0.58 33.044 0.085 7.1 1.41 14.7
11/20/2022 11:00:00 PM 0.58 33.044 0.087 7.1 1.39 14.7
11/20/2022 11:15:00 PM 0.58 33.044 0.087 7.1 1.38 14.7
11/20/2022 11:30:00 PM 0.57 33.026 0.086 7.09 1.37 14.71
11/20/2022 11:45:00 PM 0.57 33.026 0.087 7.1 1.34 14.71
11/21/2022 12:00:00 AM 0.57 33.026 0.085 7.09 1.38 14.7
11/21/2022 12:15:00 AM 0.56 33.008 0.086 7.1 1.38 14.71
11/21/2022 12:30:00 AM 0.55 32.99 0.086 7.1 1.38 14.72
11/21/2022 12:45:00 AM 0.54 32.972 0.087 7.1 1.4 14.72
11/21/2022 1:00:00 AM 0.54 32.972 0.087 7.09 1.4 14.72
11/21/2022 1:15:00 AM 0.52 32.936 0.086 7.09 1.37 14.73
11/21/2022 1:30:00 AM 0.51 32.918 0.086 7.09 1.4 14.73
11/21/2022 1:45:00 AM 0.49 32.882 0.086 7.09 1.34 14.73
11/21/2022 2:00:00 AM 0.46 32.828 0.085 7.09 1.34 14.74
11/21/2022 2:15:00 AM 0.42 32.756 0.086 7.09 1.37 14.76
11/21/2022 2:30:00 AM 0.39 32.702 0.086 7.09 1.36 14.77
11/21/2022 2:45:00 AM 0.34 32.612 0.087 7.09 1.37 14.78
11/21/2022 3:00:00 AM 0.31 32.558 0.087 7.09 1.37 14.8
11/21/2022 3:15:00 AM 0.27 32.486 0.087 7.09 1.33 14.81
11/21/2022 3:30:00 AM 0.23 32.414 0.087 7.09 1.36 14.82
11/21/2022 3:45:00 AM 0.21 32.378 0.086 7.09 1.4 14.84
11/21/2022 4:00:00 AM 0.23 32.414 0.087 7.09 1.55 14.85
11/21/2022 4:15:00 AM 0.24 32.432 0.086 7.09 1.5 14.88
11/21/2022 4:30:00 AM 0.25 32.45 0.086 7.08 1.45 14.89
11/21/2022 4:45:00 AM 0.25 32.45 0.086 7.09 1.42 14.89
11/21/2022 5:00:00 AM 0.25 32.45 0.086 7.08 1.48 14.9
11/21/2022 5:15:00 AM 0.25 32.45 0.086 7.08 1.43 14.91
11/21/2022 5:30:00 AM 0.25 32.45 0.086 7.08 1.51 14.91
11/21/2022 5:45:00 AM 0.25 32.45 0.086 7.08 1.5 14.92
11/21/2022 6:00:00 AM 0.25 32.45 0.086 7.07 1.51 14.93
11/21/2022 6:15:00 AM 0.25 32.45 0.086 7.07 1.41 14.93
11/21/2022 6:30:00 AM 0.25 32.45 0.086 7.06 1.44 14.93
11/21/2022 6:45:00 AM 0.25 32.45 0.086 7.05 1.45 14.92
11/21/2022 7:00:00 AM 0.25 32.45 0.086 7.03 1.54 14.92
11/21/2022 7:15:00 AM 0.25 32.45 0.086 7.03 1.55 14.92
11/21/2022 7:30:00 AM 0.25 32.45 0.087 7.03 1.49 14.91
11/21/2022 7:45:00 AM 0.25 32.45 0.087 7.04 1.53 14.92
11/21/2022 8:00:00 AM 0.25 32.45 0.086 7.04 1.5 14.92
11/21/2022 8:15:00 AM 0.25 32.45 0.087 7.04 1.44 14.93
11/21/2022 8:30:00 AM 0.25 32.45 0.087 7.04 1.47 14.95
11/21/2022 8:45:00 AM 0.25 32.45 0.087 7.04 1.47 14.95
11/21/2022 9:00:00 AM 0.25 32.45 0.088 7.05 1.47 14.98
11/21/2022 9:15:00 AM 0.25 32.45 0.087 7.05 1.44 14.99
11/21/2022 9:30:00 AM 0.25 32.45 0.087 7.05 1.51 15
11/21/2022 9:45:00 AM 0.25 32.45 0.087 7.06 1.57 15.03
11/21/2022 10:00:00 AM 0.26 32.468 0.087 7.06 1.81 15.03
11/21/2022 10:15:00 AM 0.26 32.468 0.087 7.07 1.49 15.05
11/21/2022 10:30:00 AM 0.27 32.486 0.087 7.07 1.68 15.06
11/21/2022 10:45:00 AM 0.26 32.468 0.087 7.07 1.69 15.08
11/21/2022 11:00:00 AM 0.26 32.468 0.086 7.08 1.58 15.07
11/21/2022 11:15:00 AM 0.27 32.486 0.087 7.08 1.79 15.08
11/21/2022 11:30:00 AM 0.27 32.486 0.086 7.09 1.79 15.07
11/21/2022 11:45:00 AM 0.27 32.486 0.087 7.09 2.03 15.06
11/21/2022 12:00:00 PM 0.28 32.504 0.085 7.1 1.93 15.05
11/21/2022 12:15:00 PM 0.28 32.504 0.085 7.1 2.1 15.03
11/21/2022 12:30:00 PM 0.28 32.504 0.086 7.1 2.14 15
11/21/2022 12:45:00 PM 0.28 32.504 0.085 7.09 2.98 14.96
11/21/2022 1:00:00 PM 0.28 32.504 0.085 7.1 2.03 14.93
11/21/2022 1:15:00 PM 0.28 32.504 0.085 7.11 2.02 14.88
11/21/2022 1:30:00 PM 0.28 32.504 0.085 7.12 2.23 14.83
11/21/2022 1:45:00 PM 0.29 32.522 0.085 7.1 2.69 14.77
11/21/2022 2:00:00 PM 0.49 32.882 0.085 7.13 2.16 14.72
11/21/2022 2:15:00 PM 0.75 33.35 0.085 7.13 1.93 14.69
11/21/2022 2:30:00 PM 0.95 33.71 0.085 7.14 1.56 14.66
11/21/2022 2:45:00 PM 1.16 34.088 0.085 7.15 1.54 14.63
11/21/2022 3:00:00 PM 1.3 34.34 0.085 7.16 1.36 14.59
11/21/2022 3:15:00 PM 1.38 34.484 0.085 7.16 1.43 14.56
11/21/2022 3:30:00 PM 1.45 34.61 0.085 7.16 1.4 14.53
11/21/2022 3:45:00 PM 1.51 34.718 0.085 7.16 1.44 14.52
11/21/2022 4:00:00 PM 1.53 34.754 0.085 7.16 2.58 14.5
11/21/2022 4:15:00 PM 1.54 34.772 0.086 7.16 1.61 14.49
11/21/2022 4:30:00 PM 1.53 34.754 0.085 7.16 1.76 14.47
11/21/2022 4:45:00 PM 1.51 34.718 0.085 7.16 1.36 14.46
11/21/2022 5:00:00 PM 1.49 34.682 0.086 7.16 1.31 14.45
11/21/2022 5:15:00 PM 1.47 34.646 0.086 7.15 1.38 14.44
11/21/2022 5:30:00 PM 1.46 34.628 0.085 7.15 1.39 14.43
11/21/2022 5:45:00 PM 1.45 34.61 0.085 7.14 1.46 14.39
11/21/2022 6:00:00 PM 1.44 34.592 0.085 7.13 1.56 14.36
11/21/2022 6:15:00 PM 1.43 34.574 0.086 7.13 1.47 14.34
11/21/2022 6:30:00 PM 1.42 34.556 0.085 7.13 1.45 14.31
11/21/2022 6:45:00 PM 1.41 34.538 0.086 7.12 1.43 14.31
11/21/2022 7:00:00 PM 1.4 34.52 0.085 7.12 1.38 14.3
11/21/2022 7:15:00 PM 1.38 34.484 0.086 7.12 2.45 14.29
11/21/2022 7:30:00 PM 1.37 34.466 0.086 7.12 1.41 14.29
11/21/2022 7:45:00 PM 1.35 34.43 0.085 7.11 1.35 14.3
11/21/2022 8:00:00 PM 1.34 34.412 0.086 7.11 1.38 14.3
11/21/2022 8:15:00 PM 1.32 34.376 0.086 7.11 1.41 14.3
11/21/2022 8:30:00 PM 1.3 34.34 0.085 7.11 1.35 14.32
11/21/2022 8:45:00 PM 1.28 34.304 0.085 7.1 1.41 14.33
11/21/2022 9:00:00 PM 1.26 34.268 0.086 7.1 1.41 14.34
11/21/2022 9:15:00 PM 1.24 34.232 0.085 7.1 1.42 14.35
11/21/2022 9:30:00 PM 1.22 34.196 0.085 7.1 1.43 14.36
11/21/2022 9:45:00 PM 1.2 34.16 0.085 7.1 1.42 14.36
11/21/2022 10:00:00 PM 1.18 34.124 0.084 7.09 1.45 14.37
11/21/2022 10:15:00 PM 1.16 34.088 0.085 7.1 1.46 14.38
11/21/2022 10:30:00 PM 1.15 34.07 0.085 7.1 1.57 14.39
11/21/2022 10:45:00 PM 1.13 34.034 0.086 7.1 1.44 14.4
11/21/2022 11:00:00 PM 1.12 34.016 0.086 7.1 1.36 14.41
11/21/2022 11:15:00 PM 1.11 33.998 0.086 7.09 1.49 14.41
11/21/2022 11:30:00 PM 1.1 33.98 0.085 7.09 1.36 14.42
11/21/2022 11:45:00 PM 1.09 33.962 0.085 7.09 1.33 14.43
11/22/2022 12:00:00 AM 1.07 33.926 0.085 7.09 1.34 14.44
11/22/2022 12:15:00 AM 1.04 33.872 0.085 7.09 1.31 14.45
11/22/2022 12:30:00 AM 1.02 33.836 0.085 7.09 1.29 14.46
11/22/2022 12:45:00 AM 1 33.8 0.085 7.09 1.27 14.47
11/22/2022 1:00:00 AM 0.97 33.746 0.085 7.09 1.26 14.48
11/22/2022 1:15:00 AM 0.95 33.71 0.086 7.09 1.22 14.5
11/22/2022 1:30:00 AM 0.92 33.656 0.086 7.08 1.33 14.51
11/22/2022 1:45:00 AM 0.9 33.62 0.085 7.08 1.29 14.52
11/22/2022 2:00:00 AM 0.88 33.584 0.086 7.09 1.3 14.53
11/22/2022 2:15:00 AM 0.85 33.53 0.086 7.08 1.27 14.54
11/22/2022 2:30:00 AM 0.83 33.494 0.085 7.08 1.31 14.55
11/22/2022 2:45:00 AM 0.8 33.44 0.085 7.08 1.32 14.57
11/22/2022 3:00:00 AM 0.77 33.386 0.086 7.08 1.29 14.58
11/22/2022 3:15:00 AM 0.76 33.368 0.086 7.08 1.33 14.59
11/22/2022 3:30:00 AM 0.76 33.368 0.086 7.08 1.28 14.6
11/22/2022 3:45:00 AM 0.77 33.386 0.085 7.08 1.28 14.61
11/22/2022 4:00:00 AM 0.78 33.404 0.086 7.08 1.28 14.62
11/22/2022 4:15:00 AM 0.78 33.404 0.085 7.08 1.22 14.62
11/22/2022 4:30:00 AM 0.78 33.404 0.086 7.08 1.25 14.62
11/22/2022 4:45:00 AM 0.77 33.386 0.085 7.08 1.29 14.63
11/22/2022 5:00:00 AM 0.75 33.35 0.086 7.08 1.28 14.63
11/22/2022 5:15:00 AM 0.71 33.278 0.085 7.08 1.28 14.64
11/22/2022 5:30:00 AM 0.68 33.224 0.086 7.08 1.29 14.65
11/22/2022 5:45:00 AM 0.65 33.17 0.086 7.08 1.26 14.66
11/22/2022 6:00:00 AM 0.61 33.098 0.085 7.08 1.25 14.68
11/22/2022 6:15:00 AM 0.57 33.026 0.087 7.08 1.28 14.69
11/22/2022 6:30:00 AM 0.53 32.954 0.086 7.08 1.27 14.71
11/22/2022 6:45:00 AM 0.5 32.9 0.086 7.08 1.26 14.72
11/22/2022 7:00:00 AM 0.47 32.846 0.086 7.07 1.3 14.73
11/22/2022 7:15:00 AM 0.44 32.792 0.086 7.07 1.27 14.74
11/22/2022 7:30:00 AM 0.41 32.738 0.086 7.07 1.3 14.75
11/22/2022 7:45:00 AM 0.38 32.684 0.086 7.07 1.22 14.76
11/22/2022 8:00:00 AM 0.36 32.648 0.086 7.07 1.26 14.78
11/22/2022 8:15:00 AM 0.33 32.594 0.086 7.07 1.25 14.8
11/22/2022 8:30:00 AM 0.31 32.558 0.086 7.08 1.28 14.83
11/22/2022 8:45:00 AM 0.3 32.54 0.086 7.08 1.21 14.86
11/22/2022 9:00:00 AM 0.29 32.522 0.086 7.08 1.22 14.9
11/22/2022 9:15:00 AM 0.29 32.522 0.086 7.09 1.19 14.94
11/22/2022 9:30:00 AM 0.31 32.558 0.086 7.09 1.25 14.97
11/22/2022 9:45:00 AM 0.33 32.594 0.086 7.1 1.26 15
11/22/2022 10:00:00 AM 0.37 32.666 0.085 7.1 1.42 15.01
11/22/2022 10:15:00 AM 0.42 32.756 0.086 7.11 1.71 15.03
11/22/2022 10:30:00 AM 0.49 32.882 0.086 7.12 1.26 15.04
11/22/2022 10:45:00 AM 0.56 33.008 0.085 7.12 1.28 15.04
11/22/2022 11:00:00 AM 0.66 33.188 0.085 7.12 1.18 15.03
11/22/2022 11:15:00 AM 0.81 33.458 0.085 7.13 1.21 15.02
11/22/2022 11:30:00 AM 0.96 33.728 0.085 7.14 1.35 14.99
11/22/2022 11:45:00 AM 1.12 34.016 0.085 7.14 1.23 14.95
11/22/2022 12:00:00 PM 1.24 34.232 0.084 7.15 1.2 14.9
11/22/2022 12:15:00 PM 1.36 34.448 0.085 7.15 1.25 14.84
11/22/2022 12:30:00 PM 1.52 34.736 0.085 7.16 1.2 14.8
11/22/2022 12:45:00 PM 1.62 34.916 0.085 7.16 1.26 14.75
11/22/2022 1:00:00 PM 1.7 35.06 0.085 7.16 1.22 14.7
11/22/2022 1:15:00 PM 1.82 35.276 0.085 7.17 1.75 14.65
11/22/2022 1:30:00 PM 1.95 35.51 0.085 7.17 1.23 14.6
11/22/2022 1:45:00 PM 2.07 35.726 0.085 7.17 1.22 14.55
11/22/2022 2:00:00 PM 2.18 35.924 0.085 7.17 1.22 14.5
11/22/2022 2:15:00 PM 2.29 36.122 0.084 7.18 1.23 14.46
11/22/2022 2:30:00 PM 2.39 36.302 0.084 7.18 1.43 14.41
11/22/2022 2:45:00 PM 2.47 36.446 0.084 7.18 1.23 14.36
11/22/2022 3:00:00 PM 2.53 36.554 0.084 7.18 1.13 14.3
11/22/2022 3:15:00 PM 2.6 36.68 0.084 7.18 1.28 14.27
11/22/2022 3:30:00 PM 2.66 36.788 0.084 7.18 1.53 14.22
11/22/2022 3:45:00 PM 2.7 36.86 0.083 7.18 1.93 14.17
11/22/2022 4:00:00 PM 2.72 36.896 0.084 7.18 1.65 14.13
11/22/2022 4:15:00 PM 2.73 36.914 0.085 7.17 1.61 14.11
11/22/2022 4:30:00 PM 2.72 36.896 0.085 7.17 1.3 14.08
11/22/2022 4:45:00 PM 2.71 36.878 0.083 7.17 1.35 14.06
11/22/2022 5:00:00 PM 2.68 36.824 0.085 7.16 1.36 14.05
11/22/2022 5:15:00 PM 2.66 36.788 0.084 7.16 1.39 14.03
11/22/2022 5:30:00 PM 2.62 36.716 0.085 7.15 1.47 13.99
11/22/2022 5:45:00 PM 2.59 36.662 0.085 7.15 1.39 13.96
11/22/2022 6:00:00 PM 2.58 36.644 0.084 7.14 1.27 13.94
11/22/2022 6:15:00 PM 2.56 36.608 0.085 7.13 1.41 13.91
11/22/2022 6:30:00 PM 2.53 36.554 0.086 7.13 1.24 13.9
11/22/2022 6:45:00 PM 2.51 36.518 0.085 7.12 1.34 13.88
11/22/2022 7:00:00 PM 2.49 36.482 0.086 7.12 1.28 13.87
11/22/2022 7:15:00 PM 2.48 36.464 0.085 7.11 1.35 13.88
11/22/2022 7:30:00 PM 2.48 36.464 0.085 7.11 1.37 13.87
11/22/2022 7:45:00 PM 2.47 36.446 0.086 7.11 1.29 13.87
11/22/2022 8:00:00 PM 2.46 36.428 0.085 7.11 1.32 13.87
11/22/2022 8:15:00 PM 2.43 36.374 0.086 7.1 1.38 13.88
11/22/2022 8:30:00 PM 2.38 36.284 0.086 7.1 1.53 13.89
11/22/2022 8:45:00 PM 2.33 36.194 0.084 7.1 1.5 13.91
11/22/2022 9:00:00 PM 2.28 36.104 0.085 7.1 1.41 13.93
11/22/2022 9:15:00 PM 2.22 35.996 0.086 7.1 1.53 13.95
11/22/2022 9:30:00 PM 2.16 35.888 0.086 7.09 1.47 13.97
11/22/2022 9:45:00 PM 2.1 35.78 0.085 7.09 1.53 13.99
11/22/2022 10:00:00 PM 2.04 35.672 0.085 7.09 1.37 14.01
11/22/2022 10:15:00 PM 1.99 35.582 0.085 7.08 1.32 14.04
11/22/2022 10:30:00 PM 1.93 35.474 0.086 7.08 1.34 14.06
11/22/2022 10:45:00 PM 1.88 35.384 0.086 7.09 1.32 14.07
11/22/2022 11:00:00 PM 1.82 35.276 0.086 7.08 1.35 14.09
11/22/2022 11:15:00 PM 1.77 35.186 0.085 7.08 1.32 14.11
11/22/2022 11:30:00 PM 1.72 35.096 0.086 7.08 1.34 14.13
11/22/2022 11:45:00 PM 1.67 35.006 0.086 7.08 1.27 14.15
11/23/2022 12:00:00 AM 1.62 34.916 0.086 7.08 1.28 14.18
11/23/2022 12:15:00 AM 1.57 34.826 0.086 7.08 1.27 14.2
11/23/2022 12:30:00 AM 1.52 34.736 0.086 7.08 1.26 14.22
11/23/2022 12:45:00 AM 1.47 34.646 0.086 7.08 1.28 14.24
11/23/2022 1:00:00 AM 1.43 34.574 0.086 7.07 1.31 14.26
11/23/2022 1:15:00 AM 1.38 34.484 0.085 7.07 1.26 14.28
11/23/2022 1:30:00 AM 1.34 34.412 0.086 7.07 1.28 14.3
11/23/2022 1:45:00 AM 1.29 34.322 0.086 7.07 1.32 14.32
11/23/2022 2:00:00 AM 1.25 34.25 0.086 7.07 1.3 14.34
11/23/2022 2:15:00 AM 1.21 34.178 0.086 7.07 1.29 14.35
11/23/2022 2:30:00 AM 1.16 34.088 0.086 7.07 1.28 14.37
11/23/2022 2:45:00 AM 1.13 34.034 0.085 7.06 1.28 14.38
11/23/2022 3:00:00 AM 1.09 33.962 0.086 7.07 1.25 14.4
11/23/2022 3:15:00 AM 1.05 33.89 0.086 7.06 1.3 14.42
11/23/2022 3:30:00 AM 1.01 33.818 0.086 7.07 1.26 14.44
11/23/2022 3:45:00 AM 0.97 33.746 0.085 7.07 1.2 14.45
11/23/2022 4:00:00 AM 0.94 33.692 0.085 7.06 1.24 14.46
11/23/2022 4:15:00 AM 0.9 33.62 0.085 7.07 1.24 14.48
11/23/2022 4:30:00 AM 0.87 33.566 0.085 7.06 1.28 14.49
11/23/2022 4:45:00 AM 0.84 33.512 0.085 7.06 1.24 14.51
11/23/2022 5:00:00 AM 0.81 33.458 0.085 7.07 1.27 14.52
11/23/2022 5:15:00 AM 0.77 33.386 0.085 7.06 1.23 14.53
11/23/2022 5:30:00 AM 0.74 33.332 0.086 7.06 1.24 14.55
11/23/2022 5:45:00 AM 0.72 33.296 0.085 7.07 1.21 14.56
11/23/2022 6:00:00 AM 0.69 33.242 0.086 7.06 1.21 14.57
11/23/2022 6:15:00 AM 0.67 33.206 0.086 7.06 1.21 14.59
11/23/2022 6:30:00 AM 0.64 33.152 0.086 7.06 1.28 14.6
11/23/2022 6:45:00 AM 0.62 33.116 0.086 7.06 1.24 14.6
11/23/2022 7:00:00 AM 0.6 33.08 0.086 7.06 1.19 14.62
11/23/2022 7:15:00 AM 0.57 33.026 0.086 7.07 1.22 14.63
11/23/2022 7:30:00 AM 0.55 32.99 0.085 7.07 1.19 14.64
11/23/2022 7:45:00 AM 0.52 32.936 0.086 7.07 1.21 14.66
11/23/2022 8:00:00 AM 0.5 32.9 0.085 7.07 1.23 14.67
11/23/2022 8:15:00 AM 0.48 32.864 0.085 7.07 1.27 14.69
11/23/2022 8:30:00 AM 0.46 32.828 0.085 7.07 1.2 14.72
11/23/2022 8:45:00 AM 0.45 32.81 0.085 7.08 1.21 14.75
11/23/2022 9:00:00 AM 0.44 32.792 0.085 7.08 1.21 14.79
11/23/2022 9:15:00 AM 0.45 32.81 0.085 7.08 1.2 14.83
11/23/2022 9:30:00 AM 0.47 32.846 0.085 7.09 1.24 14.87
11/23/2022 9:45:00 AM 0.5 32.9 0.085 7.09 1.21 14.89
11/23/2022 10:00:00 AM 0.54 32.972 0.085 7.1 1.18 14.91
11/23/2022 10:15:00 AM 0.6 33.08 0.085 7.1 1.15 14.93
11/23/2022 10:30:00 AM 0.67 33.206 0.085 7.11 1.13 14.93
11/23/2022 10:45:00 AM 0.75 33.35 0.084 7.12 1.15 14.93
11/23/2022 11:00:00 AM 0.85 33.53 0.084 7.12 1.18 14.92
11/23/2022 11:15:00 AM 0.96 33.728 0.084 7.12 1.15 14.9
11/23/2022 11:30:00 AM 1.08 33.944 0.084 7.13 1.19 14.87
11/23/2022 11:45:00 AM 1.22 34.196 0.084 7.13 1.18 14.84
11/23/2022 12:00:00 PM 1.37 34.466 0.084 7.14 1.19 14.8
11/23/2022 12:15:00 PM 1.52 34.736 0.084 7.14 1.16 14.75
11/23/2022 12:30:00 PM 1.67 35.006 0.084 7.15 1.16 14.71
11/23/2022 12:45:00 PM 1.82 35.276 0.084 7.15 1.19 14.66
11/23/2022 1:00:00 PM 1.97 35.546 0.084 7.16 1.28 14.6
11/23/2022 1:15:00 PM 2.11 35.798 0.084 7.17 1.17 14.55
11/23/2022 1:30:00 PM 2.26 36.068 0.084 7.17 1.16 14.49
11/23/2022 1:45:00 PM 2.39 36.302 0.084 7.17 1.17 14.44
11/23/2022 2:00:00 PM 2.52 36.536 0.083 7.18 1.19 14.39
11/23/2022 2:15:00 PM 2.63 36.734 0.085 7.18 1.35 14.33
11/23/2022 2:30:00 PM 2.72 36.896 0.084 7.18 1.18 14.3
11/23/2022 2:45:00 PM 2.8 37.04 0.084 7.18 1.18 14.26
11/23/2022 3:00:00 PM 2.87 37.166 0.084 7.18 1.2 14.21
11/23/2022 3:15:00 PM 2.93 37.274 0.084 7.18 1.19 14.18
11/23/2022 3:30:00 PM 2.97 37.346 0.084 7.18 1.2 14.14
11/23/2022 3:45:00 PM 3 37.4 0.084 7.19 1.22 14.1
11/23/2022 4:00:00 PM 3.02 37.436 0.083 7.18 1.17 14.06
11/23/2022 4:15:00 PM 3.03 37.454 0.083 7.18 1.3 14.04
11/23/2022 4:30:00 PM 3.03 37.454 0.085 7.18 1.28 14.01
11/23/2022 4:45:00 PM 3.02 37.436 0.084 7.17 1.81 13.98
11/23/2022 5:00:00 PM 3 37.4 0.084 7.17 1.22 13.95
11/23/2022 5:15:00 PM 2.97 37.346 0.084 7.17 1.24 13.92
11/23/2022 5:30:00 PM 2.94 37.292 0.084 7.16 1.25 13.89
11/23/2022 5:45:00 PM 2.9 37.22 0.085 7.15 1.22 13.87
11/23/2022 6:00:00 PM 2.85 37.13 0.084 7.14 1.2 13.84
11/23/2022 6:15:00 PM 2.82 37.076 0.085 7.14 1.27 13.82
11/23/2022 6:30:00 PM 2.79 37.022 0.084 7.13 1.28 13.81
11/23/2022 6:45:00 PM 2.76 36.968 0.084 7.12 1.42 13.81
11/23/2022 7:00:00 PM 2.74 36.932 0.084 7.12 1.27 13.79
11/23/2022 7:15:00 PM 2.72 36.896 0.084 7.11 1.28 13.8
11/23/2022 7:30:00 PM 2.69 36.842 0.085 7.11 1.32 13.8
11/23/2022 7:45:00 PM 2.65 36.77 0.085 7.11 1.35 13.81
11/23/2022 8:00:00 PM 2.62 36.716 0.085 7.1 1.33 13.83
11/23/2022 8:15:00 PM 2.58 36.644 0.085 7.1 1.33 13.84
11/23/2022 8:30:00 PM 2.53 36.554 0.085 7.1 1.76 13.86
11/23/2022 8:45:00 PM 2.48 36.464 0.085 7.1 1.37 13.88
11/23/2022 9:00:00 PM 2.43 36.374 0.085 7.09 1.55 13.91
11/23/2022 9:15:00 PM 2.37 36.266 0.085 7.09 1.47 13.93
11/23/2022 9:30:00 PM 2.32 36.176 0.085 7.09 1.4 13.95
11/23/2022 9:45:00 PM 2.26 36.068 0.085 7.09 1.39 13.98
11/23/2022 10:00:00 PM 2.2 35.96 0.085 7.09 1.42 14
11/23/2022 10:15:00 PM 2.14 35.852 0.085 7.09 1.51 14.02
11/23/2022 10:30:00 PM 2.09 35.762 0.085 7.09 1.4 14.05
11/23/2022 10:45:00 PM 2.03 35.654 0.086 7.09 1.46 14.08
11/23/2022 11:00:00 PM 1.97 35.546 0.085 7.08 1.45 14.1
11/23/2022 11:15:00 PM 1.92 35.456 0.085 7.08 1.39 14.12
11/23/2022 11:30:00 PM 1.86 35.348 0.085 7.08 1.44 14.15
11/23/2022 11:45:00 PM 1.81 35.258 0.085 7.08 1.33 14.17
11/24/2022 12:00:00 AM 1.75 35.15 0.086 7.08 1.37 14.2
11/24/2022 12:15:00 AM 1.7 35.06 0.086 7.08 1.26 14.22
11/24/2022 12:30:00 AM 1.64 34.952 0.086 7.08 1.26 14.24
11/24/2022 12:45:00 AM 1.59 34.862 0.086 7.08 1.28 14.27
11/24/2022 1:00:00 AM 1.54 34.772 0.084 7.08 1.28 14.29
11/24/2022 1:15:00 AM 1.48 34.664 0.084 7.07 1.29 14.31
11/24/2022 1:30:00 AM 1.43 34.574 0.085 7.07 1.31 14.33
11/24/2022 1:45:00 AM 1.38 34.484 0.084 7.07 1.23 14.35
11/24/2022 2:00:00 AM 1.33 34.394 0.086 7.07 1.24 14.38
11/24/2022 2:15:00 AM 1.29 34.322 0.085 7.07 1.22 14.4
11/24/2022 2:30:00 AM 1.24 34.232 0.085 7.07 1.23 14.42
11/24/2022 2:45:00 AM 1.19 34.142 0.086 7.07 1.24 14.44
11/24/2022 3:00:00 AM 1.15 34.07 0.086 7.07 1.26 14.45
11/24/2022 3:15:00 AM 1.11 33.998 0.086 7.07 1.25 14.47
11/24/2022 3:30:00 AM 1.07 33.926 0.085 7.07 1.29 14.49
11/24/2022 3:45:00 AM 1.03 33.854 0.086 7.07 1.37 14.51
11/24/2022 4:00:00 AM 0.99 33.782 0.086 7.07 1.28 14.52
11/24/2022 4:15:00 AM 0.95 33.71 0.085 7.07 1.27 14.54
11/24/2022 4:30:00 AM 0.92 33.656 0.085 7.07 1.23 14.55
11/24/2022 4:45:00 AM 0.88 33.584 0.085 7.06 1.22 14.57
11/24/2022 5:00:00 AM 0.85 33.53 0.085 7.06 1.28 14.58
11/24/2022 5:15:00 AM 0.81 33.458 0.086 7.06 1.27 14.6
11/24/2022 5:30:00 AM 0.78 33.404 0.085 7.06 1.24 14.62
11/24/2022 5:45:00 AM 0.74 33.332 0.085 7.06 1.25 14.63
11/24/2022 6:00:00 AM 0.71 33.278 0.085 7.06 1.26 14.64
11/24/2022 6:15:00 AM 0.67 33.206 0.086 7.06 1.23 14.66
11/24/2022 6:30:00 AM 0.64 33.152 0.085 7.06 1.22 14.67
11/24/2022 6:45:00 AM 0.61 33.098 0.085 7.06 1.23 14.68
11/24/2022 7:00:00 AM 0.57 33.026 0.085 7.06 1.22 14.7
11/24/2022 7:15:00 AM 0.54 32.972 0.085 7.06 1.28 14.71
11/24/2022 7:30:00 AM 0.51 32.918 0.086 7.06 1.2 14.73
11/24/2022 7:45:00 AM 0.48 32.864 0.086 7.06 1.27 14.75
11/24/2022 8:00:00 AM 0.44 32.792 0.085 7.06 1.22 14.76
11/24/2022 8:15:00 AM 0.42 32.756 0.085 7.06 1.25 14.79
11/24/2022 8:30:00 AM 0.4 32.72 0.085 7.07 1.38 14.81
11/24/2022 8:45:00 AM 0.39 32.702 0.085 7.07 1.18 14.86
11/24/2022 9:00:00 AM 0.4 32.72 0.086 7.07 1.21 14.91
11/24/2022 9:15:00 AM 0.41 32.738 0.086 7.08 1.25 14.95
11/24/2022 9:30:00 AM 0.44 32.792 0.085 7.09 1.2 14.99
11/24/2022 9:45:00 AM 0.47 32.846 0.085 7.1 1.41 15.01
11/24/2022 10:00:00 AM 0.52 32.936 0.085 7.1 1.21 15.03
11/24/2022 10:15:00 AM 0.58 33.044 0.085 7.11 1.22 15.04
11/24/2022 10:30:00 AM 0.67 33.206 0.085 7.12 1.37 15.05
11/24/2022 10:45:00 AM 0.76 33.368 0.084 7.12 1.62 15.04
11/24/2022 11:00:00 AM 0.87 33.566 0.084 7.13 1.17 15.03
11/24/2022 11:15:00 AM 0.99 33.782 0.084 7.13 1.2 15.01
11/24/2022 11:30:00 AM 1.11 33.998 0.084 7.14 1.19 14.98
11/24/2022 11:45:00 AM 1.26 34.268 0.084 7.15 1.24 14.94
11/24/2022 12:00:00 PM 1.42 34.556 0.084 7.15 1.18 14.9
11/24/2022 12:15:00 PM 1.56 34.808 0.084 7.15 1.14 14.85
11/24/2022 12:30:00 PM 1.69 35.042 0.083 7.15 1.15 14.78
11/24/2022 12:45:00 PM 1.85 35.33 0.084 7.16 1.19 14.72
11/24/2022 1:00:00 PM 2 35.6 0.083 7.16 1.17 14.66
11/24/2022 1:15:00 PM 2.15 35.87 0.083 7.16 1.15 14.6
11/24/2022 1:30:00 PM 2.31 36.158 0.083 7.17 1.14 14.54
11/24/2022 1:45:00 PM 2.46 36.428 0.083 7.18 1.15 14.47
11/24/2022 2:00:00 PM 2.61 36.698 0.083 7.18 1.16 14.41
11/24/2022 2:15:00 PM 2.73 36.914 0.084 7.18 1.19 14.35
11/24/2022 2:30:00 PM 2.83 37.094 0.083 7.19 1.17 14.31
11/24/2022 2:45:00 PM 2.9 37.22 0.084 7.19 1.19 14.26
11/24/2022 3:00:00 PM 2.97 37.346 0.084 7.19 1.2 14.22
11/24/2022 3:15:00 PM 3.02 37.436 0.084 7.19 1.14 14.18
11/24/2022 3:30:00 PM 3.05 37.49 0.083 7.19 1.19 14.15
11/24/2022 3:45:00 PM 3.09 37.562 0.083 7.19 1.19 14.13
11/24/2022 4:00:00 PM 3.11 37.598 0.083 7.19 1.13 14.09
11/24/2022 4:15:00 PM 3.12 37.616 0.083 7.19 1.21 14.05
11/24/2022 4:30:00 PM 3.11 37.598 0.083 7.18 1.15 14.03
11/24/2022 4:45:00 PM 3.11 37.598 0.084 7.18 1.21 14.01
11/24/2022 5:00:00 PM 3.11 37.598 0.084 7.18 1.29 13.98
11/24/2022 5:15:00 PM 3.09 37.562 0.083 7.18 1.21 13.95
11/24/2022 5:30:00 PM 3.07 37.526 0.084 7.17 1.2 13.9
11/24/2022 5:45:00 PM 3.03 37.454 0.083 7.16 1.21 13.86
11/24/2022 6:00:00 PM 2.99 37.382 0.084 7.15 1.26 13.81
11/24/2022 6:15:00 PM 2.95 37.31 0.084 7.14 1.23 13.78
11/24/2022 6:30:00 PM 2.91 37.238 0.084 7.14 1.33 13.77
11/24/2022 6:45:00 PM 2.88 37.184 0.084 7.13 1.26 13.75
11/24/2022 7:00:00 PM 2.85 37.13 0.084 7.13 1.3 13.74
11/24/2022 7:15:00 PM 2.83 37.094 0.084 7.12 1.3 13.74
11/24/2022 7:30:00 PM 2.81 37.058 0.084 7.11 1.28 13.74
11/24/2022 7:45:00 PM 2.79 37.022 0.084 7.11 1.36 13.74
11/24/2022 8:00:00 PM 2.77 36.986 0.084 7.11 1.25 13.74
11/24/2022 8:15:00 PM 2.74 36.932 0.085 7.1 1.32 13.75
11/24/2022 8:30:00 PM 2.72 36.896 0.085 7.1 1.27 13.76
11/24/2022 8:45:00 PM 2.7 36.86 0.084 7.1 1.45 13.76
11/24/2022 9:00:00 PM 2.68 36.824 0.084 7.1 1.34 13.77
11/24/2022 9:15:00 PM 2.66 36.788 0.084 7.1 1.28 13.79
11/24/2022 9:30:00 PM 2.65 36.77 0.084 7.1 1.28 13.78
11/24/2022 9:45:00 PM 2.63 36.734 0.084 7.09 1.27 13.79
11/24/2022 10:00:00 PM 2.62 36.716 0.085 7.09 1.73 13.81
11/24/2022 10:15:00 PM 2.6 36.68 0.084 7.09 1.3 13.81
11/24/2022 10:30:00 PM 2.59 36.662 0.084 7.09 1.28 13.82
11/24/2022 10:45:00 PM 2.57 36.626 0.084 7.09 1.25 13.83
11/24/2022 11:00:00 PM 2.55 36.59 0.084 7.09 1.27 13.82
11/24/2022 11:15:00 PM 2.54 36.572 0.084 7.09 1.34 13.83
11/24/2022 11:30:00 PM 2.54 36.572 0.084 7.09 1.27 13.84
11/24/2022 11:45:00 PM 2.54 36.572 0.085 7.09 1.28 13.84
11/25/2022 12:00:00 AM 2.53 36.554 0.085 7.09 1.25 13.84
11/25/2022 12:15:00 AM 2.53 36.554 0.084 7.08 1.35 13.83
11/25/2022 12:30:00 AM 2.53 36.554 0.084 7.08 1.25 13.83
11/25/2022 12:45:00 AM 2.54 36.572 0.084 7.08 1.21 13.83
11/25/2022 1:00:00 AM 2.53 36.554 0.084 7.08 1.28 13.84
11/25/2022 1:15:00 AM 2.53 36.554 0.084 7.08 1.22 13.83
11/25/2022 1:30:00 AM 2.54 36.572 0.084 7.08 1.21 13.83
11/25/2022 1:45:00 AM 2.54 36.572 0.084 7.08 1.23 13.83
11/25/2022 2:00:00 AM 2.55 36.59 0.084 7.08 1.2 13.83
11/25/2022 2:15:00 AM 2.56 36.608 0.084 7.08 1.25 13.81
11/25/2022 2:30:00 AM 2.57 36.626 0.084 7.08 1.24 13.81
11/25/2022 2:45:00 AM 2.58 36.644 0.084 7.08 1.24 13.8
11/25/2022 3:00:00 AM 2.59 36.662 0.084 7.08 1.3 13.8
11/25/2022 3:15:00 AM 2.61 36.698 0.084 7.08 1.27 13.79
11/25/2022 3:30:00 AM 2.63 36.734 0.084 7.08 1.24 13.78
11/25/2022 3:45:00 AM 2.65 36.77 0.085 7.08 1.28 13.77
11/25/2022 4:00:00 AM 2.67 36.806 0.085 7.08 1.32 13.76
11/25/2022 4:15:00 AM 2.68 36.824 0.084 7.08 1.29 13.74
11/25/2022 4:30:00 AM 2.7 36.86 0.084 7.08 1.25 13.74
11/25/2022 4:45:00 AM 2.72 36.896 0.085 7.08 1.26 13.73
11/25/2022 5:00:00 AM 2.74 36.932 0.084 7.08 1.31 13.71
11/25/2022 5:15:00 AM 2.76 36.968 0.085 7.08 1.33 13.7
11/25/2022 5:30:00 AM 2.78 37.004 0.084 7.08 1.24 13.68
11/25/2022 5:45:00 AM 2.8 37.04 0.084 7.08 1.3 13.67
11/25/2022 6:00:00 AM 2.82 37.076 0.085 7.08 1.3 13.66
11/25/2022 6:15:00 AM 2.85 37.13 0.084 7.08 1.27 13.65
11/25/2022 6:30:00 AM 2.86 37.148 0.083 7.08 1.39 13.64
11/25/2022 6:45:00 AM 2.89 37.202 0.084 7.08 1.34 13.62
11/25/2022 7:00:00 AM 2.91 37.238 0.083 7.07 1.32 13.61
11/25/2022 7:15:00 AM 2.94 37.292 0.083 7.08 1.32 13.6
11/25/2022 7:30:00 AM 2.97 37.346 0.084 7.07 1.34 13.59
11/25/2022 7:45:00 AM 2.99 37.382 0.084 7.08 1.35 13.57
11/25/2022 8:00:00 AM 3.03 37.454 0.083 7.08 1.38 13.56
11/25/2022 8:15:00 AM 3.07 37.526 0.084 7.08 1.31 13.55
11/25/2022 8:30:00 AM 3.11 37.598 0.084 7.08 1.33 13.54
11/25/2022 8:45:00 AM 3.17 37.706 0.085 7.09 1.39 13.55
11/25/2022 9:00:00 AM 3.23 37.814 0.084 7.1 1.31 13.59
11/25/2022 9:15:00 AM 3.3 37.94 0.084 7.11 1.35 13.61
11/25/2022 9:30:00 AM 3.36 38.048 0.083 7.11 1.47 13.59
11/25/2022 9:45:00 AM 3.42 38.156 0.085 7.12 1.39 13.59
11/25/2022 10:00:00 AM 3.49 38.282 0.084 7.13 1.31 13.62
11/25/2022 10:15:00 AM 3.56 38.408 0.083 7.14 1.32 13.64
11/25/2022 10:30:00 AM 3.61 38.498 0.084 7.14 1.3 13.61
11/25/2022 10:45:00 AM 3.66 38.588 0.084 7.14 1.35 13.58
11/25/2022 11:00:00 AM 3.72 38.696 0.084 7.15 1.37 13.58
11/25/2022 11:15:00 AM 3.82 38.876 0.084 7.16 1.32 13.62
11/25/2022 11:30:00 AM 3.91 39.038 0.084 7.17 1.46 13.63
11/25/2022 11:45:00 AM 3.98 39.164 0.084 7.18 1.45 13.61
11/25/2022 12:00:00 PM 4.07 39.326 0.084 7.18 1.43 13.6
11/25/2022 12:15:00 PM 4.15 39.47 0.082 7.18 1.4 13.59
11/25/2022 12:30:00 PM 4.24 39.632 0.084 7.19 1.37 13.58
11/25/2022 12:45:00 PM 4.28 39.704 0.083 7.19 1.41 13.53
11/25/2022 1:00:00 PM 4.33 39.794 0.083 7.19 1.39 13.51
11/25/2022 1:15:00 PM 4.42 39.956 0.082 7.19 1.42 13.52
11/25/2022 1:30:00 PM 4.5 40.1 0.084 7.19 1.62 13.51
11/25/2022 1:45:00 PM 4.55 40.19 0.084 7.21 1.95 13.5
11/25/2022 2:00:00 PM 4.6 40.28 0.083 7.21 1.95 13.47
11/25/2022 2:15:00 PM 4.66 40.388 0.083 7.21 1.79 13.46
11/25/2022 2:30:00 PM 4.71 40.478 0.084 7.21 1.6 13.45
11/25/2022 2:45:00 PM 4.75 40.55 0.084 7.21 1.54 13.44
11/25/2022 3:00:00 PM 4.75 40.55 0.083 7.21 1.5 13.42
11/25/2022 3:15:00 PM 4.76 40.568 0.082 7.21 1.5 13.43
11/25/2022 3:30:00 PM 4.8 40.64 0.084 7.21 1.45 13.38
11/25/2022 3:45:00 PM 4.78 40.604 0.084 7.21 1.56 13.36
11/25/2022 4:00:00 PM 4.76 40.568 0.084 7.2 1.48 13.3
11/25/2022 4:15:00 PM 4.74 40.532 0.084 7.2 1.51 13.31
11/25/2022 4:30:00 PM 4.72 40.496 0.084 7.19 1.47 13.31
11/25/2022 4:45:00 PM 4.69 40.442 0.084 7.19 1.49 13.27
11/25/2022 5:00:00 PM 4.66 40.388 0.084 7.18 1.49 13.25
11/25/2022 5:15:00 PM 4.63 40.334 0.085 7.17 1.5 13.2
11/25/2022 5:30:00 PM 4.61 40.298 0.084 7.16 1.47 13.16
11/25/2022 5:45:00 PM 4.58 40.244 0.085 7.15 1.64 13.12
11/25/2022 6:00:00 PM 4.55 40.19 0.085 7.14 1.6 13.1
11/25/2022 6:15:00 PM 4.52 40.136 0.085 7.14 1.56 13.09
11/25/2022 6:30:00 PM 4.49 40.082 0.086 7.13 1.68 13.09
11/25/2022 6:45:00 PM 4.47 40.046 0.086 7.13 1.79 13.08
11/25/2022 7:00:00 PM 4.44 39.992 0.086 7.12 1.61 13.09
11/25/2022 7:15:00 PM 4.41 39.938 0.086 7.12 1.6 13.09
11/25/2022 7:30:00 PM 4.39 39.902 0.086 7.12 1.67 13.1
11/25/2022 7:45:00 PM 4.37 39.866 0.086 7.12 1.63 13.11
11/25/2022 8:00:00 PM 4.34 39.812 0.087 7.11 1.63 13.12
11/25/2022 8:15:00 PM 4.32 39.776 0.087 7.11 1.69 13.13
11/25/2022 8:30:00 PM 4.29 39.722 0.087 7.11 1.61 13.14
11/25/2022 8:45:00 PM 4.26 39.668 0.087 7.11 1.64 13.15
11/25/2022 9:00:00 PM 4.24 39.632 0.088 7.11 1.64 13.15
11/25/2022 9:15:00 PM 4.21 39.578 0.087 7.11 1.66 13.18
11/25/2022 9:30:00 PM 4.18 39.524 0.087 7.11 1.68 13.18
11/25/2022 9:45:00 PM 4.16 39.488 0.087 7.11 1.7 13.19
11/25/2022 10:00:00 PM 4.13 39.434 0.087 7.11 1.74 13.21
11/25/2022 10:15:00 PM 4.11 39.398 0.087 7.11 1.64 13.22
11/25/2022 10:30:00 PM 4.09 39.362 0.087 7.11 1.67 13.21
11/25/2022 10:45:00 PM 4.06 39.308 0.087 7.11 1.65 13.22
11/25/2022 11:00:00 PM 4.03 39.254 0.087 7.1 1.56 13.25
11/25/2022 11:15:00 PM 4.02 39.236 0.087 7.1 1.58 13.24
11/25/2022 11:30:00 PM 4.01 39.218 0.086 7.1 1.61 13.26
11/25/2022 11:45:00 PM 3.99 39.182 0.087 7.1 1.57 13.26
11/26/2022 12:00:00 AM 3.98 39.164 0.087 7.1 1.55 13.26
11/26/2022 12:15:00 AM 3.97 39.146 0.087 7.1 1.6 13.26
11/26/2022 12:30:00 AM 3.96 39.128 0.087 7.1 1.57 13.27
11/26/2022 12:45:00 AM 3.95 39.11 0.087 7.1 1.58 13.28
11/26/2022 1:00:00 AM 3.94 39.092 0.087 7.1 1.57 13.28
11/26/2022 1:15:00 AM 3.93 39.074 0.087 7.1 1.57 13.29
11/26/2022 1:30:00 AM 3.91 39.038 0.086 7.09 1.63 13.29
11/26/2022 1:45:00 AM 3.91 39.038 0.087 7.1 1.55 13.3
11/26/2022 2:00:00 AM 3.9 39.02 0.087 7.09 1.56 13.31
11/26/2022 2:15:00 AM 3.89 39.002 0.087 7.09 1.58 13.31
11/26/2022 2:30:00 AM 3.87 38.966 0.087 7.09 1.51 13.32
11/26/2022 2:45:00 AM 3.86 38.948 0.087 7.09 1.52 13.32
11/26/2022 3:00:00 AM 3.84 38.912 0.087 7.09 1.55 13.32
11/26/2022 3:15:00 AM 3.82 38.876 0.087 7.09 1.53 13.34
11/26/2022 3:30:00 AM 3.8 38.84 0.087 7.09 1.56 13.34
11/26/2022 3:45:00 AM 3.79 38.822 0.087 7.09 1.52 13.34
11/26/2022 4:00:00 AM 3.78 38.804 0.087 7.09 1.47 13.35
11/26/2022 4:15:00 AM 3.77 38.786 0.086 7.09 1.48 13.35
11/26/2022 4:30:00 AM 3.75 38.75 0.087 7.09 1.49 13.36
11/26/2022 4:45:00 AM 3.74 38.732 0.087 7.09 1.46 13.36
11/26/2022 5:00:00 AM 3.72 38.696 0.087 7.08 1.45 13.37
11/26/2022 5:15:00 AM 3.69 38.642 0.086 7.08 1.47 13.38
11/26/2022 5:30:00 AM 3.68 38.624 0.087 7.08 1.51 13.39
11/26/2022 5:45:00 AM 3.65 38.57 0.087 7.08 1.51 13.39
11/26/2022 6:00:00 AM 3.6 38.48 0.087 7.08 1.83 13.39
11/26/2022 6:15:00 AM 3.55 38.39 0.086 7.08 2.31 13.42
11/26/2022 6:30:00 AM 3.49 38.282 0.087 7.08 1.7 13.43
11/26/2022 6:45:00 AM 3.44 38.192 0.086 7.08 1.54 13.44
11/26/2022 7:00:00 AM 3.38 38.084 0.086 7.08 1.5 13.46
11/26/2022 7:15:00 AM 3.32 37.976 0.086 7.08 1.42 13.49
11/26/2022 7:30:00 AM 3.27 37.886 0.086 7.08 1.47 13.5
11/26/2022 7:45:00 AM 3.22 37.796 0.087 7.08 1.4 13.53
11/26/2022 8:00:00 AM 3.18 37.724 0.086 7.08 1.36 13.54
11/26/2022 8:15:00 AM 3.13 37.634 0.086 7.08 1.44 13.56
11/26/2022 8:30:00 AM 3.09 37.562 0.086 7.08 1.39 13.6
11/26/2022 8:45:00 AM 3.05 37.49 0.087 7.09 1.4 13.65
11/26/2022 9:00:00 AM 3.02 37.436 0.086 7.09 1.36 13.69
11/26/2022 9:15:00 AM 3.01 37.418 0.087 7.1 1.38 13.75
11/26/2022 9:30:00 AM 3 37.4 0.086 7.11 1.4 13.8
11/26/2022 9:45:00 AM 3.01 37.418 0.086 7.11 1.36 13.84
11/26/2022 10:00:00 AM 3.03 37.454 0.087 7.12 1.41 13.88
11/26/2022 10:15:00 AM 3.06 37.508 0.085 7.13 1.33 13.9
11/26/2022 10:30:00 AM 3.11 37.598 0.086 7.14 1.32 13.93
11/26/2022 10:45:00 AM 3.17 37.706 0.086 7.15 1.38 13.94
11/26/2022 11:00:00 AM 3.24 37.832 0.086 7.15 1.33 13.95
11/26/2022 11:15:00 AM 3.32 37.976 0.086 7.16 1.36 13.94
11/26/2022 11:30:00 AM 3.4 38.12 0.086 7.17 1.39 13.94
11/26/2022 11:45:00 AM 3.5 38.3 0.086 7.17 1.31 13.92
11/26/2022 12:00:00 PM 3.6 38.48 0.086 7.17 1.32 13.91
11/26/2022 12:15:00 PM 3.71 38.678 0.085 7.18 1.33 13.88
11/26/2022 12:30:00 PM 3.82 38.876 0.085 7.19 1.29 13.87
11/26/2022 12:45:00 PM 3.93 39.074 0.085 7.19 1.34 13.83
11/26/2022 1:00:00 PM 4.03 39.254 0.085 7.19 1.31 13.79
11/26/2022 1:15:00 PM 4.15 39.47 0.085 7.2 1.39 13.75
11/26/2022 1:30:00 PM 4.26 39.668 0.085 7.2 1.34 13.72
11/26/2022 1:45:00 PM 4.36 39.848 0.086 7.2 1.34 13.68
11/26/2022 2:00:00 PM 4.46 40.028 0.086 7.2 1.34 13.64
11/26/2022 2:15:00 PM 4.55 40.19 0.086 7.21 1.36 13.61
11/26/2022 2:30:00 PM 4.61 40.298 0.086 7.2 1.26 13.58
11/26/2022 2:45:00 PM 4.66 40.388 0.085 7.2 1.33 13.55
11/26/2022 3:00:00 PM 4.7 40.46 0.085 7.21 1.33 13.51
11/26/2022 3:15:00 PM 4.74 40.532 0.085 7.2 1.35 13.49
11/26/2022 3:30:00 PM 4.76 40.568 0.086 7.2 1.36 13.46
11/26/2022 3:45:00 PM 4.77 40.586 0.085 7.2 1.34 13.43
11/26/2022 4:00:00 PM 4.77 40.586 0.085 7.2 1.34 13.4
11/26/2022 4:15:00 PM 4.77 40.586 0.085 7.2 1.32 13.36
11/26/2022 4:30:00 PM 4.76 40.568 0.086 7.19 1.35 13.33
11/26/2022 4:45:00 PM 4.74 40.532 0.086 7.19 1.36 13.3
11/26/2022 5:00:00 PM 4.71 40.478 0.086 7.18 1.39 13.27
11/26/2022 5:15:00 PM 4.67 40.406 0.086 7.17 1.4 13.23
11/26/2022 5:30:00 PM 4.62 40.316 0.085 7.16 1.38 13.2
11/26/2022 5:45:00 PM 4.57 40.226 0.086 7.15 1.41 13.17
11/26/2022 6:00:00 PM 4.51 40.118 0.086 7.14 1.37 13.14
11/26/2022 6:15:00 PM 4.46 40.028 0.086 7.13 1.4 13.12
11/26/2022 6:30:00 PM 4.41 39.938 0.086 7.12 1.53 13.11
11/26/2022 6:45:00 PM 4.36 39.848 0.086 7.12 1.51 13.11
11/26/2022 7:00:00 PM 4.31 39.758 0.087 7.11 1.38 13.1
11/26/2022 7:15:00 PM 4.27 39.686 0.087 7.11 1.38 13.11
11/26/2022 7:30:00 PM 4.22 39.596 0.086 7.1 1.42 13.12
11/26/2022 7:45:00 PM 4.17 39.506 0.087 7.1 1.38 13.13
11/26/2022 8:00:00 PM 4.12 39.416 0.086 7.1 1.36 13.16
11/26/2022 8:15:00 PM 4.06 39.308 0.087 7.09 1.49 13.16
11/26/2022 8:30:00 PM 4 39.2 0.086 7.09 1.41 13.19
11/26/2022 8:45:00 PM 3.94 39.092 0.086 7.09 1.39 13.2
11/26/2022 9:00:00 PM 3.87 38.966 0.086 7.08 1.37 13.24
11/26/2022 9:15:00 PM 3.8 38.84 0.087 7.08 1.39 13.26
11/26/2022 9:30:00 PM 3.73 38.714 0.087 7.08 1.47 13.28
11/26/2022 9:45:00 PM 3.65 38.57 0.086 7.08 1.39 13.31
11/26/2022 10:00:00 PM 3.58 38.444 0.087 7.08 1.43 13.34
11/26/2022 10:15:00 PM 3.51 38.318 0.087 7.08 1.45 13.37
11/26/2022 10:30:00 PM 3.44 38.192 0.087 7.08 1.44 13.39
11/26/2022 10:45:00 PM 3.37 38.066 0.087 7.08 1.37 13.41
11/26/2022 11:00:00 PM 3.3 37.94 0.086 7.08 1.38 13.44
11/26/2022 11:15:00 PM 3.24 37.832 0.087 7.07 1.44 13.47
11/26/2022 11:30:00 PM 3.18 37.724 0.087 7.07 1.41 13.48
11/26/2022 11:45:00 PM 3.12 37.616 0.087 7.07 1.37 13.51
11/27/2022 12:00:00 AM 3.06 37.508 0.087 7.07 1.36 13.53
11/27/2022 12:15:00 AM 3.01 37.418 0.087 7.07 1.39 13.54
11/27/2022 12:30:00 AM 2.96 37.328 0.087 7.07 1.35 13.56
11/27/2022 12:45:00 AM 2.92 37.256 0.087 7.07 1.44 13.59
11/27/2022 1:00:00 AM 2.87 37.166 0.087 7.07 1.36 13.6
11/27/2022 1:15:00 AM 2.84 37.112 0.087 7.07 1.37 13.62
11/27/2022 1:30:00 AM 2.8 37.04 0.087 7.07 1.39 13.63
11/27/2022 1:45:00 AM 2.78 37.004 0.087 7.07 1.43 13.64
11/27/2022 2:00:00 AM 2.75 36.95 0.087 7.07 1.41 13.65
11/27/2022 2:15:00 AM 2.72 36.896 0.087 7.07 1.46 13.67
11/27/2022 2:30:00 AM 2.7 36.86 0.087 7.06 1.5 13.67
11/27/2022 2:45:00 AM 2.68 36.824 0.088 7.06 1.39 13.67
11/27/2022 3:00:00 AM 2.67 36.806 0.087 7.06 1.42 13.68
11/27/2022 3:15:00 AM 2.65 36.77 0.086 7.07 1.38 13.68
11/27/2022 3:30:00 AM 2.64 36.752 0.086 7.06 1.39 13.69
11/27/2022 3:45:00 AM 2.62 36.716 0.087 7.06 1.34 13.69
11/27/2022 4:00:00 AM 2.61 36.698 0.086 7.06 1.34 13.7
11/27/2022 4:15:00 AM 2.61 36.698 0.086 7.06 1.31 13.71
11/27/2022 4:30:00 AM 2.61 36.698 0.087 7.06 1.72 13.71
11/27/2022 4:45:00 AM 2.61 36.698 0.087 7.06 1.51 13.72
11/27/2022 5:00:00 AM 2.61 36.698 0.087 7.07 1.38 13.71
11/27/2022 5:15:00 AM 2.61 36.698 0.086 7.07 1.4 13.71
11/27/2022 5:30:00 AM 2.61 36.698 0.086 7.07 1.36 13.7
11/27/2022 5:45:00 AM 2.61 36.698 0.087 7.07 1.37 13.7
11/27/2022 6:00:00 AM 2.62 36.716 0.086 7.07 1.34 13.7
11/27/2022 6:15:00 AM 2.62 36.716 0.086 7.07 1.33 13.69
11/27/2022 6:30:00 AM 2.63 36.734 0.086 7.07 1.33 13.69
11/27/2022 6:45:00 AM 2.63 36.734 0.086 7.07 1.36 13.69
11/27/2022 7:00:00 AM 2.64 36.752 0.087 7.07 1.36 13.68
11/27/2022 7:15:00 AM 2.65 36.77 0.086 7.07 1.33 13.67
11/27/2022 7:30:00 AM 2.66 36.788 0.086 7.07 1.32 13.68
11/27/2022 7:45:00 AM 2.67 36.806 0.086 7.07 1.33 13.67
11/27/2022 8:00:00 AM 2.68 36.824 0.086 7.07 1.34 13.65
11/27/2022 8:15:00 AM 2.7 36.86 0.087 7.07 1.41 13.65
11/27/2022 8:30:00 AM 2.72 36.896 0.087 7.07 1.35 13.65
11/27/2022 8:45:00 AM 2.75 36.95 0.087 7.08 1.3 13.67
11/27/2022 9:00:00 AM 2.78 37.004 0.087 7.08 1.33 13.67
11/27/2022 9:15:00 AM 2.81 37.058 0.086 7.08 1.3 13.67
11/27/2022 9:30:00 AM 2.85 37.13 0.086 7.09 1.31 13.71
11/27/2022 9:45:00 AM 2.91 37.238 0.086 7.11 1.3 13.77
11/27/2022 10:00:00 AM 2.95 37.31 0.087 7.12 1.28 13.78
11/27/2022 10:15:00 AM 3.02 37.436 0.086 7.13 1.33 13.8
11/27/2022 10:30:00 AM 3.07 37.526 0.086 7.14 1.33 13.81
11/27/2022 10:45:00 AM 3.12 37.616 0.086 7.15 1.24 13.81
11/27/2022 11:00:00 AM 3.15 37.67 0.086 7.14 1.29 13.78
11/27/2022 11:15:00 AM 3.18 37.724 0.086 7.14 1.37 13.75
11/27/2022 11:30:00 AM 3.22 37.796 0.085 7.14 1.35 13.73
11/27/2022 11:45:00 AM 3.29 37.922 0.085 7.15 1.34 13.76
11/27/2022 12:00:00 PM 3.37 38.066 0.085 7.16 1.38 13.8
11/27/2022 12:15:00 PM 3.44 38.192 0.085 7.16 1.28 13.77
11/27/2022 12:30:00 PM 3.47 38.246 0.085 7.16 1.3 13.71
11/27/2022 12:45:00 PM 3.57 38.426 0.084 7.16 1.42 13.7
11/27/2022 1:00:00 PM 3.66 38.588 0.084 7.17 1.71 13.7
11/27/2022 1:15:00 PM 3.71 38.678 0.085 7.17 2.02 13.64
11/27/2022 1:30:00 PM 3.75 38.75 0.085 7.17 1.84 13.58
11/27/2022 1:45:00 PM 3.81 38.858 0.084 7.16 1.68 13.55
11/27/2022 2:00:00 PM 3.86 38.948 0.085 7.16 1.48 13.52
11/27/2022 2:15:00 PM 3.93 39.074 0.084 7.16 1.72 13.49
11/27/2022 2:30:00 PM 3.98 39.164 0.084 7.16 2.01 13.45
11/27/2022 2:45:00 PM 4.02 39.236 0.083 7.15 1.87 13.4
11/27/2022 3:00:00 PM 4.05 39.29 0.083 7.14 1.75 13.33
11/27/2022 3:15:00 PM 4.09 39.362 0.084 7.13 2.02 13.27
11/27/2022 3:30:00 PM 4.13 39.434 0.084 7.12 2.4 13.26
11/27/2022 3:45:00 PM 4.17 39.506 0.083 7.12 2.56 13.26
11/27/2022 4:00:00 PM 4.22 39.596 0.084 7.12 3.01 13.22
11/27/2022 4:15:00 PM 4.25 39.65 0.084 7.11 2.67 13.17
11/27/2022 4:30:00 PM 4.3 39.74 0.084 7.11 2.3 13.12
11/27/2022 4:45:00 PM 4.33 39.794 0.085 7.09 2.03 13.06
11/27/2022 5:00:00 PM 4.35 39.83 0.085 7.08 2.16 12.99
11/27/2022 5:15:00 PM 4.38 39.884 0.086 7.08 2.18 12.95
11/27/2022 5:30:00 PM 4.4 39.92 0.087 7.07 2.27 12.92
11/27/2022 5:45:00 PM 4.43 39.974 0.088 7.06 2.39 12.89
11/27/2022 6:00:00 PM 4.46 40.028 0.089 7.06 2.47 12.85
11/27/2022 6:15:00 PM 4.49 40.082 0.09 7.07 2.83 12.84
11/27/2022 6:30:00 PM 4.52 40.136 0.09 7.06 2.99 12.82
11/27/2022 6:45:00 PM 4.55 40.19 0.09 7.06 3.25 12.81
11/27/2022 7:00:00 PM 4.57 40.226 0.089 7.04 3.58 12.79
11/27/2022 7:15:00 PM 4.58 40.244 0.089 7.03 3.74 12.78
11/27/2022 7:30:00 PM 4.58 40.244 0.09 7.02 4.55 12.75
11/27/2022 7:45:00 PM 4.59 40.262 0.09 7.01 5.02 12.74
11/27/2022 8:00:00 PM 4.6 40.28 0.09 7 5.55 12.73
11/27/2022 8:15:00 PM 4.63 40.334 0.09 7.01 5.47 12.71
11/27/2022 8:30:00 PM 4.67 40.406 0.091 7 5.13 12.7
11/27/2022 8:45:00 PM 4.7 40.46 0.092 7.01 5.75 12.69
11/27/2022 9:00:00 PM 4.73 40.514 0.094 7.01 5.45 12.68
11/27/2022 9:15:00 PM 4.76 40.568 0.095 7.01 5.26 12.67
11/27/2022 9:30:00 PM 4.77 40.586 0.097 7.01 6.12 12.67
11/27/2022 9:45:00 PM 4.79 40.622 0.097 7.02 5.36 12.66
11/27/2022 10:00:00 PM 4.82 40.676 0.097 7.02 5.34 12.67
11/27/2022 10:15:00 PM 4.85 40.73 0.096 7.02 5.27 12.66
11/27/2022 10:30:00 PM 4.89 40.802 0.095 7.03 5.11 12.65
11/27/2022 10:45:00 PM 4.94 40.892 0.095 7.03 4.99 12.64
11/27/2022 11:00:00 PM 4.99 40.982 0.095 7.03 5.1 12.63
11/27/2022 11:15:00 PM 5.04 41.072 0.095 7.03 5.24 12.62
11/27/2022 11:30:00 PM 5.08 41.144 0.094 7.03 5.43 12.6
11/27/2022 11:45:00 PM 5.13 41.234 0.094 7.03 5.79 12.59
11/28/2022 12:00:00 AM 5.18 41.324 0.094 7.04 5.49 12.58
11/28/2022 12:15:00 AM 5.23 41.414 0.094 7.04 5.8 12.56
11/28/2022 12:30:00 AM 5.27 41.486 0.093 7.04 5.63 12.55
11/28/2022 12:45:00 AM 5.3 41.54 0.093 7.04 5.08 12.55
11/28/2022 1:00:00 AM 5.34 41.612 0.093 7.04 4.81 12.54
11/28/2022 1:15:00 AM 5.37 41.666 0.093 7.04 4.73 12.53
11/28/2022 1:30:00 AM 5.41 41.738 0.094 7.04 4.74 12.52
11/28/2022 1:45:00 AM 5.45 41.81 0.094 7.04 4.48 12.51
11/28/2022 2:00:00 AM 5.49 41.882 0.094 7.04 4.32 12.5
11/28/2022 2:15:00 AM 5.52 41.936 0.094 7.04 4.19 12.49
11/28/2022 2:30:00 AM 5.54 41.972 0.094 7.04 4.13 12.48
11/28/2022 2:45:00 AM 5.56 42.008 0.095 7.04 4.15 12.48
11/28/2022 3:00:00 AM 5.58 42.044 0.095 7.04 3.72 12.48
11/28/2022 3:15:00 AM 5.59 42.062 0.095 7.04 3.88 12.48
11/28/2022 3:30:00 AM 5.59 42.062 0.095 7.03 3.75 12.48
11/28/2022 3:45:00 AM 5.58 42.044 0.096 7.04 3.82 12.48
11/28/2022 4:00:00 AM 5.58 42.044 0.097 7.04 3.54 12.49
11/28/2022 4:15:00 AM 5.56 42.008 0.097 7.04 3.35 12.49
11/28/2022 4:30:00 AM 5.55 41.99 0.098 7.03 3.4 12.5
11/28/2022 4:45:00 AM 5.54 41.972 0.098 7.04 3.41 12.51
11/28/2022 5:00:00 AM 5.53 41.954 0.1 7.04 3.47 12.52
11/28/2022 5:15:00 AM 5.5 41.9 0.1 7.04 3.18 12.53
11/28/2022 5:30:00 AM 5.48 41.864 0.101 7.04 3.32 12.54
11/28/2022 5:45:00 AM 5.46 41.828 0.102 7.04 3.36 12.56
11/28/2022 6:00:00 AM 5.44 41.792 0.103 7.04 3.41 12.56
11/28/2022 6:15:00 AM 5.43 41.774 0.103 7.04 3.37 12.57
11/28/2022 6:30:00 AM 5.41 41.738 0.104 7.04 3.35 12.58
11/28/2022 6:45:00 AM 5.4 41.72 0.104 7.04 3.26 12.59
11/28/2022 7:00:00 AM 5.38 41.684 0.105 7.04 3.25 12.6
11/28/2022 7:15:00 AM 5.37 41.666 0.105 7.05 3.25 12.61
11/28/2022 7:30:00 AM 5.35 41.63 0.106 7.05 2.98 12.62
11/28/2022 7:45:00 AM 5.33 41.594 0.107 7.05 3.16 12.63
11/28/2022 8:00:00 AM 5.31 41.558 0.107 7.05 3.18 12.64
11/28/2022 8:15:00 AM 5.29 41.522 0.107 7.05 3.06 12.65
11/28/2022 8:30:00 AM 5.28 41.504 0.107 7.05 2.89 12.66
11/28/2022 8:45:00 AM 5.27 41.486 0.106 7.05 2.94 12.67
11/28/2022 9:00:00 AM 5.27 41.486 0.106 7.06 3.37 12.69
11/28/2022 9:15:00 AM 5.26 41.468 0.106 7.06 2.75 12.71
11/28/2022 9:30:00 AM 5.25 41.45 0.106 7.06 2.78 12.72
11/28/2022 9:45:00 AM 5.25 41.45 0.106 7.06 2.84 12.74
11/28/2022 10:00:00 AM 5.25 41.45 0.106 7.07 2.69 12.77
11/28/2022 10:15:00 AM 5.25 41.45 0.107 7.07 2.59 12.78
11/28/2022 10:30:00 AM 5.25 41.45 0.106 7.08 2.61 12.8
11/28/2022 10:45:00 AM 5.26 41.468 0.105 7.08 2.39 12.86
11/28/2022 11:00:00 AM 5.28 41.504 0.105 7.09 2.5 12.91
11/28/2022 11:15:00 AM 5.32 41.576 0.105 7.11 2.48 12.98
11/28/2022 11:30:00 AM 5.37 41.666 0.104 7.12 2.32 13.03
11/28/2022 11:45:00 AM 5.45 41.81 0.104 7.13 2.36 13.05
11/28/2022 12:00:00 PM 5.53 41.954 0.104 7.15 2.42 13.08
11/28/2022 12:15:00 PM 5.56 42.008 0.103 7.15 2.42 13.06
11/28/2022 12:30:00 PM 5.57 42.026 0.104 7.15 2.28 13.04
11/28/2022 12:45:00 PM 5.58 42.044 0.103 7.15 2.33 13.03
11/28/2022 1:00:00 PM 5.56 42.008 0.102 7.16 2.33 13.01
11/28/2022 1:15:00 PM 5.54 41.972 0.102 7.15 2.38 13.01
11/28/2022 1:30:00 PM 5.58 42.044 0.102 7.16 2.24 13.03
11/28/2022 1:45:00 PM 5.63 42.134 0.102 7.17 2.29 13.05
11/28/2022 2:00:00 PM 5.63 42.134 0.102 7.16 2.14 13
11/28/2022 2:15:00 PM 5.67 42.206 0.101 7.17 2.1 13.01
11/28/2022 2:30:00 PM 5.68 42.224 0.101 7.17 2.19 13
11/28/2022 2:45:00 PM 5.68 42.224 0.101 7.17 2.16 12.99
11/28/2022 3:00:00 PM 5.67 42.206 0.1 7.17 2.14 12.97
11/28/2022 3:15:00 PM 5.66 42.188 0.101 7.16 2.16 12.98
11/28/2022 3:30:00 PM 5.64 42.152 0.101 7.17 2.11 12.97
11/28/2022 3:45:00 PM 5.63 42.134 0.101 7.16 2.14 12.95
11/28/2022 4:00:00 PM 5.62 42.116 0.101 7.16 2.12 12.96
11/28/2022 4:15:00 PM 5.61 42.098 0.101 7.16 2.12 12.98
11/28/2022 4:30:00 PM 5.61 42.098 0.1 7.16 2.09 12.98
11/28/2022 4:45:00 PM 5.59 42.062 0.1 7.15 2.16 12.95
11/28/2022 5:00:00 PM 5.58 42.044 0.1 7.14 2.22 12.92
11/28/2022 5:15:00 PM 5.55 41.99 0.1 7.14 2.19 12.89
11/28/2022 5:30:00 PM 5.52 41.936 0.1 7.13 2.21 12.85
11/28/2022 5:45:00 PM 5.49 41.882 0.099 7.12 2.14 12.81
11/28/2022 6:00:00 PM 5.45 41.81 0.099 7.11 2.14 12.79
11/28/2022 6:15:00 PM 5.43 41.774 0.099 7.1 2.23 12.78
11/28/2022 6:30:00 PM 5.4 41.72 0.098 7.09 2.22 12.77
11/28/2022 6:45:00 PM 5.37 41.666 0.098 7.09 2.13 12.77
11/28/2022 7:00:00 PM 5.35 41.63 0.098 7.09 2.12 12.78
11/28/2022 7:15:00 PM 5.33 41.594 0.097 7.08 2.2 12.79
11/28/2022 7:30:00 PM 5.3 41.54 0.097 7.08 2.2 12.78
11/28/2022 7:45:00 PM 5.28 41.504 0.097 7.08 2.24 12.8
11/28/2022 8:00:00 PM 5.25 41.45 0.097 7.08 2.2 12.79
11/28/2022 8:15:00 PM 5.23 41.414 0.097 7.08 2.08 12.8
11/28/2022 8:30:00 PM 5.21 41.378 0.097 7.08 2.05 12.82
11/28/2022 8:45:00 PM 5.19 41.342 0.096 7.08 2.05 12.83
11/28/2022 9:00:00 PM 5.17 41.306 0.096 7.08 2.21 12.84
11/28/2022 9:15:00 PM 5.15 41.27 0.096 7.08 2.07 12.85
11/28/2022 9:30:00 PM 5.13 41.234 0.096 7.07 2.06 12.86
11/28/2022 9:45:00 PM 5.11 41.198 0.096 7.08 2.08 12.86
11/28/2022 10:00:00 PM 5.08 41.144 0.095 7.07 2.05 12.87
11/28/2022 10:15:00 PM 5.05 41.09 0.095 7.07 2.08 12.89
11/28/2022 10:30:00 PM 5.02 41.036 0.095 7.07 1.99 12.89
11/28/2022 10:45:00 PM 5 41 0.095 7.07 1.98 12.91
11/28/2022 11:00:00 PM 4.97 40.946 0.094 7.07 2.04 12.92
11/28/2022 11:15:00 PM 4.96 40.928 0.094 7.07 1.96 12.93
11/28/2022 11:30:00 PM 4.94 40.892 0.094 7.07 2.08 12.94
11/28/2022 11:45:00 PM 4.91 40.838 0.094 7.07 2 12.95
11/29/2022 12:00:00 AM 4.88 40.784 0.094 7.07 2.02 12.96
11/29/2022 12:15:00 AM 4.85 40.73 0.094 7.07 1.96 12.97
11/29/2022 12:30:00 AM 4.82 40.676 0.094 7.07 1.99 12.98
11/29/2022 12:45:00 AM 4.79 40.622 0.093 7.07 2 13
11/29/2022 1:00:00 AM 4.76 40.568 0.093 7.07 1.98 13.01
11/29/2022 1:15:00 AM 4.74 40.532 0.094 7.07 2.01 13.01
11/29/2022 1:30:00 AM 4.72 40.496 0.093 7.07 1.97 13.03
11/29/2022 1:45:00 AM 4.69 40.442 0.092 7.07 1.96 13.04
11/29/2022 2:00:00 AM 4.67 40.406 0.092 7.07 1.86 13.05
11/29/2022 2:15:00 AM 4.65 40.37 0.093 7.07 1.95 13.06
11/29/2022 2:30:00 AM 4.63 40.334 0.092 7.07 1.88 13.06
11/29/2022 2:45:00 AM 4.61 40.298 0.092 7.07 1.98 13.07
11/29/2022 3:00:00 AM 4.59 40.262 0.092 7.06 1.93 13.08
11/29/2022 3:15:00 AM 4.57 40.226 0.091 7.07 1.87 13.09
11/29/2022 3:30:00 AM 4.56 40.208 0.092 7.06 2 13.1
11/29/2022 3:45:00 AM 4.54 40.172 0.091 7.07 1.95 13.1
11/29/2022 4:00:00 AM 4.53 40.154 0.091 7.07 1.86 13.11
11/29/2022 4:15:00 AM 4.51 40.118 0.092 7.06 1.85 13.11
11/29/2022 4:30:00 AM 4.5 40.1 0.09 7.06 2.01 13.12
11/29/2022 4:45:00 AM 4.49 40.082 0.092 7.06 1.94 13.12
11/29/2022 5:00:00 AM 4.49 40.082 0.091 7.06 1.87 13.13
11/29/2022 5:15:00 AM 4.48 40.064 0.091 7.06 2.03 13.14
11/29/2022 5:30:00 AM 4.46 40.028 0.091 7.06 1.96 13.14
11/29/2022 5:45:00 AM 4.46 40.028 0.091 7.06 1.95 13.15
11/29/2022 6:00:00 AM 4.45 40.01 0.091 7.06 1.92 13.15
11/29/2022 6:15:00 AM 4.44 39.992 0.09 7.06 1.89 13.16
11/29/2022 6:30:00 AM 4.44 39.992 0.09 7.06 2 13.16
11/29/2022 6:45:00 AM 4.43 39.974 0.09 7.06 1.9 13.16
11/29/2022 7:00:00 AM 4.43 39.974 0.09 7.06 1.93 13.17
11/29/2022 7:15:00 AM 4.42 39.956 0.09 7.06 1.81 13.17
11/29/2022 7:30:00 AM 4.41 39.938 0.09 7.06 1.84 13.18
11/29/2022 7:45:00 AM 4.41 39.938 0.089 7.06 1.86 13.18
11/29/2022 8:00:00 AM 4.4 39.92 0.089 7.06 1.92 13.18
11/29/2022 8:15:00 AM 4.4 39.92 0.089 7.06 1.86 13.19
11/29/2022 8:30:00 AM 4.4 39.92 0.088 7.06 1.96 13.21
11/29/2022 8:45:00 AM 4.4 39.92 0.088 7.06 1.86 13.23
11/29/2022 9:00:00 AM 4.41 39.938 0.088 7.07 1.8 13.28
11/29/2022 9:15:00 AM 4.42 39.956 0.088 7.08 1.75 13.32
11/29/2022 9:30:00 AM 4.44 39.992 0.088 7.09 1.78 13.38
11/29/2022 9:45:00 AM 4.47 40.046 0.087 7.1 1.71 13.42
11/29/2022 10:00:00 AM 4.5 40.1 0.087 7.11 1.7 13.44
11/29/2022 10:15:00 AM 4.54 40.172 0.087 7.12 1.61 13.48
11/29/2022 10:30:00 AM 4.57 40.226 0.086 7.13 1.64 13.49
11/29/2022 10:45:00 AM 4.6 40.28 0.087 7.13 1.72 13.48
11/29/2022 11:00:00 AM 4.62 40.316 0.087 7.14 1.66 13.49
11/29/2022 11:15:00 AM 4.66 40.388 0.087 7.14 1.63 13.5
11/29/2022 11:30:00 AM 4.7 40.46 0.087 7.15 1.67 13.5
11/29/2022 11:45:00 AM 4.73 40.514 0.086 7.15 1.66 13.5
11/29/2022 12:00:00 PM 4.77 40.586 0.086 7.16 1.73 13.5
11/29/2022 12:15:00 PM 4.81 40.658 0.086 7.16 1.76 13.49
11/29/2022 12:30:00 PM 4.87 40.766 0.086 7.16 1.59 13.49
11/29/2022 12:45:00 PM 4.94 40.892 0.085 7.17 1.59 13.49
11/29/2022 1:00:00 PM 5.01 41.018 0.086 7.17 1.61 13.48
11/29/2022 1:15:00 PM 5.08 41.144 0.085 7.18 1.57 13.47
11/29/2022 1:30:00 PM 5.12 41.216 0.085 7.18 1.67 13.43
11/29/2022 1:45:00 PM 5.17 41.306 0.085 7.18 1.66 13.42
11/29/2022 2:00:00 PM 5.21 41.378 0.085 7.18 1.69 13.4
11/29/2022 2:15:00 PM 5.25 41.45 0.085 7.18 1.69 13.39
11/29/2022 2:30:00 PM 5.31 41.558 0.085 7.19 1.66 13.37
11/29/2022 2:45:00 PM 5.37 41.666 0.085 7.19 1.69 13.35
11/29/2022 3:00:00 PM 5.44 41.792 0.084 7.19 1.72 13.34
11/29/2022 3:15:00 PM 5.48 41.864 0.084 7.19 1.71 13.32
11/29/2022 3:30:00 PM 5.51 41.918 0.084 7.19 1.63 13.28
11/29/2022 3:45:00 PM 5.54 41.972 0.084 7.19 1.67 13.26
11/29/2022 4:00:00 PM 5.55 41.99 0.084 7.18 1.75 13.24
11/29/2022 4:15:00 PM 5.56 42.008 0.084 7.18 1.67 13.21
11/29/2022 4:30:00 PM 5.56 42.008 0.084 7.18 1.73 13.18
11/29/2022 4:45:00 PM 5.57 42.026 0.084 7.17 1.61 13.16
11/29/2022 5:00:00 PM 5.55 41.99 0.084 7.17 1.75 13.12
11/29/2022 5:15:00 PM 5.53 41.954 0.083 7.16 1.7 13.07
11/29/2022 5:30:00 PM 5.51 41.918 0.083 7.14 1.67 13.01
11/29/2022 5:45:00 PM 5.48 41.864 0.084 7.13 1.68 12.95
11/29/2022 6:00:00 PM 5.45 41.81 0.084 7.12 1.66 12.91
11/29/2022 6:15:00 PM 5.43 41.774 0.084 7.1 1.97 12.88
11/29/2022 6:30:00 PM 5.4 41.72 0.083 7.1 1.73 12.86
11/29/2022 6:45:00 PM 5.36 41.648 0.083 7.08 1.86 12.85
11/29/2022 7:00:00 PM 5.32 41.576 0.083 7.08 1.77 12.86
11/29/2022 7:15:00 PM 5.27 41.486 0.083 7.07 1.86 12.86
11/29/2022 7:30:00 PM 5.22 41.396 0.083 7.07 1.85 12.87
11/29/2022 7:45:00 PM 5.17 41.306 0.083 7.06 1.89 12.88
11/29/2022 8:00:00 PM 5.12 41.216 0.083 7.06 1.81 12.9
11/29/2022 8:15:00 PM 5.07 41.126 0.082 7.06 1.8 12.91
11/29/2022 8:30:00 PM 5.04 41.072 0.083 7.06 1.73 12.92
11/29/2022 8:45:00 PM 5.01 41.018 0.082 7.06 1.79 12.93
11/29/2022 9:00:00 PM 4.98 40.964 0.083 7.06 1.9 12.93
11/29/2022 9:15:00 PM 4.96 40.928 0.083 7.06 1.94 12.95
11/29/2022 9:30:00 PM 4.93 40.874 0.083 7.06 1.79 12.96
11/29/2022 9:45:00 PM 4.91 40.838 0.083 7.06 1.85 12.97
11/29/2022 10:00:00 PM 4.88 40.784 0.083 7.05 1.78 12.97
11/29/2022 10:15:00 PM 4.85 40.73 0.083 7.05 1.74 12.98
11/29/2022 10:30:00 PM 4.82 40.676 0.082 7.05 1.74 12.99
11/29/2022 10:45:00 PM 4.8 40.64 0.082 7.06 1.75 13
11/29/2022 11:00:00 PM 4.78 40.604 0.083 7.05 1.81 13
11/29/2022 11:15:00 PM 4.75 40.55 0.083 7.05 1.91 13.01
11/29/2022 11:30:00 PM 4.73 40.514 0.083 7.05 1.74 13.01
11/29/2022 11:45:00 PM 4.72 40.496 0.082 7.05 1.79 13.02
11/30/2022 12:00:00 AM 4.71 40.478 0.082 7.05 1.87 13.02
11/30/2022 12:15:00 AM 4.7 40.46 0.082 7.05 1.68 13.02
11/30/2022 12:30:00 AM 4.69 40.442 0.082 7.05 1.79 13.03
11/30/2022 12:45:00 AM 4.67 40.406 0.082 7.05 1.77 13.03
11/30/2022 1:00:00 AM 4.65 40.37 0.082 7.05 1.73 13.04
11/30/2022 1:15:00 AM 4.65 40.37 0.082 7.05 1.7 13.04
11/30/2022 1:30:00 AM 4.64 40.352 0.082 7.05 1.84 13.04
11/30/2022 1:45:00 AM 4.63 40.334 0.082 7.05 1.69 13.04
11/30/2022 2:00:00 AM 4.64 40.352 0.082 7.05 1.75 13.03
11/30/2022 2:15:00 AM 4.64 40.352 0.082 7.05 1.76 13.03
11/30/2022 2:30:00 AM 4.65 40.37 0.082 7.05 1.99 13.02
11/30/2022 2:45:00 AM 4.67 40.406 0.082 7.05 1.77 13.02
11/30/2022 3:00:00 AM 4.69 40.442 0.081 7.05 1.65 13.01
11/30/2022 3:15:00 AM 4.7 40.46 0.081 7.05 1.68 13.01
11/30/2022 3:30:00 AM 4.72 40.496 0.082 7.06 1.73 13.01
11/30/2022 3:45:00 AM 4.73 40.514 0.081 7.05 1.66 13
11/30/2022 4:00:00 AM 4.75 40.55 0.081 7.05 1.72 12.99
11/30/2022 4:15:00 AM 4.76 40.568 0.081 7.05 1.69 12.98
11/30/2022 4:30:00 AM 4.78 40.604 0.081 7.06 1.71 12.98
11/30/2022 4:45:00 AM 4.8 40.64 0.082 7.05 1.71 12.97
11/30/2022 5:00:00 AM 4.82 40.676 0.082 7.05 1.62 12.95
11/30/2022 5:15:00 AM 4.85 40.73 0.081 7.06 1.7 12.95
11/30/2022 5:30:00 AM 4.88 40.784 0.081 7.05 1.71 12.93
11/30/2022 5:45:00 AM 4.91 40.838 0.081 7.05 1.69 12.92
11/30/2022 6:00:00 AM 4.94 40.892 0.081 7.05 1.67 12.91
11/30/2022 6:15:00 AM 4.97 40.946 0.081 7.06 1.75 12.9
11/30/2022 6:30:00 AM 4.99 40.982 0.081 7.05 1.79 12.88
11/30/2022 6:45:00 AM 5.02 41.036 0.08 7.06 1.73 12.87
11/30/2022 7:00:00 AM 5.05 41.09 0.081 7.05 1.71 12.86
11/30/2022 7:15:00 AM 5.08 41.144 0.08 7.06 1.69 12.84
11/30/2022 7:30:00 AM 5.11 41.198 0.081 7.06 1.7 12.83
11/30/2022 7:45:00 AM 5.13 41.234 0.08 7.06 1.74 12.82
11/30/2022 8:00:00 AM 5.16 41.288 0.081 7.06 1.79 12.8
11/30/2022 8:15:00 AM 5.19 41.342 0.08 7.06 1.88 12.79
11/30/2022 8:30:00 AM 5.21 41.378 0.08 7.06 1.7 12.79
11/30/2022 8:45:00 AM 5.24 41.432 0.08 7.06 1.82 12.77
11/30/2022 9:00:00 AM 5.28 41.504 0.08 7.07 1.75 12.77
11/30/2022 9:15:00 AM 5.31 41.558 0.08 7.06 1.62 12.76
11/30/2022 9:30:00 AM 5.35 41.63 0.08 7.07 1.67 12.76
11/30/2022 9:45:00 AM 5.38 41.684 0.079 7.07 1.62 12.75
11/30/2022 10:00:00 AM 5.42 41.756 0.08 7.08 1.64 12.77
11/30/2022 10:15:00 AM 5.47 41.846 0.08 7.08 1.67 12.78
11/30/2022 10:30:00 AM 5.51 41.918 0.079 7.09 1.57 12.78
11/30/2022 10:45:00 AM 5.55 41.99 0.079 7.09 1.68 12.79
11/30/2022 11:00:00 AM 5.59 42.062 0.078 7.09 1.65 12.79
11/30/2022 11:15:00 AM 5.63 42.134 0.079 7.09 1.86 12.79
11/30/2022 11:30:00 AM 5.67 42.206 0.078 7.1 1.74 12.79
11/30/2022 11:45:00 AM 5.71 42.278 0.078 7.1 1.81 12.77
11/30/2022 12:00:00 PM 5.75 42.35 0.078 7.09 1.86 12.74
11/30/2022 12:15:00 PM 5.8 42.44 0.078 7.1 1.86 12.73
11/30/2022 12:30:00 PM 5.84 42.512 0.077 7.09 1.94 12.73
11/30/2022 12:45:00 PM 5.9 42.62 0.077 7.1 2.14 12.73
11/30/2022 1:00:00 PM 5.93 42.674 0.077 7.09 2.03 12.69
11/30/2022 1:15:00 PM 5.98 42.764 0.077 7.08 2.38 12.69
11/30/2022 1:30:00 PM 6.02 42.836 0.077 7.08 2.54 12.64
11/30/2022 1:45:00 PM 6.08 42.944 0.077 7.07 2.5 12.61
11/30/2022 2:00:00 PM 6.11 42.998 0.077 7.06 3.2 12.59
11/30/2022 2:15:00 PM 6.12 43.016 0.077 7.05 3.81 12.57
11/30/2022 2:30:00 PM 6.11 42.998 0.076 7.03 4.52 12.55
11/30/2022 2:45:00 PM 6.11 42.998 0.078 7.02 5.09 12.54
11/30/2022 3:00:00 PM 6.13 43.034 0.078 7.03 5.85 12.57
11/30/2022 3:15:00 PM 6.17 43.106 0.079 7.03 6.03 12.61
11/30/2022 3:30:00 PM 6.19 43.142 0.081 7.03 6.61 12.62
11/30/2022 3:45:00 PM 6.17 43.106 0.081 7.03 7.92 12.62
11/30/2022 4:00:00 PM 6.13 43.034 0.082 7.03 8.05 12.6
11/30/2022 4:15:00 PM 6.09 42.962 0.082 7.02 7.45 12.58
11/30/2022 4:30:00 PM 6.04 42.872 0.083 7.02 8.25 12.59
11/30/2022 4:45:00 PM 5.99 42.782 0.082 7.02 8.29 12.6
11/30/2022 5:00:00 PM 5.91 42.638 0.083 7.02 7.87 12.58
11/30/2022 5:15:00 PM 5.84 42.512 0.083 7.02 7.42 12.58
11/30/2022 5:30:00 PM 5.8 42.44 0.083 7.01 7.99 12.57
11/30/2022 5:45:00 PM 5.74 42.332 0.083 7.01 8.66 12.56
11/30/2022 6:00:00 PM 5.59 42.062 0.082 7.01 8.44 12.56
11/30/2022 6:15:00 PM 5.51 41.918 0.083 7 7.79 12.59
11/30/2022 6:30:00 PM 5.42 41.756 0.082 6.99 7.85 12.61
11/30/2022 6:45:00 PM 5.37 41.666 0.082 7 7.13 12.65
11/30/2022 7:00:00 PM 5.33 41.594 0.082 6.99 6.72 12.68
11/30/2022 7:15:00 PM 5.28 41.504 0.083 7 6.19 12.7
11/30/2022 7:30:00 PM 5.21 41.378 0.083 6.99 5.88 12.74
11/30/2022 7:45:00 PM 5.13 41.234 0.083 6.99 5.62 12.77
11/30/2022 8:00:00 PM 5.06 41.108 0.083 6.99 5.64 12.8
11/30/2022 8:15:00 PM 5.01 41.018 0.083 6.99 5.05 12.81
11/30/2022 8:30:00 PM 4.96 40.928 0.082 6.98 5.24 12.83
11/30/2022 8:45:00 PM 4.9 40.82 0.083 6.99 4.9 12.86
11/30/2022 9:00:00 PM 4.83 40.694 0.083 6.98 4.83 12.88
11/30/2022 9:15:00 PM 4.77 40.586 0.084 6.99 4.52 12.92
11/30/2022 9:30:00 PM 4.71 40.478 0.084 6.98 4.61 12.94
11/30/2022 9:45:00 PM 4.65 40.37 0.085 6.98 4.16 12.96
11/30/2022 10:00:00 PM 4.6 40.28 0.085 6.98 4.24 12.98
11/30/2022 10:15:00 PM 4.54 40.172 0.086 6.99 4.23 13
11/30/2022 10:30:00 PM 4.46 40.028 0.087 6.98 4.06 13.02
11/30/2022 10:45:00 PM 4.38 39.884 0.088 6.98 4.11 13.05
11/30/2022 11:00:00 PM 4.31 39.758 0.089 6.98 4.03 13.07
11/30/2022 11:15:00 PM 4.23 39.614 0.089 6.98 4.23 13.1
11/30/2022 11:30:00 PM 4.15 39.47 0.09 6.98 4.06 13.12
11/30/2022 11:45:00 PM 4.07 39.326 0.09 6.99 3.91 13.14
12/1/2022 12:00:00 AM 3.99 39.182 0.091 6.99 3.93 13.18
12/1/2022 12:15:00 AM 3.94 39.092 0.091 6.98 3.91 13.2
12/1/2022 12:30:00 AM 3.9 39.02 0.092 6.99 3.89 13.21
12/1/2022 12:45:00 AM 3.88 38.984 0.091 6.99 3.74 13.23
12/1/2022 1:00:00 AM 3.86 38.948 0.092 6.99 3.78 13.23
12/1/2022 1:15:00 AM 3.82 38.876 0.092 6.99 3.65 13.25
12/1/2022 1:30:00 AM 3.78 38.804 0.091 6.99 3.61 13.28
12/1/2022 1:45:00 AM 3.74 38.732 0.091 7 3.44 13.28
12/1/2022 2:00:00 AM 3.71 38.678 0.092 6.99 3.35 13.3
12/1/2022 2:15:00 AM 3.69 38.642 0.092 7 3.22 13.3
12/1/2022 2:30:00 AM 3.68 38.624 0.091 7 3.27 13.32
12/1/2022 2:45:00 AM 3.66 38.588 0.091 6.99 3.11 13.34
12/1/2022 3:00:00 AM 3.65 38.57 0.091 6.99 3.18 13.35
12/1/2022 3:15:00 AM 3.63 38.534 0.091 6.99 3.11 13.36
12/1/2022 3:30:00 AM 3.6 38.48 0.089 7 3.11 13.37
12/1/2022 3:45:00 AM 3.59 38.462 0.089 7 3.06 13.38
12/1/2022 4:00:00 AM 3.56 38.408 0.089 7 3.06 13.39
12/1/2022 4:15:00 AM 3.52 38.336 0.088 6.99 3.05 13.4
12/1/2022 4:30:00 AM 3.49 38.282 0.09 7 2.93 13.42
12/1/2022 4:45:00 AM 3.46 38.228 0.089 6.99 2.96 13.43
12/1/2022 5:00:00 AM 3.43 38.174 0.089 6.99 2.68 13.44
12/1/2022 5:15:00 AM 3.4 38.12 0.089 7 2.84 13.46
12/1/2022 5:30:00 AM 3.39 38.102 0.088 6.99 2.84 13.47
12/1/2022 5:45:00 AM 3.35 38.03 0.088 7 2.79 13.48
12/1/2022 6:00:00 AM 3.34 38.012 0.086 7 2.74 13.49
12/1/2022 6:15:00 AM 3.32 37.976 0.087 6.99 2.69 13.51
12/1/2022 6:30:00 AM 3.3 37.94 0.087 7 3.01 13.53
12/1/2022 6:45:00 AM 3.28 37.904 0.086 7 2.66 13.53
12/1/2022 7:00:00 AM 3.28 37.904 0.086 7 2.57 13.54
12/1/2022 7:15:00 AM 3.27 37.886 0.086 7 2.7 13.55
12/1/2022 7:30:00 AM 3.27 37.886 0.086 7 2.72 13.56